<?xml version='1.0' encoding='UTF-8'?><gpx version="1.1" creator="JPX - https://github.com/jenetics/jpx" xmlns="http://www.topografix.com/GPX/1/1"><trk><trkseg><trkpt lat="42.8292538" lon="13.2056352"><ele>1429.0</ele><time>2026-04-18T09:35:58.448Z</time></trkpt><trkpt lat="42.8291527" lon="13.2055725"><ele>1429.0</ele><time>2026-04-18T09:36:00.475Z</time></trkpt><trkpt lat="42.8290535" lon="13.2055358"><ele>1429.0</ele><time>2026-04-18T09:36:02.444Z</time></trkpt><trkpt lat="42.8289661" lon="13.2055299"><ele>1429.0</ele><time>2026-04-18T09:36:04.457Z</time></trkpt><trkpt lat="42.8289044" lon="13.205587"><ele>1429.0</ele><time>2026-04-18T09:36:06.498Z</time></trkpt><trkpt lat="42.8288437" lon="13.2056715"><ele>1427.4</ele><time>2026-04-18T09:36:08.472Z</time></trkpt><trkpt lat="42.8287436" lon="13.2057867"><ele>1425.8000000000002</ele><time>2026-04-18T09:36:10.458Z</time></trkpt><trkpt lat="42.8286815" lon="13.2058558"><ele>1424.1999999999998</ele><time>2026-04-18T09:36:11.455Z</time></trkpt><trkpt lat="42.8286146" lon="13.2059362"><ele>1422.6</ele><time>2026-04-18T09:36:12.48Z</time></trkpt><trkpt lat="42.828545" lon="13.2060204"><ele>1421.0</ele><time>2026-04-18T09:36:13.466Z</time></trkpt><trkpt lat="42.8284706" lon="13.2061105"><ele>1417.25</ele><time>2026-04-18T09:36:14.459Z</time></trkpt><trkpt lat="42.8283759" lon="13.2061964"><ele>1413.5</ele><time>2026-04-18T09:36:15.456Z</time></trkpt><trkpt lat="42.8282694" lon="13.2062815"><ele>1409.75</ele><time>2026-04-18T09:36:16.468Z</time></trkpt><trkpt lat="42.828163" lon="13.2063688"><ele>1406.0</ele><time>2026-04-18T09:36:17.462Z</time></trkpt><trkpt lat="42.828058" lon="13.206459"><ele>1411.0</ele><time>2026-04-18T09:36:18.52Z</time></trkpt><trkpt lat="42.8278659" lon="13.2066526"><ele>1416.0</ele><time>2026-04-18T09:36:20.523Z</time></trkpt><trkpt lat="42.827795" lon="13.2067551"><ele>1421.0</ele><time>2026-04-18T09:36:21.446Z</time></trkpt><trkpt lat="42.8277336" lon="13.2068787"><ele>1421.0</ele><time>2026-04-18T09:36:22.426Z</time></trkpt><trkpt lat="42.8276855" lon="13.2070182"><ele>1421.0</ele><time>2026-04-18T09:36:23.425Z</time></trkpt><trkpt lat="42.8276376" lon="13.2071653"><ele>1421.0</ele><time>2026-04-18T09:36:24.427Z</time></trkpt><trkpt lat="42.8275904" lon="13.2073113"><ele>1421.0</ele><time>2026-04-18T09:36:25.413Z</time></trkpt><trkpt lat="42.8275456" lon="13.207465"><ele>1416.5</ele><time>2026-04-18T09:36:26.432Z</time></trkpt><trkpt lat="42.8274978" lon="13.207615"><ele>1412.0</ele><time>2026-04-18T09:36:27.43Z</time></trkpt><trkpt lat="42.8274609" lon="13.2077633"><ele>1407.5</ele><time>2026-04-18T09:36:28.401Z</time></trkpt><trkpt lat="42.8274262" lon="13.2079259"><ele>1403.0</ele><time>2026-04-18T09:36:29.443Z</time></trkpt><trkpt lat="42.8274072" lon="13.2081133"><ele>1403.0</ele><time>2026-04-18T09:36:30.53Z</time></trkpt><trkpt lat="42.8273899" lon="13.2084496"><ele>1403.0</ele><time>2026-04-18T09:36:32.43Z</time></trkpt><trkpt lat="42.8273929" lon="13.2086318"><ele>1403.0</ele><time>2026-04-18T09:36:33.47Z</time></trkpt><trkpt lat="42.8274041" lon="13.2088054"><ele>1403.0</ele><time>2026-04-18T09:36:34.458Z</time></trkpt><trkpt lat="42.8274153" lon="13.2089785"><ele>1403.0</ele><time>2026-04-18T09:36:35.447Z</time></trkpt><trkpt lat="42.8274316" lon="13.2091514"><ele>1403.0</ele><time>2026-04-18T09:36:36.445Z</time></trkpt><trkpt lat="42.8274587" lon="13.2093243"><ele>1403.0</ele><time>2026-04-18T09:36:37.461Z</time></trkpt><trkpt lat="42.8274947" lon="13.2094954"><ele>1401.0</ele><time>2026-04-18T09:36:38.457Z</time></trkpt><trkpt lat="42.8275396" lon="13.2096623"><ele>1399.0</ele><time>2026-04-18T09:36:39.434Z</time></trkpt><trkpt lat="42.8275917" lon="13.2098344"><ele>1397.0</ele><time>2026-04-18T09:36:40.454Z</time></trkpt><trkpt lat="42.8276429" lon="13.2100011"><ele>1395.0</ele><time>2026-04-18T09:36:41.452Z</time></trkpt><trkpt lat="42.8276975" lon="13.2101883"><ele>1393.3333333333333</ele><time>2026-04-18T09:36:42.574Z</time></trkpt><trkpt lat="42.8277988" lon="13.2105109"><ele>1391.6666666666665</ele><time>2026-04-18T09:36:44.457Z</time></trkpt><trkpt lat="42.8278862" lon="13.2107157"><ele>1390.0</ele><time>2026-04-18T09:36:45.544Z</time></trkpt><trkpt lat="42.8280487" lon="13.2110961"><ele>1390.0</ele><time>2026-04-18T09:36:47.494Z</time></trkpt><trkpt lat="42.8281198" lon="13.2112862"><ele>1390.0</ele><time>2026-04-18T09:36:48.46Z</time></trkpt><trkpt lat="42.8281887" lon="13.2114759"><ele>1390.0</ele><time>2026-04-18T09:36:49.435Z</time></trkpt><trkpt lat="42.8282563" lon="13.2116699"><ele>1384.3333333333333</ele><time>2026-04-18T09:36:50.455Z</time></trkpt><trkpt lat="42.8283176" lon="13.211858"><ele>1378.6666666666667</ele><time>2026-04-18T09:36:51.453Z</time></trkpt><trkpt lat="42.8283746" lon="13.2120601"><ele>1373.0</ele><time>2026-04-18T09:36:52.52Z</time></trkpt><trkpt lat="42.8284202" lon="13.2122565"><ele>1372.0</ele><time>2026-04-18T09:36:53.549Z</time></trkpt><trkpt lat="42.8284442" lon="13.2124261"><ele>1371.0</ele><time>2026-04-18T09:36:54.459Z</time></trkpt><trkpt lat="42.8284619" lon="13.2126026"><ele>1370.0</ele><time>2026-04-18T09:36:55.448Z</time></trkpt><trkpt lat="42.8284891" lon="13.2127697"><ele>1369.0</ele><time>2026-04-18T09:36:56.435Z</time></trkpt><trkpt lat="42.8285199" lon="13.2129555"><ele>1369.0</ele><time>2026-04-18T09:36:57.493Z</time></trkpt><trkpt lat="42.8285429" lon="13.2131209"><ele>1369.0</ele><time>2026-04-18T09:36:58.482Z</time></trkpt><trkpt lat="42.8285748" lon="13.2132732"><ele>1369.0</ele><time>2026-04-18T09:36:59.479Z</time></trkpt><trkpt lat="42.8286208" lon="13.2134002"><ele>1369.0</ele><time>2026-04-18T09:37:00.459Z</time></trkpt><trkpt lat="42.8286797" lon="13.2135035"><ele>1369.0</ele><time>2026-04-18T09:37:01.479Z</time></trkpt><trkpt lat="42.8287469" lon="13.2135838"><ele>1366.6</ele><time>2026-04-18T09:37:02.467Z</time></trkpt><trkpt lat="42.8288438" lon="13.2136636"><ele>1364.2</ele><time>2026-04-18T09:37:03.541Z</time></trkpt><trkpt lat="42.8289236" lon="13.2137485"><ele>1361.8</ele><time>2026-04-18T09:37:04.444Z</time></trkpt><trkpt lat="42.8290124" lon="13.2138538"><ele>1359.3999999999999</ele><time>2026-04-18T09:37:05.487Z</time></trkpt><trkpt lat="42.8290923" lon="13.2139456"><ele>1357.0</ele><time>2026-04-18T09:37:06.451Z</time></trkpt><trkpt lat="42.8291809" lon="13.2140274"><ele>1355.3999999999999</ele><time>2026-04-18T09:37:07.432Z</time></trkpt><trkpt lat="42.8292694" lon="13.214108"><ele>1353.8</ele><time>2026-04-18T09:37:08.442Z</time></trkpt><trkpt lat="42.8293551" lon="13.2141866"><ele>1352.2</ele><time>2026-04-18T09:37:09.455Z</time></trkpt><trkpt lat="42.8294213" lon="13.2142829"><ele>1350.6</ele><time>2026-04-18T09:37:10.433Z</time></trkpt><trkpt lat="42.8294696" lon="13.2144075"><ele>1349.0</ele><time>2026-04-18T09:37:11.462Z</time></trkpt><trkpt lat="42.8294827" lon="13.2145364"><ele>1347.0</ele><time>2026-04-18T09:37:12.434Z</time></trkpt><trkpt lat="42.829463" lon="13.2146677"><ele>1345.0</ele><time>2026-04-18T09:37:13.427Z</time></trkpt><trkpt lat="42.8294144" lon="13.2147868"><ele>1343.0</ele><time>2026-04-18T09:37:14.43Z</time></trkpt><trkpt lat="42.8293419" lon="13.2148811"><ele>1341.0</ele><time>2026-04-18T09:37:15.452Z</time></trkpt><trkpt lat="42.8292488" lon="13.2149438"><ele>1339.0</ele><time>2026-04-18T09:37:16.453Z</time></trkpt><trkpt lat="42.8291407" lon="13.214972"><ele>1338.0</ele><time>2026-04-18T09:37:17.472Z</time></trkpt><trkpt lat="42.8290301" lon="13.2149685"><ele>1337.0</ele><time>2026-04-18T09:37:18.437Z</time></trkpt><trkpt lat="42.8288878" lon="13.2149602"><ele>1336.0</ele><time>2026-04-18T09:37:19.559Z</time></trkpt><trkpt lat="42.8286296" lon="13.2149572"><ele>1336.0</ele><time>2026-04-18T09:37:21.45Z</time></trkpt><trkpt lat="42.8284866" lon="13.214949"><ele>1336.0</ele><time>2026-04-18T09:37:22.472Z</time></trkpt><trkpt lat="42.8283474" lon="13.2149434"><ele>1336.0</ele><time>2026-04-18T09:37:23.482Z</time></trkpt><trkpt lat="42.8282172" lon="13.2149456"><ele>1336.0</ele><time>2026-04-18T09:37:24.436Z</time></trkpt><trkpt lat="42.8280893" lon="13.2149417"><ele>1333.6666666666665</ele><time>2026-04-18T09:37:25.436Z</time></trkpt><trkpt lat="42.8279662" lon="13.2149179"><ele>1331.3333333333333</ele><time>2026-04-18T09:37:26.448Z</time></trkpt><trkpt lat="42.8278292" lon="13.2148737"><ele>1329.0</ele><time>2026-04-18T09:37:27.555Z</time></trkpt><trkpt lat="42.8276434" lon="13.2146828"><ele>1327.75</ele><time>2026-04-18T09:37:29.434Z</time></trkpt><trkpt lat="42.8275733" lon="13.2144893"><ele>1326.5</ele><time>2026-04-18T09:37:30.432Z</time></trkpt><trkpt lat="42.8275" lon="13.214313"><ele>1325.25</ele><time>2026-04-18T09:37:31.458Z</time></trkpt><trkpt lat="42.827418" lon="13.2141726"><ele>1324.0</ele><time>2026-04-18T09:37:32.447Z</time></trkpt><trkpt lat="42.8273123" lon="13.2140247"><ele>1326.0</ele><time>2026-04-18T09:37:33.559Z</time></trkpt><trkpt lat="42.8272126" lon="13.2139355"><ele>1328.0</ele><time>2026-04-18T09:37:34.472Z</time></trkpt><trkpt lat="42.8270838" lon="13.2138742"><ele>1330.0</ele><time>2026-04-18T09:37:35.481Z</time></trkpt><trkpt lat="42.8269289" lon="13.2138382"><ele>1332.0</ele><time>2026-04-18T09:37:36.548Z</time></trkpt><trkpt lat="42.8267915" lon="13.2138317"><ele>1326.6666666666667</ele><time>2026-04-18T09:37:37.449Z</time></trkpt><trkpt lat="42.8266342" lon="13.2138254"><ele>1321.3333333333335</ele><time>2026-04-18T09:37:38.498Z</time></trkpt><trkpt lat="42.8264835" lon="13.2138188"><ele>1316.0</ele><time>2026-04-18T09:37:39.449Z</time></trkpt><trkpt lat="42.8263187" lon="13.2138049"><ele>1316.0</ele><time>2026-04-18T09:37:40.486Z</time></trkpt><trkpt lat="42.8261618" lon="13.2137873"><ele>1316.0</ele><time>2026-04-18T09:37:41.457Z</time></trkpt><trkpt lat="42.825997" lon="13.213773"><ele>1316.0</ele><time>2026-04-18T09:37:42.449Z</time></trkpt><trkpt lat="42.8258329" lon="13.2137609"><ele>1313.0</ele><time>2026-04-18T09:37:43.421Z</time></trkpt><trkpt lat="42.8256579" lon="13.2137426"><ele>1310.0</ele><time>2026-04-18T09:37:44.45Z</time></trkpt><trkpt lat="42.825492" lon="13.2137223"><ele>1307.0</ele><time>2026-04-18T09:37:45.423Z</time></trkpt><trkpt lat="42.8253137" lon="13.213705"><ele>1306.6666666666667</ele><time>2026-04-18T09:37:46.457Z</time></trkpt><trkpt lat="42.8251381" lon="13.2136907"><ele>1306.3333333333333</ele><time>2026-04-18T09:37:47.475Z</time></trkpt><trkpt lat="42.8249697" lon="13.2136788"><ele>1306.0</ele><time>2026-04-18T09:37:48.449Z</time></trkpt><trkpt lat="42.8247854" lon="13.2136642"><ele>1306.0</ele><time>2026-04-18T09:37:49.511Z</time></trkpt><trkpt lat="42.8246254" lon="13.2136473"><ele>1306.0</ele><time>2026-04-18T09:37:50.439Z</time></trkpt><trkpt lat="42.8244538" lon="13.2136248"><ele>1306.0</ele><time>2026-04-18T09:37:51.433Z</time></trkpt><trkpt lat="42.8242821" lon="13.2135991"><ele>1305.3333333333333</ele><time>2026-04-18T09:37:52.439Z</time></trkpt><trkpt lat="42.824109" lon="13.2135785"><ele>1304.6666666666667</ele><time>2026-04-18T09:37:53.455Z</time></trkpt><trkpt lat="42.8239323" lon="13.2135625"><ele>1304.0</ele><time>2026-04-18T09:37:54.496Z</time></trkpt><trkpt lat="42.8237507" lon="13.2135479"><ele>1304.0</ele><time>2026-04-18T09:37:55.558Z</time></trkpt><trkpt lat="42.8235932" lon="13.2135327"><ele>1304.0</ele><time>2026-04-18T09:37:56.483Z</time></trkpt><trkpt lat="42.823408" lon="13.2135143"><ele>1304.0</ele><time>2026-04-18T09:37:57.575Z</time></trkpt><trkpt lat="42.8230903" lon="13.2134786"><ele>1304.0</ele><time>2026-04-18T09:37:59.456Z</time></trkpt><trkpt lat="42.8229252" lon="13.2134581"><ele>1304.0</ele><time>2026-04-18T09:38:00.435Z</time></trkpt><trkpt lat="42.8227589" lon="13.2134384"><ele>1304.0</ele><time>2026-04-18T09:38:01.425Z</time></trkpt><trkpt lat="42.8225892" lon="13.2134268"><ele>1303.3333333333335</ele><time>2026-04-18T09:38:02.432Z</time></trkpt><trkpt lat="42.8224072" lon="13.2134144"><ele>1302.6666666666667</ele><time>2026-04-18T09:38:03.52Z</time></trkpt><trkpt lat="42.8222507" lon="13.2133979"><ele>1302.0</ele><time>2026-04-18T09:38:04.457Z</time></trkpt><trkpt lat="42.8220885" lon="13.2133796"><ele>1302.0</ele><time>2026-04-18T09:38:05.434Z</time></trkpt><trkpt lat="42.8219157" lon="13.2133607"><ele>1302.0</ele><time>2026-04-18T09:38:06.47Z</time></trkpt><trkpt lat="42.821748" lon="13.2133431"><ele>1302.0</ele><time>2026-04-18T09:38:07.469Z</time></trkpt><trkpt lat="42.8215762" lon="13.2133219"><ele>1302.3333333333333</ele><time>2026-04-18T09:38:08.494Z</time></trkpt><trkpt lat="42.8214108" lon="13.2133077"><ele>1302.6666666666665</ele><time>2026-04-18T09:38:09.467Z</time></trkpt><trkpt lat="42.8212275" lon="13.2132901"><ele>1303.0</ele><time>2026-04-18T09:38:10.55Z</time></trkpt><trkpt lat="42.8209011" lon="13.213246"><ele>1302.6666666666665</ele><time>2026-04-18T09:38:12.467Z</time></trkpt><trkpt lat="42.8207286" lon="13.2132204"><ele>1302.3333333333333</ele><time>2026-04-18T09:38:13.483Z</time></trkpt><trkpt lat="42.8205646" lon="13.2131844"><ele>1302.0</ele><time>2026-04-18T09:38:14.446Z</time></trkpt><trkpt lat="42.8203961" lon="13.2131253"><ele>1302.0</ele><time>2026-04-18T09:38:15.45Z</time></trkpt><trkpt lat="42.8202362" lon="13.2130413"><ele>1302.0</ele><time>2026-04-18T09:38:16.434Z</time></trkpt><trkpt lat="42.8200785" lon="13.2129451"><ele>1302.0</ele><time>2026-04-18T09:38:17.426Z</time></trkpt><trkpt lat="42.8199152" lon="13.2128489"><ele>1301.3333333333333</ele><time>2026-04-18T09:38:18.443Z</time></trkpt><trkpt lat="42.8197568" lon="13.2127473"><ele>1300.6666666666665</ele><time>2026-04-18T09:38:19.457Z</time></trkpt><trkpt lat="42.8196024" lon="13.2126416"><ele>1300.0</ele><time>2026-04-18T09:38:20.452Z</time></trkpt><trkpt lat="42.8194461" lon="13.2125387"><ele>1300.0</ele><time>2026-04-18T09:38:21.456Z</time></trkpt><trkpt lat="42.8192924" lon="13.2124344"><ele>1300.0</ele><time>2026-04-18T09:38:22.452Z</time></trkpt><trkpt lat="42.8191425" lon="13.2123188"><ele>1300.0</ele><time>2026-04-18T09:38:23.458Z</time></trkpt><trkpt lat="42.8190001" lon="13.212198"><ele>1300.0</ele><time>2026-04-18T09:38:24.444Z</time></trkpt><trkpt lat="42.8188515" lon="13.2120771"><ele>1300.0</ele><time>2026-04-18T09:38:25.462Z</time></trkpt><trkpt lat="42.8187072" lon="13.211961"><ele>1300.0</ele><time>2026-04-18T09:38:26.453Z</time></trkpt><trkpt lat="42.8185619" lon="13.2118431"><ele>1299.0</ele><time>2026-04-18T09:38:27.455Z</time></trkpt><trkpt lat="42.818415" lon="13.2117243"><ele>1298.0</ele><time>2026-04-18T09:38:28.46Z</time></trkpt><trkpt lat="42.8182657" lon="13.2116035"><ele>1297.0</ele><time>2026-04-18T09:38:29.478Z</time></trkpt><trkpt lat="42.8181242" lon="13.2114875"><ele>1297.0</ele><time>2026-04-18T09:38:30.45Z</time></trkpt><trkpt lat="42.8179772" lon="13.211366"><ele>1297.0</ele><time>2026-04-18T09:38:31.461Z</time></trkpt><trkpt lat="42.8178268" lon="13.2112417"><ele>1297.0</ele><time>2026-04-18T09:38:32.483Z</time></trkpt><trkpt lat="42.817686" lon="13.2111265"><ele>1297.0</ele><time>2026-04-18T09:38:33.444Z</time></trkpt><trkpt lat="42.8175309" lon="13.2110043"><ele>1297.0</ele><time>2026-04-18T09:38:34.489Z</time></trkpt><trkpt lat="42.8173887" lon="13.2108922"><ele>1297.0</ele><time>2026-04-18T09:38:35.454Z</time></trkpt><trkpt lat="42.8172245" lon="13.2107488"><ele>1297.0</ele><time>2026-04-18T09:38:36.595Z</time></trkpt><trkpt lat="42.8169829" lon="13.2104657"><ele>1297.0</ele><time>2026-04-18T09:38:38.457Z</time></trkpt><trkpt lat="42.8168579" lon="13.2103036"><ele>1297.0</ele><time>2026-04-18T09:38:39.456Z</time></trkpt><trkpt lat="42.8167253" lon="13.2101347"><ele>1297.0</ele><time>2026-04-18T09:38:40.511Z</time></trkpt><trkpt lat="42.816603" lon="13.2099771"><ele>1297.0</ele><time>2026-04-18T09:38:41.498Z</time></trkpt><trkpt lat="42.8164635" lon="13.2097964"><ele>1297.0</ele><time>2026-04-18T09:38:42.631Z</time></trkpt><trkpt lat="42.8162184" lon="13.2094936"><ele>1297.0</ele><time>2026-04-18T09:38:44.546Z</time></trkpt><trkpt lat="42.8161008" lon="13.2093474"><ele>1297.0</ele><time>2026-04-18T09:38:45.455Z</time></trkpt><trkpt lat="42.8159682" lon="13.2091786"><ele>1297.0</ele><time>2026-04-18T09:38:46.482Z</time></trkpt><trkpt lat="42.8158402" lon="13.2090165"><ele>1297.0</ele><time>2026-04-18T09:38:47.473Z</time></trkpt><trkpt lat="42.8157096" lon="13.2088505"><ele>1295.6666666666665</ele><time>2026-04-18T09:38:48.48Z</time></trkpt><trkpt lat="42.8155796" lon="13.2086842"><ele>1294.3333333333333</ele><time>2026-04-18T09:38:49.474Z</time></trkpt><trkpt lat="42.815446" lon="13.2085138"><ele>1293.0</ele><time>2026-04-18T09:38:50.482Z</time></trkpt><trkpt lat="42.815316" lon="13.2083468"><ele>1293.0</ele><time>2026-04-18T09:38:51.458Z</time></trkpt><trkpt lat="42.8151796" lon="13.2081782"><ele>1293.0</ele><time>2026-04-18T09:38:52.46Z</time></trkpt><trkpt lat="42.815037" lon="13.2080052"><ele>1293.0</ele><time>2026-04-18T09:38:53.487Z</time></trkpt><trkpt lat="42.8149013" lon="13.2078357"><ele>1292.5</ele><time>2026-04-18T09:38:54.465Z</time></trkpt><trkpt lat="42.8147378" lon="13.2076256"><ele>1292.0</ele><time>2026-04-18T09:38:55.646Z</time></trkpt><trkpt lat="42.8144832" lon="13.2073"><ele>1292.0</ele><time>2026-04-18T09:38:57.456Z</time></trkpt><trkpt lat="42.8143323" lon="13.2071126"><ele>1292.0</ele><time>2026-04-18T09:38:58.498Z</time></trkpt><trkpt lat="42.8141841" lon="13.2069292"><ele>1292.0</ele><time>2026-04-18T09:38:59.507Z</time></trkpt><trkpt lat="42.8140421" lon="13.2067526"><ele>1292.0</ele><time>2026-04-18T09:39:00.461Z</time></trkpt><trkpt lat="42.813886" lon="13.206554"><ele>1292.0</ele><time>2026-04-18T09:39:01.517Z</time></trkpt><trkpt lat="42.8137377" lon="13.2063686"><ele>1292.0</ele><time>2026-04-18T09:39:02.511Z</time></trkpt><trkpt lat="42.8135958" lon="13.2061936"><ele>1291.0</ele><time>2026-04-18T09:39:03.478Z</time></trkpt><trkpt lat="42.813398" lon="13.2059491"><ele>1290.0</ele><time>2026-04-18T09:39:04.9Z</time></trkpt><trkpt lat="42.8131985" lon="13.2056909"><ele>1291.5</ele><time>2026-04-18T09:39:06.491Z</time></trkpt><trkpt lat="42.813059" lon="13.2055246"><ele>1293.0</ele><time>2026-04-18T09:39:07.599Z</time></trkpt><trkpt lat="42.8128304" lon="13.2052338"><ele>1293.0</ele><time>2026-04-18T09:39:09.475Z</time></trkpt><trkpt lat="42.812707" lon="13.2050778"><ele>1293.0</ele><time>2026-04-18T09:39:10.487Z</time></trkpt><trkpt lat="42.8125846" lon="13.2049272"><ele>1293.0</ele><time>2026-04-18T09:39:11.479Z</time></trkpt><trkpt lat="42.8124463" lon="13.2047533"><ele>1291.0</ele><time>2026-04-18T09:39:12.602Z</time></trkpt><trkpt lat="42.8122146" lon="13.2044628"><ele>1289.0</ele><time>2026-04-18T09:39:14.472Z</time></trkpt><trkpt lat="42.8120904" lon="13.2043095"><ele>1289.0</ele><time>2026-04-18T09:39:15.45Z</time></trkpt><trkpt lat="42.8119626" lon="13.2041494"><ele>1289.0</ele><time>2026-04-18T09:39:16.463Z</time></trkpt><trkpt lat="42.8118364" lon="13.2039872"><ele>1289.0</ele><time>2026-04-18T09:39:17.465Z</time></trkpt><trkpt lat="42.8117109" lon="13.2038277"><ele>1287.3333333333335</ele><time>2026-04-18T09:39:18.464Z</time></trkpt><trkpt lat="42.8115831" lon="13.2036735"><ele>1285.6666666666667</ele><time>2026-04-18T09:39:19.453Z</time></trkpt><trkpt lat="42.8114486" lon="13.2035127"><ele>1284.0</ele><time>2026-04-18T09:39:20.487Z</time></trkpt><trkpt lat="42.8113186" lon="13.2033515"><ele>1284.0</ele><time>2026-04-18T09:39:21.509Z</time></trkpt><trkpt lat="42.8111959" lon="13.2031987"><ele>1284.0</ele><time>2026-04-18T09:39:22.479Z</time></trkpt><trkpt lat="42.8110622" lon="13.2030324"><ele>1284.0</ele><time>2026-04-18T09:39:23.543Z</time></trkpt><trkpt lat="42.8109428" lon="13.2028886"><ele>1285.0</ele><time>2026-04-18T09:39:24.473Z</time></trkpt><trkpt lat="42.8108134" lon="13.2027314"><ele>1286.0</ele><time>2026-04-18T09:39:25.487Z</time></trkpt><trkpt lat="42.8106854" lon="13.2025741"><ele>1287.0</ele><time>2026-04-18T09:39:26.499Z</time></trkpt><trkpt lat="42.8105609" lon="13.2024227"><ele>1287.0</ele><time>2026-04-18T09:39:27.483Z</time></trkpt><trkpt lat="42.8104241" lon="13.2022543"><ele>1287.0</ele><time>2026-04-18T09:39:28.565Z</time></trkpt><trkpt lat="42.8103132" lon="13.20211"><ele>1287.0</ele><time>2026-04-18T09:39:29.469Z</time></trkpt><trkpt lat="42.8101915" lon="13.2019457"><ele>1286.3333333333333</ele><time>2026-04-18T09:39:30.481Z</time></trkpt><trkpt lat="42.810072" lon="13.2017803"><ele>1285.6666666666665</ele><time>2026-04-18T09:39:31.484Z</time></trkpt><trkpt lat="42.8099523" lon="13.2016202"><ele>1285.0</ele><time>2026-04-18T09:39:32.473Z</time></trkpt><trkpt lat="42.8098261" lon="13.2014605"><ele>1284.6666666666665</ele><time>2026-04-18T09:39:33.484Z</time></trkpt><trkpt lat="42.8097044" lon="13.2013077"><ele>1284.3333333333333</ele><time>2026-04-18T09:39:34.456Z</time></trkpt><trkpt lat="42.8095722" lon="13.2011416"><ele>1284.0</ele><time>2026-04-18T09:39:35.514Z</time></trkpt><trkpt lat="42.8094525" lon="13.2009918"><ele>1283.3333333333333</ele><time>2026-04-18T09:39:36.468Z</time></trkpt><trkpt lat="42.8093224" lon="13.2008316"><ele>1282.6666666666665</ele><time>2026-04-18T09:39:37.5Z</time></trkpt><trkpt lat="42.8091961" lon="13.2006733"><ele>1282.0</ele><time>2026-04-18T09:39:38.499Z</time></trkpt><trkpt lat="42.8090723" lon="13.2005184"><ele>1282.0</ele><time>2026-04-18T09:39:39.441Z</time></trkpt><trkpt lat="42.8089278" lon="13.2003367"><ele>1282.0</ele><time>2026-04-18T09:39:40.533Z</time></trkpt><trkpt lat="42.8088093" lon="13.2001827"><ele>1282.0</ele><time>2026-04-18T09:39:41.452Z</time></trkpt><trkpt lat="42.8086823" lon="13.2000191"><ele>1282.0</ele><time>2026-04-18T09:39:42.457Z</time></trkpt><trkpt lat="42.8085513" lon="13.1998519"><ele>1282.0</ele><time>2026-04-18T09:39:43.472Z</time></trkpt><trkpt lat="42.8084222" lon="13.1996851"><ele>1282.0</ele><time>2026-04-18T09:39:44.467Z</time></trkpt><trkpt lat="42.8082878" lon="13.1995121"><ele>1282.0</ele><time>2026-04-18T09:39:45.496Z</time></trkpt><trkpt lat="42.808163" lon="13.1993519"><ele>1282.0</ele><time>2026-04-18T09:39:46.456Z</time></trkpt><trkpt lat="42.8080262" lon="13.1991819"><ele>1282.0</ele><time>2026-04-18T09:39:47.487Z</time></trkpt><trkpt lat="42.8078901" lon="13.1990138"><ele>1282.0</ele><time>2026-04-18T09:39:48.493Z</time></trkpt><trkpt lat="42.8077548" lon="13.198844"><ele>1282.0</ele><time>2026-04-18T09:39:49.49Z</time></trkpt><trkpt lat="42.8076195" lon="13.1986708"><ele>1282.0</ele><time>2026-04-18T09:39:50.491Z</time></trkpt><trkpt lat="42.8074868" lon="13.1984984"><ele>1281.6666666666665</ele><time>2026-04-18T09:39:51.475Z</time></trkpt><trkpt lat="42.8073389" lon="13.1983096"><ele>1281.3333333333333</ele><time>2026-04-18T09:39:52.555Z</time></trkpt><trkpt lat="42.8072088" lon="13.1981496"><ele>1281.0</ele><time>2026-04-18T09:39:53.481Z</time></trkpt><trkpt lat="42.807068" lon="13.1979779"><ele>1280.6666666666667</ele><time>2026-04-18T09:39:54.467Z</time></trkpt><trkpt lat="42.8069275" lon="13.1978045"><ele>1280.3333333333335</ele><time>2026-04-18T09:39:55.446Z</time></trkpt><trkpt lat="42.8067828" lon="13.1976202"><ele>1280.0</ele><time>2026-04-18T09:39:56.463Z</time></trkpt><trkpt lat="42.8066377" lon="13.1974326"><ele>1279.6666666666667</ele><time>2026-04-18T09:39:57.487Z</time></trkpt><trkpt lat="42.8064923" lon="13.1972483"><ele>1279.3333333333333</ele><time>2026-04-18T09:39:58.499Z</time></trkpt><trkpt lat="42.806341" lon="13.1970564"><ele>1279.0</ele><time>2026-04-18T09:39:59.545Z</time></trkpt><trkpt lat="42.8062065" lon="13.1968855"><ele>1279.0</ele><time>2026-04-18T09:40:00.473Z</time></trkpt><trkpt lat="42.8060603" lon="13.1966992"><ele>1279.0</ele><time>2026-04-18T09:40:01.478Z</time></trkpt><trkpt lat="42.8059132" lon="13.1965123"><ele>1279.0</ele><time>2026-04-18T09:40:02.485Z</time></trkpt><trkpt lat="42.8057687" lon="13.196329"><ele>1280.0</ele><time>2026-04-18T09:40:03.491Z</time></trkpt><trkpt lat="42.8056334" lon="13.1961596"><ele>1281.0</ele><time>2026-04-18T09:40:04.486Z</time></trkpt><trkpt lat="42.805503" lon="13.195996"><ele>1282.0</ele><time>2026-04-18T09:40:05.479Z</time></trkpt><trkpt lat="42.8053746" lon="13.1958356"><ele>1281.3333333333333</ele><time>2026-04-18T09:40:06.472Z</time></trkpt><trkpt lat="42.8052386" lon="13.1956655"><ele>1280.6666666666667</ele><time>2026-04-18T09:40:07.515Z</time></trkpt><trkpt lat="42.8051104" lon="13.1955092"><ele>1280.0</ele><time>2026-04-18T09:40:08.488Z</time></trkpt><trkpt lat="42.8049715" lon="13.1953369"><ele>1280.0</ele><time>2026-04-18T09:40:09.546Z</time></trkpt><trkpt lat="42.8048479" lon="13.1951812"><ele>1280.0</ele><time>2026-04-18T09:40:10.488Z</time></trkpt><trkpt lat="42.8047212" lon="13.1950209"><ele>1280.0</ele><time>2026-04-18T09:40:11.452Z</time></trkpt><trkpt lat="42.8045851" lon="13.1948497"><ele>1279.6666666666667</ele><time>2026-04-18T09:40:12.472Z</time></trkpt><trkpt lat="42.8044467" lon="13.1946772"><ele>1279.3333333333333</ele><time>2026-04-18T09:40:13.505Z</time></trkpt><trkpt lat="42.8043142" lon="13.1945113"><ele>1279.0</ele><time>2026-04-18T09:40:14.493Z</time></trkpt><trkpt lat="42.8041857" lon="13.194349"><ele>1278.3333333333333</ele><time>2026-04-18T09:40:15.451Z</time></trkpt><trkpt lat="42.8040406" lon="13.1941665"><ele>1277.6666666666667</ele><time>2026-04-18T09:40:16.534Z</time></trkpt><trkpt lat="42.8039138" lon="13.1940117"><ele>1277.0</ele><time>2026-04-18T09:40:17.461Z</time></trkpt><trkpt lat="42.8037592" lon="13.1938209"><ele>1277.0</ele><time>2026-04-18T09:40:18.582Z</time></trkpt><trkpt lat="42.8034965" lon="13.1934885"><ele>1277.0</ele><time>2026-04-18T09:40:20.457Z</time></trkpt><trkpt lat="42.8033445" lon="13.1932948"><ele>1276.6666666666667</ele><time>2026-04-18T09:40:21.503Z</time></trkpt><trkpt lat="42.8031972" lon="13.193112"><ele>1276.3333333333333</ele><time>2026-04-18T09:40:22.459Z</time></trkpt><trkpt lat="42.8030201" lon="13.19289"><ele>1276.0</ele><time>2026-04-18T09:40:23.568Z</time></trkpt><trkpt lat="42.8028735" lon="13.1927008"><ele>1276.0</ele><time>2026-04-18T09:40:24.479Z</time></trkpt><trkpt lat="42.8027092" lon="13.1924907"><ele>1276.0</ele><time>2026-04-18T09:40:25.483Z</time></trkpt><trkpt lat="42.8025421" lon="13.1922801"><ele>1275.0</ele><time>2026-04-18T09:40:26.478Z</time></trkpt><trkpt lat="42.8023489" lon="13.1920376"><ele>1274.0</ele><time>2026-04-18T09:40:27.605Z</time></trkpt><trkpt lat="42.8021881" lon="13.1918375"><ele>1274.0</ele><time>2026-04-18T09:40:28.532Z</time></trkpt><trkpt lat="42.8020256" lon="13.191635"><ele>1274.0</ele><time>2026-04-18T09:40:29.459Z</time></trkpt><trkpt lat="42.8018442" lon="13.1914048"><ele>1274.0</ele><time>2026-04-18T09:40:30.493Z</time></trkpt><trkpt lat="42.8016695" lon="13.1911894"><ele>1274.0</ele><time>2026-04-18T09:40:31.466Z</time></trkpt><trkpt lat="42.8014686" lon="13.1909393"><ele>1276.0</ele><time>2026-04-18T09:40:32.592Z</time></trkpt><trkpt lat="42.8011328" lon="13.1905139"><ele>1275.0</ele><time>2026-04-18T09:40:34.499Z</time></trkpt><trkpt lat="42.8009416" lon="13.1902737"><ele>1274.0</ele><time>2026-04-18T09:40:35.587Z</time></trkpt><trkpt lat="42.8006081" lon="13.1898561"><ele>1273.0</ele><time>2026-04-18T09:40:37.502Z</time></trkpt><trkpt lat="42.8004404" lon="13.1896416"><ele>1272.0</ele><time>2026-04-18T09:40:38.487Z</time></trkpt><trkpt lat="42.8002702" lon="13.1894282"><ele>1272.0</ele><time>2026-04-18T09:40:39.488Z</time></trkpt><trkpt lat="42.800096" lon="13.1892117"><ele>1272.0</ele><time>2026-04-18T09:40:40.513Z</time></trkpt><trkpt lat="42.7999197" lon="13.1889913"><ele>1272.6666666666667</ele><time>2026-04-18T09:40:41.562Z</time></trkpt><trkpt lat="42.7997698" lon="13.1888014"><ele>1273.3333333333335</ele><time>2026-04-18T09:40:42.463Z</time></trkpt><trkpt lat="42.7995914" lon="13.1885738"><ele>1274.0</ele><time>2026-04-18T09:40:43.545Z</time></trkpt><trkpt lat="42.7994417" lon="13.1883813"><ele>1275.0</ele><time>2026-04-18T09:40:44.465Z</time></trkpt><trkpt lat="42.7992738" lon="13.1881693"><ele>1276.0</ele><time>2026-04-18T09:40:45.492Z</time></trkpt><trkpt lat="42.7991088" lon="13.187963"><ele>1276.0</ele><time>2026-04-18T09:40:46.502Z</time></trkpt><trkpt lat="42.7989486" lon="13.1877611"><ele>1276.0</ele><time>2026-04-18T09:40:47.495Z</time></trkpt><trkpt lat="42.7987846" lon="13.1875531"><ele>1276.0</ele><time>2026-04-18T09:40:48.52Z</time></trkpt><trkpt lat="42.7986309" lon="13.1873585"><ele>1275.5</ele><time>2026-04-18T09:40:49.483Z</time></trkpt><trkpt lat="42.7984671" lon="13.1871528"><ele>1275.0</ele><time>2026-04-18T09:40:50.507Z</time></trkpt><trkpt lat="42.7982946" lon="13.1869364"><ele>1275.0</ele><time>2026-04-18T09:40:51.598Z</time></trkpt><trkpt lat="42.7981439" lon="13.1867507"><ele>1275.0</ele><time>2026-04-18T09:40:52.549Z</time></trkpt><trkpt lat="42.7979932" lon="13.1865656"><ele>1275.0</ele><time>2026-04-18T09:40:53.502Z</time></trkpt><trkpt lat="42.7978451" lon="13.1863777"><ele>1275.6666666666667</ele><time>2026-04-18T09:40:54.454Z</time></trkpt><trkpt lat="42.7976834" lon="13.1861662"><ele>1276.3333333333335</ele><time>2026-04-18T09:40:55.509Z</time></trkpt><trkpt lat="42.7975365" lon="13.1859825"><ele>1277.0</ele><time>2026-04-18T09:40:56.459Z</time></trkpt><trkpt lat="42.7973737" lon="13.1857883"><ele>1276.6666666666667</ele><time>2026-04-18T09:40:57.487Z</time></trkpt><trkpt lat="42.7972171" lon="13.1855948"><ele>1276.3333333333333</ele><time>2026-04-18T09:40:58.494Z</time></trkpt><trkpt lat="42.7970685" lon="13.1854006"><ele>1276.0</ele><time>2026-04-18T09:40:59.478Z</time></trkpt><trkpt lat="42.7969135" lon="13.1852001"><ele>1275.6666666666665</ele><time>2026-04-18T09:41:00.513Z</time></trkpt><trkpt lat="42.7967647" lon="13.1850187"><ele>1275.3333333333333</ele><time>2026-04-18T09:41:01.489Z</time></trkpt><trkpt lat="42.7966159" lon="13.1848349"><ele>1275.0</ele><time>2026-04-18T09:41:02.491Z</time></trkpt><trkpt lat="42.7964718" lon="13.1846491"><ele>1276.3333333333333</ele><time>2026-04-18T09:41:03.481Z</time></trkpt><trkpt lat="42.7963298" lon="13.1844659"><ele>1277.6666666666665</ele><time>2026-04-18T09:41:04.472Z</time></trkpt><trkpt lat="42.7961812" lon="13.184281"><ele>1279.0</ele><time>2026-04-18T09:41:05.487Z</time></trkpt><trkpt lat="42.7960347" lon="13.1840993"><ele>1279.6666666666665</ele><time>2026-04-18T09:41:06.502Z</time></trkpt><trkpt lat="42.7958926" lon="13.1839195"><ele>1280.3333333333333</ele><time>2026-04-18T09:41:07.492Z</time></trkpt><trkpt lat="42.795747" lon="13.1837347"><ele>1281.0</ele><time>2026-04-18T09:41:08.514Z</time></trkpt><trkpt lat="42.7956104" lon="13.1835617"><ele>1281.0</ele><time>2026-04-18T09:41:09.482Z</time></trkpt><trkpt lat="42.7954478" lon="13.1833622"><ele>1281.0</ele><time>2026-04-18T09:41:10.598Z</time></trkpt><trkpt lat="42.795318" lon="13.1831992"><ele>1281.0</ele><time>2026-04-18T09:41:11.5Z</time></trkpt><trkpt lat="42.7951822" lon="13.1830252"><ele>1281.3333333333333</ele><time>2026-04-18T09:41:12.46Z</time></trkpt><trkpt lat="42.7950358" lon="13.1828373"><ele>1281.6666666666665</ele><time>2026-04-18T09:41:13.504Z</time></trkpt><trkpt lat="42.7948971" lon="13.1826631"><ele>1282.0</ele><time>2026-04-18T09:41:14.487Z</time></trkpt><trkpt lat="42.7947571" lon="13.1824818"><ele>1283.0</ele><time>2026-04-18T09:41:15.486Z</time></trkpt><trkpt lat="42.7945998" lon="13.1822833"><ele>1284.0</ele><time>2026-04-18T09:41:16.6Z</time></trkpt><trkpt lat="42.7943292" lon="13.181943"><ele>1284.3333333333333</ele><time>2026-04-18T09:41:18.526Z</time></trkpt><trkpt lat="42.7942075" lon="13.1817898"><ele>1284.6666666666665</ele><time>2026-04-18T09:41:19.469Z</time></trkpt><trkpt lat="42.794076" lon="13.1816294"><ele>1285.0</ele><time>2026-04-18T09:41:20.537Z</time></trkpt><trkpt lat="42.7939538" lon="13.1815132"><ele>1285.0</ele><time>2026-04-18T09:41:21.461Z</time></trkpt><trkpt lat="42.7938179" lon="13.1814004"><ele>1285.0</ele><time>2026-04-18T09:41:22.47Z</time></trkpt><trkpt lat="42.7936703" lon="13.181314"><ele>1285.0</ele><time>2026-04-18T09:41:23.536Z</time></trkpt><trkpt lat="42.7935194" lon="13.1813055"><ele>1286.3333333333333</ele><time>2026-04-18T09:41:24.463Z</time></trkpt><trkpt lat="42.7933339" lon="13.1813531"><ele>1287.6666666666667</ele><time>2026-04-18T09:41:25.492Z</time></trkpt><trkpt lat="42.7931481" lon="13.1814533"><ele>1289.0</ele><time>2026-04-18T09:41:26.469Z</time></trkpt><trkpt lat="42.792968" lon="13.1815723"><ele>1289.0</ele><time>2026-04-18T09:41:27.467Z</time></trkpt><trkpt lat="42.792789" lon="13.1817076"><ele>1289.0</ele><time>2026-04-18T09:41:28.456Z</time></trkpt><trkpt lat="42.7925752" lon="13.1818676"><ele>1289.0</ele><time>2026-04-18T09:41:29.592Z</time></trkpt><trkpt lat="42.7922249" lon="13.1821343"><ele>1287.6666666666667</ele><time>2026-04-18T09:41:31.458Z</time></trkpt><trkpt lat="42.7920395" lon="13.1822605"><ele>1286.3333333333333</ele><time>2026-04-18T09:41:32.484Z</time></trkpt><trkpt lat="42.7918574" lon="13.1823607"><ele>1285.0</ele><time>2026-04-18T09:41:33.477Z</time></trkpt><trkpt lat="42.7916565" lon="13.1824346"><ele>1291.0</ele><time>2026-04-18T09:41:34.505Z</time></trkpt><trkpt lat="42.7914521" lon="13.1824944"><ele>1297.0</ele><time>2026-04-18T09:41:35.545Z</time></trkpt><trkpt lat="42.791274" lon="13.1825482"><ele>1303.0</ele><time>2026-04-18T09:41:36.46Z</time></trkpt><trkpt lat="42.7910851" lon="13.1826089"><ele>1309.3333333333333</ele><time>2026-04-18T09:41:37.465Z</time></trkpt><trkpt lat="42.790911" lon="13.1826628"><ele>1315.6666666666667</ele><time>2026-04-18T09:41:38.481Z</time></trkpt><trkpt lat="42.790745" lon="13.1827102"><ele>1322.0</ele><time>2026-04-18T09:41:39.459Z</time></trkpt><trkpt lat="42.7905563" lon="13.1827576"><ele>1322.0</ele><time>2026-04-18T09:41:40.539Z</time></trkpt><trkpt lat="42.7903849" lon="13.1827879"><ele>1322.0</ele><time>2026-04-18T09:41:41.469Z</time></trkpt><trkpt lat="42.7902073" lon="13.1827999"><ele>1322.0</ele><time>2026-04-18T09:41:42.466Z</time></trkpt><trkpt lat="42.7900119" lon="13.1827939"><ele>1325.0</ele><time>2026-04-18T09:41:43.491Z</time></trkpt><trkpt lat="42.7898287" lon="13.182782"><ele>1328.0</ele><time>2026-04-18T09:41:44.466Z</time></trkpt><trkpt lat="42.7896201" lon="13.182758"><ele>1331.0</ele><time>2026-04-18T09:41:45.572Z</time></trkpt><trkpt lat="42.7892662" lon="13.1827563"><ele>1333.3333333333335</ele><time>2026-04-18T09:41:47.456Z</time></trkpt><trkpt lat="42.7890801" lon="13.1827676"><ele>1335.6666666666667</ele><time>2026-04-18T09:41:48.479Z</time></trkpt><trkpt lat="42.7889028" lon="13.1827716"><ele>1338.0</ele><time>2026-04-18T09:41:49.442Z</time></trkpt><trkpt lat="42.7886959" lon="13.1827444"><ele>1338.3333333333333</ele><time>2026-04-18T09:41:50.511Z</time></trkpt><trkpt lat="42.7885076" lon="13.1826971"><ele>1338.6666666666665</ele><time>2026-04-18T09:41:51.457Z</time></trkpt><trkpt lat="42.7882927" lon="13.182626"><ele>1339.0</ele><time>2026-04-18T09:41:52.536Z</time></trkpt><trkpt lat="42.7880993" lon="13.182563"><ele>1339.0</ele><time>2026-04-18T09:41:53.507Z</time></trkpt><trkpt lat="42.7878921" lon="13.1824943"><ele>1339.0</ele><time>2026-04-18T09:41:54.49Z</time></trkpt><trkpt lat="42.7876792" lon="13.1824328"><ele>1339.0</ele><time>2026-04-18T09:41:55.505Z</time></trkpt><trkpt lat="42.7874776" lon="13.182386"><ele>1348.0</ele><time>2026-04-18T09:41:56.465Z</time></trkpt><trkpt lat="42.7872717" lon="13.1823453"><ele>1357.0</ele><time>2026-04-18T09:41:57.477Z</time></trkpt><trkpt lat="42.7870703" lon="13.182306"><ele>1366.0</ele><time>2026-04-18T09:41:58.466Z</time></trkpt><trkpt lat="42.7868712" lon="13.1822669"><ele>1366.0</ele><time>2026-04-18T09:41:59.448Z</time></trkpt><trkpt lat="42.7866572" lon="13.1822214"><ele>1366.0</ele><time>2026-04-18T09:42:00.507Z</time></trkpt><trkpt lat="42.786468" lon="13.18218"><ele>1366.0</ele><time>2026-04-18T09:42:01.449Z</time></trkpt><trkpt lat="42.7862664" lon="13.1821407"><ele>1366.0</ele><time>2026-04-18T09:42:02.452Z</time></trkpt><trkpt lat="42.7860349" lon="13.1820981"><ele>1366.0</ele><time>2026-04-18T09:42:03.608Z</time></trkpt><trkpt lat="42.7856624" lon="13.1820378"><ele>1364.0</ele><time>2026-04-18T09:42:05.472Z</time></trkpt><trkpt lat="42.7854611" lon="13.1820045"><ele>1362.0</ele><time>2026-04-18T09:42:06.466Z</time></trkpt><trkpt lat="42.7852663" lon="13.181968"><ele>1360.0</ele><time>2026-04-18T09:42:07.451Z</time></trkpt><trkpt lat="42.7850851" lon="13.1819441"><ele>1360.0</ele><time>2026-04-18T09:42:08.457Z</time></trkpt><trkpt lat="42.7849061" lon="13.1819649"><ele>1360.0</ele><time>2026-04-18T09:42:09.483Z</time></trkpt><trkpt lat="42.7847484" lon="13.1820368"><ele>1360.0</ele><time>2026-04-18T09:42:10.446Z</time></trkpt><trkpt lat="42.7846104" lon="13.1821776"><ele>1360.3333333333333</ele><time>2026-04-18T09:42:11.45Z</time></trkpt><trkpt lat="42.7844953" lon="13.1823654"><ele>1360.6666666666667</ele><time>2026-04-18T09:42:12.481Z</time></trkpt><trkpt lat="42.7843925" lon="13.1825675"><ele>1361.0</ele><time>2026-04-18T09:42:13.456Z</time></trkpt><trkpt lat="42.7842786" lon="13.182779"><ele>1361.0</ele><time>2026-04-18T09:42:14.44Z</time></trkpt><trkpt lat="42.7841315" lon="13.1830323"><ele>1361.0</ele><time>2026-04-18T09:42:15.645Z</time></trkpt><trkpt lat="42.78391" lon="13.1834037"><ele>1354.3333333333335</ele><time>2026-04-18T09:42:17.674Z</time></trkpt><trkpt lat="42.7837145" lon="13.183678"><ele>1347.6666666666667</ele><time>2026-04-18T09:42:19.554Z</time></trkpt><trkpt lat="42.7835921" lon="13.1838108"><ele>1341.0</ele><time>2026-04-18T09:42:20.617Z</time></trkpt><trkpt lat="42.783364" lon="13.1840128"><ele>1345.6666666666667</ele><time>2026-04-18T09:42:22.537Z</time></trkpt><trkpt lat="42.7832271" lon="13.1840837"><ele>1350.3333333333335</ele><time>2026-04-18T09:42:23.53Z</time></trkpt><trkpt lat="42.783069" lon="13.1841315"><ele>1355.0</ele><time>2026-04-18T09:42:24.574Z</time></trkpt><trkpt lat="42.7829181" lon="13.1841702"><ele>1355.0</ele><time>2026-04-18T09:42:25.548Z</time></trkpt><trkpt lat="42.782751" lon="13.18421"><ele>1355.0</ele><time>2026-04-18T09:42:26.592Z</time></trkpt><trkpt lat="42.7825979" lon="13.1842477"><ele>1355.0</ele><time>2026-04-18T09:42:27.534Z</time></trkpt><trkpt lat="42.782432" lon="13.1842889"><ele>1361.0</ele><time>2026-04-18T09:42:28.549Z</time></trkpt><trkpt lat="42.7822527" lon="13.1843243"><ele>1367.0</ele><time>2026-04-18T09:42:29.568Z</time></trkpt><trkpt lat="42.7820773" lon="13.1843558"><ele>1373.0</ele><time>2026-04-18T09:42:30.555Z</time></trkpt><trkpt lat="42.7819054" lon="13.1843859"><ele>1377.0</ele><time>2026-04-18T09:42:31.543Z</time></trkpt><trkpt lat="42.7817362" lon="13.1844082"><ele>1381.0</ele><time>2026-04-18T09:42:32.491Z</time></trkpt><trkpt lat="42.7815437" lon="13.1844219"><ele>1385.0</ele><time>2026-04-18T09:42:33.562Z</time></trkpt><trkpt lat="42.7811959" lon="13.1844663"><ele>1390.6666666666667</ele><time>2026-04-18T09:42:35.489Z</time></trkpt><trkpt lat="42.781013" lon="13.1844812"><ele>1396.3333333333333</ele><time>2026-04-18T09:42:36.518Z</time></trkpt><trkpt lat="42.7808591" lon="13.184492"><ele>1402.0</ele><time>2026-04-18T09:42:37.46Z</time></trkpt><trkpt lat="42.7806992" lon="13.1845163"><ele>1402.0</ele><time>2026-04-18T09:42:38.491Z</time></trkpt><trkpt lat="42.7805595" lon="13.1845613"><ele>1402.0</ele><time>2026-04-18T09:42:39.46Z</time></trkpt><trkpt lat="42.7804307" lon="13.1846417"><ele>1402.0</ele><time>2026-04-18T09:42:40.455Z</time></trkpt><trkpt lat="42.7802949" lon="13.1847243"><ele>1402.0</ele><time>2026-04-18T09:42:41.478Z</time></trkpt><trkpt lat="42.780161" lon="13.1847601"><ele>1409.6666666666665</ele><time>2026-04-18T09:42:42.438Z</time></trkpt><trkpt lat="42.7799956" lon="13.1847933"><ele>1417.3333333333333</ele><time>2026-04-18T09:42:43.52Z</time></trkpt><trkpt lat="42.7798422" lon="13.1848111"><ele>1425.0</ele><time>2026-04-18T09:42:44.47Z</time></trkpt><trkpt lat="42.7796781" lon="13.1848097"><ele>1425.0</ele><time>2026-04-18T09:42:45.451Z</time></trkpt><trkpt lat="42.7795103" lon="13.1848096"><ele>1425.0</ele><time>2026-04-18T09:42:46.436Z</time></trkpt><trkpt lat="42.7793302" lon="13.1848064"><ele>1425.0</ele><time>2026-04-18T09:42:47.438Z</time></trkpt><trkpt lat="42.7791494" lon="13.1848081"><ele>1429.0</ele><time>2026-04-18T09:42:48.431Z</time></trkpt><trkpt lat="42.778961" lon="13.1848149"><ele>1433.0</ele><time>2026-04-18T09:42:49.457Z</time></trkpt><trkpt lat="42.7787644" lon="13.1848297"><ele>1437.0</ele><time>2026-04-18T09:42:50.55Z</time></trkpt><trkpt lat="42.7785958" lon="13.1848496"><ele>1423.6666666666667</ele><time>2026-04-18T09:42:51.452Z</time></trkpt><trkpt lat="42.7783996" lon="13.1848671"><ele>1410.3333333333335</ele><time>2026-04-18T09:42:52.499Z</time></trkpt><trkpt lat="42.7782366" lon="13.1848807"><ele>1397.0</ele><time>2026-04-18T09:42:53.434Z</time></trkpt><trkpt lat="42.7780604" lon="13.1848749"><ele>1397.0</ele><time>2026-04-18T09:42:54.464Z</time></trkpt><trkpt lat="42.7778923" lon="13.1848667"><ele>1397.0</ele><time>2026-04-18T09:42:55.465Z</time></trkpt><trkpt lat="42.7777289" lon="13.1848765"><ele>1397.0</ele><time>2026-04-18T09:42:56.424Z</time></trkpt><trkpt lat="42.7775552" lon="13.1849383"><ele>1402.0</ele><time>2026-04-18T09:42:57.491Z</time></trkpt><trkpt lat="42.7773804" lon="13.1850046"><ele>1407.0</ele><time>2026-04-18T09:42:58.495Z</time></trkpt><trkpt lat="42.7772076" lon="13.1850543"><ele>1412.0</ele><time>2026-04-18T09:42:59.444Z</time></trkpt><trkpt lat="42.7770315" lon="13.1851066"><ele>1412.0</ele><time>2026-04-18T09:43:00.427Z</time></trkpt><trkpt lat="42.7768616" lon="13.1851861"><ele>1412.0</ele><time>2026-04-18T09:43:01.443Z</time></trkpt><trkpt lat="42.7767042" lon="13.1852756"><ele>1412.0</ele><time>2026-04-18T09:43:02.454Z</time></trkpt><trkpt lat="42.7765361" lon="13.1853485"><ele>1415.0</ele><time>2026-04-18T09:43:03.551Z</time></trkpt><trkpt lat="42.7763878" lon="13.185377"><ele>1418.0</ele><time>2026-04-18T09:43:04.455Z</time></trkpt><trkpt lat="42.7762187" lon="13.1853742"><ele>1421.0</ele><time>2026-04-18T09:43:05.474Z</time></trkpt><trkpt lat="42.7760536" lon="13.1853568"><ele>1425.0</ele><time>2026-04-18T09:43:06.43Z</time></trkpt><trkpt lat="42.7758765" lon="13.1853486"><ele>1429.0</ele><time>2026-04-18T09:43:07.438Z</time></trkpt><trkpt lat="42.7757053" lon="13.1853377"><ele>1433.0</ele><time>2026-04-18T09:43:08.445Z</time></trkpt><trkpt lat="42.7755394" lon="13.1853024"><ele>1433.0</ele><time>2026-04-18T09:43:09.435Z</time></trkpt><trkpt lat="42.7753701" lon="13.1852577"><ele>1433.0</ele><time>2026-04-18T09:43:10.487Z</time></trkpt><trkpt lat="42.7752243" lon="13.1852478"><ele>1433.0</ele><time>2026-04-18T09:43:11.44Z</time></trkpt><trkpt lat="42.7750607" lon="13.1852642"><ele>1435.0</ele><time>2026-04-18T09:43:12.462Z</time></trkpt><trkpt lat="42.7749157" lon="13.1852949"><ele>1437.0</ele><time>2026-04-18T09:43:13.455Z</time></trkpt><trkpt lat="42.7747523" lon="13.1853014"><ele>1439.0</ele><time>2026-04-18T09:43:14.481Z</time></trkpt><trkpt lat="42.7745897" lon="13.1852687"><ele>1439.0</ele><time>2026-04-18T09:43:15.489Z</time></trkpt><trkpt lat="42.7744616" lon="13.1851982"><ele>1439.0</ele><time>2026-04-18T09:43:16.493Z</time></trkpt><trkpt lat="42.7743294" lon="13.185069"><ele>1439.0</ele><time>2026-04-18T09:43:17.472Z</time></trkpt><trkpt lat="42.7741925" lon="13.1849437"><ele>1445.3333333333335</ele><time>2026-04-18T09:43:18.457Z</time></trkpt><trkpt lat="42.774043" lon="13.1848121"><ele>1451.6666666666667</ele><time>2026-04-18T09:43:19.455Z</time></trkpt><trkpt lat="42.7738927" lon="13.1846747"><ele>1458.0</ele><time>2026-04-18T09:43:20.463Z</time></trkpt><trkpt lat="42.7737451" lon="13.1845278"><ele>1458.0</ele><time>2026-04-18T09:43:21.483Z</time></trkpt><trkpt lat="42.7736143" lon="13.1843787"><ele>1458.0</ele><time>2026-04-18T09:43:22.467Z</time></trkpt><trkpt lat="42.7734881" lon="13.1842153"><ele>1458.0</ele><time>2026-04-18T09:43:23.456Z</time></trkpt><trkpt lat="42.773355" lon="13.1840187"><ele>1461.3333333333333</ele><time>2026-04-18T09:43:24.626Z</time></trkpt><trkpt lat="42.7731376" lon="13.1837299"><ele>1464.6666666666665</ele><time>2026-04-18T09:43:26.562Z</time></trkpt><trkpt lat="42.7730314" lon="13.1836092"><ele>1468.0</ele><time>2026-04-18T09:43:27.464Z</time></trkpt><trkpt lat="42.7729013" lon="13.1835022"><ele>1468.0</ele><time>2026-04-18T09:43:28.465Z</time></trkpt><trkpt lat="42.7727763" lon="13.183418"><ele>1468.0</ele><time>2026-04-18T09:43:29.547Z</time></trkpt><trkpt lat="42.7726139" lon="13.1833485"><ele>1468.0</ele><time>2026-04-18T09:43:30.58Z</time></trkpt><trkpt lat="42.7724744" lon="13.1832709"><ele>1473.75</ele><time>2026-04-18T09:43:31.5Z</time></trkpt><trkpt lat="42.7723335" lon="13.1831703"><ele>1479.5</ele><time>2026-04-18T09:43:32.494Z</time></trkpt><trkpt lat="42.7722105" lon="13.1830697"><ele>1485.25</ele><time>2026-04-18T09:43:33.457Z</time></trkpt><trkpt lat="42.7720883" lon="13.1829823"><ele>1491.0</ele><time>2026-04-18T09:43:34.458Z</time></trkpt><trkpt lat="42.7719719" lon="13.1829386"><ele>1491.0</ele><time>2026-04-18T09:43:35.465Z</time></trkpt><trkpt lat="42.7718645" lon="13.1829097"><ele>1491.0</ele><time>2026-04-18T09:43:36.475Z</time></trkpt><trkpt lat="42.7717055" lon="13.1829115"><ele>1491.0</ele><time>2026-04-18T09:43:37.47Z</time></trkpt><trkpt lat="42.7715021" lon="13.1829722"><ele>1490.6666666666667</ele><time>2026-04-18T09:43:38.45Z</time></trkpt><trkpt lat="42.7713081" lon="13.182985"><ele>1490.3333333333335</ele><time>2026-04-18T09:43:39.476Z</time></trkpt><trkpt lat="42.7711231" lon="13.1829699"><ele>1490.0</ele><time>2026-04-18T09:43:40.497Z</time></trkpt><trkpt lat="42.7709397" lon="13.1829542"><ele>1490.0</ele><time>2026-04-18T09:43:41.45Z</time></trkpt><trkpt lat="42.7707547" lon="13.1829074"><ele>1490.0</ele><time>2026-04-18T09:43:42.505Z</time></trkpt><trkpt lat="42.7705788" lon="13.182856"><ele>1490.0</ele><time>2026-04-18T09:43:43.462Z</time></trkpt><trkpt lat="42.7703788" lon="13.1827951"><ele>1490.0</ele><time>2026-04-18T09:43:44.569Z</time></trkpt><trkpt lat="42.7702087" lon="13.1827357"><ele>1490.0</ele><time>2026-04-18T09:43:45.5Z</time></trkpt><trkpt lat="42.770027" lon="13.1826668"><ele>1490.0</ele><time>2026-04-18T09:43:46.49Z</time></trkpt><trkpt lat="42.7698464" lon="13.1825971"><ele>1490.3333333333335</ele><time>2026-04-18T09:43:47.498Z</time></trkpt><trkpt lat="42.7696703" lon="13.1825444"><ele>1490.6666666666667</ele><time>2026-04-18T09:43:48.491Z</time></trkpt><trkpt lat="42.7694756" lon="13.182519"><ele>1491.0</ele><time>2026-04-18T09:43:49.494Z</time></trkpt><trkpt lat="42.7692862" lon="13.1825216"><ele>1494.0</ele><time>2026-04-18T09:43:50.455Z</time></trkpt><trkpt lat="42.7690872" lon="13.1825432"><ele>1497.0</ele><time>2026-04-18T09:43:51.468Z</time></trkpt><trkpt lat="42.7688971" lon="13.1825828"><ele>1500.0</ele><time>2026-04-18T09:43:52.443Z</time></trkpt><trkpt lat="42.7687006" lon="13.1826347"><ele>1502.6666666666667</ele><time>2026-04-18T09:43:53.451Z</time></trkpt><trkpt lat="42.7685017" lon="13.1826883"><ele>1505.3333333333335</ele><time>2026-04-18T09:43:54.466Z</time></trkpt><trkpt lat="42.7683117" lon="13.1827382"><ele>1508.0</ele><time>2026-04-18T09:43:55.447Z</time></trkpt><trkpt lat="42.7681076" lon="13.1828093"><ele>1508.0</ele><time>2026-04-18T09:43:56.519Z</time></trkpt><trkpt lat="42.7679451" lon="13.1828946"><ele>1508.0</ele><time>2026-04-18T09:43:57.458Z</time></trkpt><trkpt lat="42.7677891" lon="13.1829944"><ele>1508.0</ele><time>2026-04-18T09:43:58.504Z</time></trkpt><trkpt lat="42.7676504" lon="13.183083"><ele>1510.3333333333335</ele><time>2026-04-18T09:43:59.472Z</time></trkpt><trkpt lat="42.7675019" lon="13.1831495"><ele>1512.6666666666667</ele><time>2026-04-18T09:44:00.473Z</time></trkpt><trkpt lat="42.767344" lon="13.1831888"><ele>1515.0</ele><time>2026-04-18T09:44:01.499Z</time></trkpt><trkpt lat="42.7671731" lon="13.1832165"><ele>1513.3333333333333</ele><time>2026-04-18T09:44:02.589Z</time></trkpt><trkpt lat="42.7670158" lon="13.1832406"><ele>1511.6666666666665</ele><time>2026-04-18T09:44:03.579Z</time></trkpt><trkpt lat="42.7668692" lon="13.1832594"><ele>1510.0</ele><time>2026-04-18T09:44:04.5Z</time></trkpt><trkpt lat="42.766717" lon="13.1832776"><ele>1510.0</ele><time>2026-04-18T09:44:05.505Z</time></trkpt><trkpt lat="42.7665774" lon="13.1832868"><ele>1510.0</ele><time>2026-04-18T09:44:06.472Z</time></trkpt><trkpt lat="42.7664433" lon="13.1832835"><ele>1510.0</ele><time>2026-04-18T09:44:07.489Z</time></trkpt><trkpt lat="42.766333" lon="13.1832734"><ele>1510.0</ele><time>2026-04-18T09:44:08.463Z</time></trkpt><trkpt lat="42.7662345" lon="13.1832309"><ele>1510.6</ele><time>2026-04-18T09:44:09.485Z</time></trkpt><trkpt lat="42.7661481" lon="13.1831712"><ele>1511.2</ele><time>2026-04-18T09:44:10.468Z</time></trkpt><trkpt lat="42.7660579" lon="13.1831185"><ele>1511.8000000000002</ele><time>2026-04-18T09:44:11.464Z</time></trkpt><trkpt lat="42.7660019" lon="13.1830144"><ele>1512.4</ele><time>2026-04-18T09:44:12.468Z</time></trkpt><trkpt lat="42.7659576" lon="13.1829079"><ele>1513.0</ele><time>2026-04-18T09:44:13.477Z</time></trkpt><trkpt lat="42.7659189" lon="13.1827921"><ele>1513.0</ele><time>2026-04-18T09:44:14.46Z</time></trkpt><trkpt lat="42.7658746" lon="13.1826699"><ele>1513.0</ele><time>2026-04-18T09:44:15.487Z</time></trkpt><trkpt lat="42.7658386" lon="13.1825372"><ele>1513.0</ele><time>2026-04-18T09:44:16.483Z</time></trkpt><trkpt lat="42.7658175" lon="13.1823983"><ele>1513.0</ele><time>2026-04-18T09:44:17.477Z</time></trkpt><trkpt lat="42.7658029" lon="13.1822619"><ele>1513.0</ele><time>2026-04-18T09:44:18.47Z</time></trkpt><trkpt lat="42.765785" lon="13.1821149"><ele>1512.0</ele><time>2026-04-18T09:44:19.507Z</time></trkpt><trkpt lat="42.76577" lon="13.1819742"><ele>1511.0</ele><time>2026-04-18T09:44:20.485Z</time></trkpt><trkpt lat="42.7657504" lon="13.1818367"><ele>1510.0</ele><time>2026-04-18T09:44:21.51Z</time></trkpt><trkpt lat="42.7657362" lon="13.1816891"><ele>1509.0</ele><time>2026-04-18T09:44:22.549Z</time></trkpt><trkpt lat="42.7657248" lon="13.1815351"><ele>1508.0</ele><time>2026-04-18T09:44:23.494Z</time></trkpt><trkpt lat="42.765739" lon="13.1813766"><ele>1508.75</ele><time>2026-04-18T09:44:24.464Z</time></trkpt><trkpt lat="42.7657655" lon="13.1812216"><ele>1509.5</ele><time>2026-04-18T09:44:25.444Z</time></trkpt><trkpt lat="42.7658124" lon="13.1810635"><ele>1510.25</ele><time>2026-04-18T09:44:26.466Z</time></trkpt><trkpt lat="42.7658802" lon="13.180911"><ele>1511.0</ele><time>2026-04-18T09:44:27.587Z</time></trkpt><trkpt lat="42.7660365" lon="13.1806876"><ele>1508.6</ele><time>2026-04-18T09:44:29.493Z</time></trkpt><trkpt lat="42.7661303" lon="13.1805788"><ele>1506.1999999999998</ele><time>2026-04-18T09:44:30.555Z</time></trkpt><trkpt lat="42.7662161" lon="13.1804764"><ele>1503.8000000000002</ele><time>2026-04-18T09:44:31.544Z</time></trkpt><trkpt lat="42.7662828" lon="13.1803727"><ele>1501.4</ele><time>2026-04-18T09:44:32.456Z</time></trkpt><trkpt lat="42.7663388" lon="13.1802519"><ele>1499.0</ele><time>2026-04-18T09:44:33.434Z</time></trkpt><trkpt lat="42.7663665" lon="13.1801055"><ele>1499.0</ele><time>2026-04-18T09:44:34.466Z</time></trkpt><trkpt lat="42.7663595" lon="13.179962"><ele>1499.0</ele><time>2026-04-18T09:44:35.445Z</time></trkpt><trkpt lat="42.7663126" lon="13.1798339"><ele>1499.0</ele><time>2026-04-18T09:44:36.462Z</time></trkpt><trkpt lat="42.7662294" lon="13.1797382"><ele>1499.0</ele><time>2026-04-18T09:44:37.451Z</time></trkpt><trkpt lat="42.7661279" lon="13.1796983"><ele>1499.0</ele><time>2026-04-18T09:44:38.464Z</time></trkpt><trkpt lat="42.7660202" lon="13.1797265"><ele>1497.0</ele><time>2026-04-18T09:44:39.454Z</time></trkpt><trkpt lat="42.7659284" lon="13.1798241"><ele>1495.0</ele><time>2026-04-18T09:44:40.465Z</time></trkpt><trkpt lat="42.7658329" lon="13.1799243"><ele>1493.0</ele><time>2026-04-18T09:44:41.441Z</time></trkpt><trkpt lat="42.7657272" lon="13.1800092"><ele>1491.0</ele><time>2026-04-18T09:44:42.464Z</time></trkpt><trkpt lat="42.7656216" lon="13.1800956"><ele>1490.0</ele><time>2026-04-18T09:44:43.471Z</time></trkpt><trkpt lat="42.7655133" lon="13.1801766"><ele>1489.0</ele><time>2026-04-18T09:44:44.561Z</time></trkpt><trkpt lat="42.7653144" lon="13.1802864"><ele>1488.0</ele><time>2026-04-18T09:44:46.504Z</time></trkpt><trkpt lat="42.7652177" lon="13.1803048"><ele>1487.0</ele><time>2026-04-18T09:44:47.428Z</time></trkpt><trkpt lat="42.76511" lon="13.1802868"><ele>1484.75</ele><time>2026-04-18T09:44:48.439Z</time></trkpt><trkpt lat="42.7650003" lon="13.1802254"><ele>1482.5</ele><time>2026-04-18T09:44:49.483Z</time></trkpt><trkpt lat="42.7649231" lon="13.1801193"><ele>1480.25</ele><time>2026-04-18T09:44:50.456Z</time></trkpt><trkpt lat="42.7648789" lon="13.1799655"><ele>1478.0</ele><time>2026-04-18T09:44:51.54Z</time></trkpt><trkpt lat="42.7648705" lon="13.1798166"><ele>1477.0</ele><time>2026-04-18T09:44:52.457Z</time></trkpt><trkpt lat="42.7648584" lon="13.1796261"><ele>1476.0</ele><time>2026-04-18T09:44:53.552Z</time></trkpt><trkpt lat="42.7647857" lon="13.1792982"><ele>1475.0</ele><time>2026-04-18T09:44:55.437Z</time></trkpt><trkpt lat="42.7647155" lon="13.1791204"><ele>1474.0</ele><time>2026-04-18T09:44:56.462Z</time></trkpt><trkpt lat="42.7646254" lon="13.1789676"><ele>1473.0</ele><time>2026-04-18T09:44:57.439Z</time></trkpt><trkpt lat="42.7645129" lon="13.1788136"><ele>1472.0</ele><time>2026-04-18T09:44:58.46Z</time></trkpt><trkpt lat="42.7643851" lon="13.1786437"><ele>1472.0</ele><time>2026-04-18T09:44:59.612Z</time></trkpt><trkpt lat="42.7641757" lon="13.1783758"><ele>1472.0</ele><time>2026-04-18T09:45:01.492Z</time></trkpt><trkpt lat="42.7640661" lon="13.1782399"><ele>1472.0</ele><time>2026-04-18T09:45:02.519Z</time></trkpt><trkpt lat="42.763962" lon="13.1781131"><ele>1466.5</ele><time>2026-04-18T09:45:03.502Z</time></trkpt><trkpt lat="42.7638576" lon="13.1779877"><ele>1461.0</ele><time>2026-04-18T09:45:04.491Z</time></trkpt><trkpt lat="42.7637538" lon="13.177863"><ele>1455.5</ele><time>2026-04-18T09:45:05.499Z</time></trkpt><trkpt lat="42.7636506" lon="13.1777405"><ele>1450.0</ele><time>2026-04-18T09:45:06.527Z</time></trkpt><trkpt lat="42.7635502" lon="13.1776223"><ele>1448.0</ele><time>2026-04-18T09:45:07.545Z</time></trkpt><trkpt lat="42.7634597" lon="13.1775058"><ele>1446.0</ele><time>2026-04-18T09:45:08.498Z</time></trkpt><trkpt lat="42.7633644" lon="13.1773737"><ele>1444.0</ele><time>2026-04-18T09:45:09.539Z</time></trkpt><trkpt lat="42.7632827" lon="13.1772575"><ele>1442.0</ele><time>2026-04-18T09:45:10.505Z</time></trkpt><trkpt lat="42.7631891" lon="13.1771268"><ele>1442.0</ele><time>2026-04-18T09:45:11.613Z</time></trkpt><trkpt lat="42.7630614" lon="13.176948"><ele>1442.0</ele><time>2026-04-18T09:45:13.504Z</time></trkpt><trkpt lat="42.7629746" lon="13.1769116"><ele>1442.0</ele><time>2026-04-18T09:45:14.501Z</time></trkpt><trkpt lat="42.7628836" lon="13.1769435"><ele>1442.0</ele><time>2026-04-18T09:45:15.541Z</time></trkpt><trkpt lat="42.7628104" lon="13.1770324"><ele>1442.0</ele><time>2026-04-18T09:45:16.524Z</time></trkpt><trkpt lat="42.7627552" lon="13.1771682"><ele>1442.0</ele><time>2026-04-18T09:45:17.556Z</time></trkpt><trkpt lat="42.7627068" lon="13.1773212"><ele>1442.0</ele><time>2026-04-18T09:45:18.549Z</time></trkpt><trkpt lat="42.7626474" lon="13.1775044"><ele>1442.0</ele><time>2026-04-18T09:45:19.619Z</time></trkpt><trkpt lat="42.7625906" lon="13.1776765"><ele>1444.6666666666667</ele><time>2026-04-18T09:45:20.533Z</time></trkpt><trkpt lat="42.7625278" lon="13.177872"><ele>1447.3333333333333</ele><time>2026-04-18T09:45:21.522Z</time></trkpt><trkpt lat="42.7624698" lon="13.1780778"><ele>1450.0</ele><time>2026-04-18T09:45:22.518Z</time></trkpt><trkpt lat="42.762421" lon="13.1782779"><ele>1453.6666666666665</ele><time>2026-04-18T09:45:23.502Z</time></trkpt><trkpt lat="42.7623633" lon="13.1785011"><ele>1457.3333333333333</ele><time>2026-04-18T09:45:24.602Z</time></trkpt><trkpt lat="42.7623186" lon="13.1786755"><ele>1461.0</ele><time>2026-04-18T09:45:25.52Z</time></trkpt><trkpt lat="42.7622688" lon="13.1788707"><ele>1464.0</ele><time>2026-04-18T09:45:26.502Z</time></trkpt><trkpt lat="42.7622237" lon="13.1790592"><ele>1467.0</ele><time>2026-04-18T09:45:27.49Z</time></trkpt><trkpt lat="42.7621762" lon="13.1792562"><ele>1470.0</ele><time>2026-04-18T09:45:28.504Z</time></trkpt><trkpt lat="42.7621326" lon="13.1794449"><ele>1473.0</ele><time>2026-04-18T09:45:29.492Z</time></trkpt><trkpt lat="42.7620843" lon="13.1796384"><ele>1473.0</ele><time>2026-04-18T09:45:30.497Z</time></trkpt><trkpt lat="42.7620221" lon="13.1798254"><ele>1473.0</ele><time>2026-04-18T09:45:31.498Z</time></trkpt><trkpt lat="42.7619515" lon="13.1800081"><ele>1473.0</ele><time>2026-04-18T09:45:32.508Z</time></trkpt><trkpt lat="42.7618832" lon="13.1802323"><ele>1461.6666666666667</ele><time>2026-04-18T09:45:33.757Z</time></trkpt><trkpt lat="42.7618073" lon="13.1805618"><ele>1450.3333333333335</ele><time>2026-04-18T09:45:35.522Z</time></trkpt><trkpt lat="42.7617653" lon="13.1807463"><ele>1439.0</ele><time>2026-04-18T09:45:36.534Z</time></trkpt><trkpt lat="42.7617114" lon="13.180923"><ele>1439.0</ele><time>2026-04-18T09:45:37.517Z</time></trkpt><trkpt lat="42.7616487" lon="13.1810899"><ele>1439.0</ele><time>2026-04-18T09:45:38.512Z</time></trkpt><trkpt lat="42.7615703" lon="13.181243"><ele>1439.0</ele><time>2026-04-18T09:45:39.507Z</time></trkpt><trkpt lat="42.7614716" lon="13.1813643"><ele>1439.0</ele><time>2026-04-18T09:45:40.504Z</time></trkpt><trkpt lat="42.76135" lon="13.1814676"><ele>1439.0</ele><time>2026-04-18T09:45:41.606Z</time></trkpt><trkpt lat="42.7611206" lon="13.1815684"><ele>1439.0</ele><time>2026-04-18T09:45:43.506Z</time></trkpt><trkpt lat="42.7610011" lon="13.1815786"><ele>1439.0</ele><time>2026-04-18T09:45:44.465Z</time></trkpt><trkpt lat="42.76087" lon="13.1815713"><ele>1439.0</ele><time>2026-04-18T09:45:45.522Z</time></trkpt><trkpt lat="42.7607526" lon="13.1815619"><ele>1439.0</ele><time>2026-04-18T09:45:46.515Z</time></trkpt><trkpt lat="42.7606484" lon="13.1815589"><ele>1439.0</ele><time>2026-04-18T09:45:47.504Z</time></trkpt><trkpt lat="42.7605499" lon="13.1815487"><ele>1439.0</ele><time>2026-04-18T09:45:48.495Z</time></trkpt><trkpt lat="42.7604616" lon="13.1814974"><ele>1439.0</ele><time>2026-04-18T09:45:49.527Z</time></trkpt><trkpt lat="42.7604068" lon="13.1814084"><ele>1436.4</ele><time>2026-04-18T09:45:50.502Z</time></trkpt><trkpt lat="42.7603779" lon="13.1812958"><ele>1433.8000000000002</ele><time>2026-04-18T09:45:51.488Z</time></trkpt><trkpt lat="42.7604077" lon="13.1811564"><ele>1431.1999999999998</ele><time>2026-04-18T09:45:52.487Z</time></trkpt><trkpt lat="42.7604709" lon="13.181024"><ele>1428.6</ele><time>2026-04-18T09:45:53.481Z</time></trkpt><trkpt lat="42.7605639" lon="13.1808906"><ele>1426.0</ele><time>2026-04-18T09:45:54.465Z</time></trkpt><trkpt lat="42.7606479" lon="13.1807551"><ele>1422.3333333333333</ele><time>2026-04-18T09:45:55.481Z</time></trkpt><trkpt lat="42.7607143" lon="13.1806079"><ele>1418.6666666666667</ele><time>2026-04-18T09:45:56.504Z</time></trkpt><trkpt lat="42.7607597" lon="13.180433"><ele>1415.0</ele><time>2026-04-18T09:45:57.613Z</time></trkpt><trkpt lat="42.7607112" lon="13.1799633"><ele>1407.5</ele><time>2026-04-18T09:45:59.594Z</time></trkpt><trkpt lat="42.7605812" lon="13.1794171"><ele>1400.0</ele><time>2026-04-18T09:46:01.415Z</time></trkpt><trkpt lat="42.7604982" lon="13.1791336"><ele>1394.3333333333335</ele><time>2026-04-18T09:46:02.415Z</time></trkpt><trkpt lat="42.7604112" lon="13.178863"><ele>1388.6666666666667</ele><time>2026-04-18T09:46:03.409Z</time></trkpt><trkpt lat="42.7603184" lon="13.1786163"><ele>1383.0</ele><time>2026-04-18T09:46:04.415Z</time></trkpt><trkpt lat="42.7602266" lon="13.1783873"><ele>1387.3333333333333</ele><time>2026-04-18T09:46:05.417Z</time></trkpt><trkpt lat="42.7601335" lon="13.1781624"><ele>1391.6666666666665</ele><time>2026-04-18T09:46:06.425Z</time></trkpt><trkpt lat="42.7600414" lon="13.17796"><ele>1396.0</ele><time>2026-04-18T09:46:07.419Z</time></trkpt><trkpt lat="42.7599562" lon="13.1777811"><ele>1396.0</ele><time>2026-04-18T09:46:08.398Z</time></trkpt><trkpt lat="42.7598719" lon="13.1776178"><ele>1396.0</ele><time>2026-04-18T09:46:09.402Z</time></trkpt><trkpt lat="42.7597918" lon="13.1774785"><ele>1396.0</ele><time>2026-04-18T09:46:10.409Z</time></trkpt><trkpt lat="42.7597205" lon="13.1773659"><ele>1396.0</ele><time>2026-04-18T09:46:11.391Z</time></trkpt><trkpt lat="42.7596524" lon="13.177263"><ele>1390.6</ele><time>2026-04-18T09:46:12.412Z</time></trkpt><trkpt lat="42.7595895" lon="13.1771741"><ele>1385.1999999999998</ele><time>2026-04-18T09:46:13.456Z</time></trkpt><trkpt lat="42.7595421" lon="13.1771119"><ele>1379.8000000000002</ele><time>2026-04-18T09:46:14.434Z</time></trkpt><trkpt lat="42.7594734" lon="13.1770177"><ele>1374.4</ele><time>2026-04-18T09:46:16.417Z</time></trkpt><trkpt lat="42.7595274" lon="13.1769375"><ele>1369.0</ele><time>2026-04-18T09:46:19.39Z</time></trkpt><trkpt lat="42.7596266" lon="13.1770358"><ele>1369.0</ele><time>2026-04-18T09:46:21.402Z</time></trkpt><trkpt lat="42.7596721" lon="13.1771071"><ele>1369.0</ele><time>2026-04-18T09:46:22.388Z</time></trkpt><trkpt lat="42.759725" lon="13.1771957"><ele>1369.0</ele><time>2026-04-18T09:46:23.434Z</time></trkpt><trkpt lat="42.7597905" lon="13.1772806"><ele>1369.0</ele><time>2026-04-18T09:46:24.392Z</time></trkpt><trkpt lat="42.759874" lon="13.1773948"><ele>1369.0</ele><time>2026-04-18T09:46:25.502Z</time></trkpt><trkpt lat="42.7599518" lon="13.177506"><ele>1367.5</ele><time>2026-04-18T09:46:26.405Z</time></trkpt><trkpt lat="42.7600392" lon="13.1776334"><ele>1366.0</ele><time>2026-04-18T09:46:27.395Z</time></trkpt><trkpt lat="42.7601403" lon="13.1777784"><ele>1364.5</ele><time>2026-04-18T09:46:28.399Z</time></trkpt><trkpt lat="42.7602427" lon="13.1779249"><ele>1363.0</ele><time>2026-04-18T09:46:29.394Z</time></trkpt><trkpt lat="42.7603405" lon="13.1780697"><ele>1368.0</ele><time>2026-04-18T09:46:30.414Z</time></trkpt><trkpt lat="42.7604336" lon="13.1782088"><ele>1373.0</ele><time>2026-04-18T09:46:31.4Z</time></trkpt><trkpt lat="42.7605242" lon="13.1783499"><ele>1378.0</ele><time>2026-04-18T09:46:32.39Z</time></trkpt><trkpt lat="42.7606143" lon="13.1784938"><ele>1383.0</ele><time>2026-04-18T09:46:33.394Z</time></trkpt><trkpt lat="42.7606923" lon="13.1786446"><ele>1383.0</ele><time>2026-04-18T09:46:34.391Z</time></trkpt><trkpt lat="42.7607571" lon="13.1787981"><ele>1383.0</ele><time>2026-04-18T09:46:35.414Z</time></trkpt><trkpt lat="42.7608106" lon="13.1789408"><ele>1383.0</ele><time>2026-04-18T09:46:36.412Z</time></trkpt><trkpt lat="42.7608585" lon="13.1790825"><ele>1383.0</ele><time>2026-04-18T09:46:37.424Z</time></trkpt><trkpt lat="42.7609047" lon="13.1792019"><ele>1385.8333333333333</ele><time>2026-04-18T09:46:38.428Z</time></trkpt><trkpt lat="42.7609601" lon="13.1792905"><ele>1388.6666666666667</ele><time>2026-04-18T09:46:39.392Z</time></trkpt><trkpt lat="42.761034" lon="13.1793559"><ele>1391.5</ele><time>2026-04-18T09:46:40.426Z</time></trkpt><trkpt lat="42.7611037" lon="13.1793823"><ele>1394.3333333333335</ele><time>2026-04-18T09:46:41.402Z</time></trkpt><trkpt lat="42.7611825" lon="13.1793659"><ele>1397.1666666666667</ele><time>2026-04-18T09:46:42.4Z</time></trkpt><trkpt lat="42.7612591" lon="13.1793016"><ele>1400.0</ele><time>2026-04-18T09:46:43.396Z</time></trkpt><trkpt lat="42.7613084" lon="13.1792045"><ele>1400.6</ele><time>2026-04-18T09:46:44.41Z</time></trkpt><trkpt lat="42.7613452" lon="13.1790792"><ele>1401.2</ele><time>2026-04-18T09:46:45.407Z</time></trkpt><trkpt lat="42.7613691" lon="13.1789434"><ele>1401.8000000000002</ele><time>2026-04-18T09:46:46.401Z</time></trkpt><trkpt lat="42.7613892" lon="13.1788089"><ele>1402.4</ele><time>2026-04-18T09:46:47.407Z</time></trkpt><trkpt lat="42.7614023" lon="13.1786832"><ele>1403.0</ele><time>2026-04-18T09:46:48.401Z</time></trkpt><trkpt lat="42.761409" lon="13.1785743"><ele>1403.0</ele><time>2026-04-18T09:46:49.445Z</time></trkpt><trkpt lat="42.7614218" lon="13.1784232"><ele>1403.0</ele><time>2026-04-18T09:46:51.395Z</time></trkpt><trkpt lat="42.7614286" lon="13.1783066"><ele>1403.0</ele><time>2026-04-18T09:46:53.411Z</time></trkpt><trkpt lat="42.76142" lon="13.178178"><ele>1403.0</ele><time>2026-04-18T09:47:17.394Z</time></trkpt><trkpt lat="42.7614184" lon="13.1780895"><ele>1403.0</ele><time>2026-04-18T09:47:18.438Z</time></trkpt><trkpt lat="42.7614199" lon="13.1779803"><ele>1403.0</ele><time>2026-04-18T09:47:19.441Z</time></trkpt><trkpt lat="42.7614279" lon="13.1778504"><ele>1399.75</ele><time>2026-04-18T09:47:20.405Z</time></trkpt><trkpt lat="42.7614418" lon="13.1776962"><ele>1396.5</ele><time>2026-04-18T09:47:21.446Z</time></trkpt><trkpt lat="42.7614574" lon="13.1775272"><ele>1393.25</ele><time>2026-04-18T09:47:22.421Z</time></trkpt><trkpt lat="42.7614724" lon="13.1773334"><ele>1390.0</ele><time>2026-04-18T09:47:23.42Z</time></trkpt><trkpt lat="42.761509" lon="13.1771011"><ele>1386.0</ele><time>2026-04-18T09:47:24.548Z</time></trkpt><trkpt lat="42.7615669" lon="13.1766706"><ele>1382.0</ele><time>2026-04-18T09:47:26.475Z</time></trkpt><trkpt lat="42.7615852" lon="13.1764491"><ele>1378.6666666666667</ele><time>2026-04-18T09:47:27.432Z</time></trkpt><trkpt lat="42.7616044" lon="13.176225"><ele>1375.3333333333333</ele><time>2026-04-18T09:47:28.412Z</time></trkpt><trkpt lat="42.7616251" lon="13.1759953"><ele>1372.0</ele><time>2026-04-18T09:47:29.418Z</time></trkpt><trkpt lat="42.7616496" lon="13.1757722"><ele>1368.3333333333333</ele><time>2026-04-18T09:47:30.423Z</time></trkpt><trkpt lat="42.7616759" lon="13.17555"><ele>1364.6666666666667</ele><time>2026-04-18T09:47:31.412Z</time></trkpt><trkpt lat="42.761706" lon="13.1753204"><ele>1361.0</ele><time>2026-04-18T09:47:32.438Z</time></trkpt><trkpt lat="42.7617397" lon="13.1750676"><ele>1361.0</ele><time>2026-04-18T09:47:33.606Z</time></trkpt><trkpt lat="42.7617598" lon="13.174888"><ele>1361.0</ele><time>2026-04-18T09:47:34.448Z</time></trkpt><trkpt lat="42.761791" lon="13.1746796"><ele>1361.0</ele><time>2026-04-18T09:47:35.453Z</time></trkpt><trkpt lat="42.7618374" lon="13.1744918"><ele>1361.0</ele><time>2026-04-18T09:47:36.423Z</time></trkpt><trkpt lat="42.7618967" lon="13.1743088"><ele>1362.5</ele><time>2026-04-18T09:47:37.452Z</time></trkpt><trkpt lat="42.7619509" lon="13.1741498"><ele>1364.0</ele><time>2026-04-18T09:47:38.457Z</time></trkpt><trkpt lat="42.761996" lon="13.1740091"><ele>1365.5</ele><time>2026-04-18T09:47:39.442Z</time></trkpt><trkpt lat="42.7620608" lon="13.1738809"><ele>1367.0</ele><time>2026-04-18T09:47:40.452Z</time></trkpt><trkpt lat="42.7621574" lon="13.173781"><ele>1360.0</ele><time>2026-04-18T09:47:41.446Z</time></trkpt><trkpt lat="42.7622865" lon="13.1736973"><ele>1353.0</ele><time>2026-04-18T09:47:42.508Z</time></trkpt><trkpt lat="42.7624027" lon="13.1736512"><ele>1346.0</ele><time>2026-04-18T09:47:43.417Z</time></trkpt><trkpt lat="42.7625436" lon="13.1736219"><ele>1339.0</ele><time>2026-04-18T09:47:44.525Z</time></trkpt><trkpt lat="42.7626569" lon="13.173625"><ele>1336.0</ele><time>2026-04-18T09:47:45.429Z</time></trkpt><trkpt lat="42.7627811" lon="13.1736752"><ele>1333.0</ele><time>2026-04-18T09:47:46.446Z</time></trkpt><trkpt lat="42.7629008" lon="13.1737693"><ele>1330.0</ele><time>2026-04-18T09:47:47.441Z</time></trkpt><trkpt lat="42.7630095" lon="13.1738985"><ele>1327.0</ele><time>2026-04-18T09:47:48.43Z</time></trkpt><trkpt lat="42.7631306" lon="13.1740441"><ele>1336.0</ele><time>2026-04-18T09:47:49.449Z</time></trkpt><trkpt lat="42.7632476" lon="13.1741668"><ele>1345.0</ele><time>2026-04-18T09:47:50.414Z</time></trkpt><trkpt lat="42.7633814" lon="13.1743063"><ele>1354.0</ele><time>2026-04-18T09:47:51.533Z</time></trkpt><trkpt lat="42.7634865" lon="13.1744212"><ele>1356.0</ele><time>2026-04-18T09:47:52.44Z</time></trkpt><trkpt lat="42.7635942" lon="13.1745439"><ele>1358.0</ele><time>2026-04-18T09:47:53.402Z</time></trkpt><trkpt lat="42.7637035" lon="13.1746932"><ele>1360.0</ele><time>2026-04-18T09:47:54.532Z</time></trkpt><trkpt lat="42.7638371" lon="13.1749171"><ele>1360.0</ele><time>2026-04-18T09:47:56.404Z</time></trkpt><trkpt lat="42.7639201" lon="13.1749927"><ele>1360.0</ele><time>2026-04-18T09:47:57.404Z</time></trkpt><trkpt lat="42.7640167" lon="13.1750048"><ele>1360.0</ele><time>2026-04-18T09:47:58.375Z</time></trkpt><trkpt lat="42.7641251" lon="13.1749516"><ele>1360.0</ele><time>2026-04-18T09:47:59.452Z</time></trkpt><trkpt lat="42.7642065" lon="13.1748583"><ele>1360.0</ele><time>2026-04-18T09:48:00.411Z</time></trkpt><trkpt lat="42.764305" lon="13.1747545"><ele>1353.75</ele><time>2026-04-18T09:48:01.411Z</time></trkpt><trkpt lat="42.7644186" lon="13.1746649"><ele>1347.5</ele><time>2026-04-18T09:48:02.411Z</time></trkpt><trkpt lat="42.764522" lon="13.1746324"><ele>1341.25</ele><time>2026-04-18T09:48:03.41Z</time></trkpt><trkpt lat="42.7646377" lon="13.1746431"><ele>1335.0</ele><time>2026-04-18T09:48:04.417Z</time></trkpt><trkpt lat="42.7647499" lon="13.1746898"><ele>1335.0</ele><time>2026-04-18T09:48:05.412Z</time></trkpt><trkpt lat="42.7648642" lon="13.1747075"><ele>1335.0</ele><time>2026-04-18T09:48:06.403Z</time></trkpt><trkpt lat="42.7649893" lon="13.1746567"><ele>1335.0</ele><time>2026-04-18T09:48:07.411Z</time></trkpt><trkpt lat="42.7651076" lon="13.1745336"><ele>1335.0</ele><time>2026-04-18T09:48:08.425Z</time></trkpt><trkpt lat="42.7652128" lon="13.1743634"><ele>1337.0</ele><time>2026-04-18T09:48:09.42Z</time></trkpt><trkpt lat="42.7653198" lon="13.174163"><ele>1339.0</ele><time>2026-04-18T09:48:10.439Z</time></trkpt><trkpt lat="42.7654264" lon="13.1739528"><ele>1341.0</ele><time>2026-04-18T09:48:11.412Z</time></trkpt><trkpt lat="42.765533" lon="13.1737482"><ele>1341.0</ele><time>2026-04-18T09:48:12.403Z</time></trkpt><trkpt lat="42.7656483" lon="13.1735476"><ele>1341.0</ele><time>2026-04-18T09:48:13.438Z</time></trkpt><trkpt lat="42.7657556" lon="13.1733409"><ele>1341.0</ele><time>2026-04-18T09:48:14.499Z</time></trkpt><trkpt lat="42.7658449" lon="13.1731576"><ele>1340.0</ele><time>2026-04-18T09:48:15.443Z</time></trkpt><trkpt lat="42.7659398" lon="13.1729598"><ele>1339.0</ele><time>2026-04-18T09:48:16.487Z</time></trkpt><trkpt lat="42.7660252" lon="13.1727962"><ele>1338.0</ele><time>2026-04-18T09:48:17.415Z</time></trkpt><trkpt lat="42.7661154" lon="13.1726433"><ele>1338.0</ele><time>2026-04-18T09:48:18.398Z</time></trkpt><trkpt lat="42.766221" lon="13.1725008"><ele>1338.0</ele><time>2026-04-18T09:48:19.465Z</time></trkpt><trkpt lat="42.7663325" lon="13.1724012"><ele>1338.0</ele><time>2026-04-18T09:48:20.437Z</time></trkpt><trkpt lat="42.7664603" lon="13.1723238"><ele>1338.0</ele><time>2026-04-18T09:48:21.415Z</time></trkpt><trkpt lat="42.7666061" lon="13.1722594"><ele>1331.6666666666667</ele><time>2026-04-18T09:48:22.403Z</time></trkpt><trkpt lat="42.7667715" lon="13.1722145"><ele>1325.3333333333335</ele><time>2026-04-18T09:48:23.433Z</time></trkpt><trkpt lat="42.7669227" lon="13.1721883"><ele>1319.0</ele><time>2026-04-18T09:48:24.424Z</time></trkpt><trkpt lat="42.7670738" lon="13.1721559"><ele>1319.0</ele><time>2026-04-18T09:48:25.436Z</time></trkpt><trkpt lat="42.7672208" lon="13.172123"><ele>1319.0</ele><time>2026-04-18T09:48:26.445Z</time></trkpt><trkpt lat="42.7673592" lon="13.1720867"><ele>1319.0</ele><time>2026-04-18T09:48:27.418Z</time></trkpt><trkpt lat="42.7674949" lon="13.1720491"><ele>1319.0</ele><time>2026-04-18T09:48:28.41Z</time></trkpt><trkpt lat="42.7676373" lon="13.1720074"><ele>1327.3333333333335</ele><time>2026-04-18T09:48:29.515Z</time></trkpt><trkpt lat="42.76788" lon="13.1718876"><ele>1335.6666666666667</ele><time>2026-04-18T09:48:31.6Z</time></trkpt><trkpt lat="42.7679596" lon="13.1717788"><ele>1344.0</ele><time>2026-04-18T09:48:32.534Z</time></trkpt><trkpt lat="42.7680006" lon="13.1716333"><ele>1347.6666666666667</ele><time>2026-04-18T09:48:33.466Z</time></trkpt><trkpt lat="42.7680002" lon="13.1714473"><ele>1351.3333333333335</ele><time>2026-04-18T09:48:34.468Z</time></trkpt><trkpt lat="42.7679626" lon="13.1712532"><ele>1355.0</ele><time>2026-04-18T09:48:35.458Z</time></trkpt><trkpt lat="42.76789" lon="13.1710144"><ele>1355.0</ele><time>2026-04-18T09:48:36.513Z</time></trkpt><trkpt lat="42.7677846" lon="13.1707592"><ele>1355.0</ele><time>2026-04-18T09:48:37.477Z</time></trkpt><trkpt lat="42.7676382" lon="13.1704544"><ele>1357.0</ele><time>2026-04-18T09:48:38.511Z</time></trkpt><trkpt lat="42.7674735" lon="13.1701402"><ele>1359.0</ele><time>2026-04-18T09:48:39.501Z</time></trkpt><trkpt lat="42.7672928" lon="13.1698099"><ele>1359.0</ele><time>2026-04-18T09:48:40.475Z</time></trkpt><trkpt lat="42.767121" lon="13.1695065"><ele>1359.0</ele><time>2026-04-18T09:48:41.42Z</time></trkpt><trkpt lat="42.7669581" lon="13.1692188"><ele>1345.0</ele><time>2026-04-18T09:48:42.419Z</time></trkpt><trkpt lat="42.7668063" lon="13.1689496"><ele>1331.0</ele><time>2026-04-18T09:48:43.418Z</time></trkpt><trkpt lat="42.7666647" lon="13.1686992"><ele>1331.0</ele><time>2026-04-18T09:48:44.457Z</time></trkpt><trkpt lat="42.7665442" lon="13.168476"><ele>1331.0</ele><time>2026-04-18T09:48:45.441Z</time></trkpt><trkpt lat="42.7664168" lon="13.1682643"><ele>1331.0</ele><time>2026-04-18T09:48:46.419Z</time></trkpt><trkpt lat="42.7662614" lon="13.1680927"><ele>1327.0</ele><time>2026-04-18T09:48:47.428Z</time></trkpt><trkpt lat="42.766096" lon="13.1679542"><ele>1323.0</ele><time>2026-04-18T09:48:48.447Z</time></trkpt><trkpt lat="42.7659432" lon="13.167838"><ele>1319.0</ele><time>2026-04-18T09:48:49.453Z</time></trkpt><trkpt lat="42.7658144" lon="13.1677112"><ele>1319.0</ele><time>2026-04-18T09:48:50.434Z</time></trkpt><trkpt lat="42.7656969" lon="13.1675448"><ele>1319.0</ele><time>2026-04-18T09:48:51.475Z</time></trkpt><trkpt lat="42.7655986" lon="13.1673686"><ele>1319.0</ele><time>2026-04-18T09:48:52.452Z</time></trkpt><trkpt lat="42.7655021" lon="13.1672077"><ele>1311.0</ele><time>2026-04-18T09:48:53.404Z</time></trkpt><trkpt lat="42.7653958" lon="13.1670426"><ele>1303.0</ele><time>2026-04-18T09:48:54.434Z</time></trkpt><trkpt lat="42.7652912" lon="13.1668983"><ele>1295.0</ele><time>2026-04-18T09:48:55.407Z</time></trkpt><trkpt lat="42.7651869" lon="13.1667391"><ele>1295.0</ele><time>2026-04-18T09:48:56.441Z</time></trkpt><trkpt lat="42.765088" lon="13.1665692"><ele>1295.0</ele><time>2026-04-18T09:48:57.498Z</time></trkpt><trkpt lat="42.7650081" lon="13.1664153"><ele>1295.0</ele><time>2026-04-18T09:48:58.429Z</time></trkpt><trkpt lat="42.7649058" lon="13.1662487"><ele>1303.25</ele><time>2026-04-18T09:48:59.495Z</time></trkpt><trkpt lat="42.7647996" lon="13.1661179"><ele>1311.5</ele><time>2026-04-18T09:49:00.443Z</time></trkpt><trkpt lat="42.7646779" lon="13.1659929"><ele>1319.75</ele><time>2026-04-18T09:49:01.455Z</time></trkpt><trkpt lat="42.7645597" lon="13.165885"><ele>1328.0</ele><time>2026-04-18T09:49:02.425Z</time></trkpt><trkpt lat="42.7644443" lon="13.1657691"><ele>1317.3333333333335</ele><time>2026-04-18T09:49:03.444Z</time></trkpt><trkpt lat="42.7643257" lon="13.1656369"><ele>1306.6666666666667</ele><time>2026-04-18T09:49:04.55Z</time></trkpt><trkpt lat="42.7641414" lon="13.1653953"><ele>1296.0</ele><time>2026-04-18T09:49:06.508Z</time></trkpt><trkpt lat="42.764069" lon="13.1652701"><ele>1296.0</ele><time>2026-04-18T09:49:07.437Z</time></trkpt><trkpt lat="42.7640042" lon="13.1650783"><ele>1296.0</ele><time>2026-04-18T09:49:08.572Z</time></trkpt><trkpt lat="42.7639658" lon="13.1647009"><ele>1296.0</ele><time>2026-04-18T09:49:10.493Z</time></trkpt><trkpt lat="42.7639557" lon="13.1645065"><ele>1295.5</ele><time>2026-04-18T09:49:11.492Z</time></trkpt><trkpt lat="42.7639341" lon="13.1643276"><ele>1295.0</ele><time>2026-04-18T09:49:12.461Z</time></trkpt><trkpt lat="42.7639019" lon="13.1641486"><ele>1294.5</ele><time>2026-04-18T09:49:13.466Z</time></trkpt><trkpt lat="42.7638615" lon="13.1639633"><ele>1294.0</ele><time>2026-04-18T09:49:14.515Z</time></trkpt><trkpt lat="42.7638288" lon="13.1638131"><ele>1289.75</ele><time>2026-04-18T09:49:15.449Z</time></trkpt><trkpt lat="42.7638048" lon="13.1636526"><ele>1285.5</ele><time>2026-04-18T09:49:16.476Z</time></trkpt><trkpt lat="42.7638027" lon="13.1635004"><ele>1281.25</ele><time>2026-04-18T09:49:17.453Z</time></trkpt><trkpt lat="42.7638273" lon="13.1633362"><ele>1277.0</ele><time>2026-04-18T09:49:18.499Z</time></trkpt><trkpt lat="42.7638877" lon="13.1632027"><ele>1268.3333333333335</ele><time>2026-04-18T09:49:19.484Z</time></trkpt><trkpt lat="42.7640041" lon="13.1631081"><ele>1259.6666666666667</ele><time>2026-04-18T09:49:20.438Z</time></trkpt><trkpt lat="42.7641593" lon="13.1630311"><ele>1251.0</ele><time>2026-04-18T09:49:21.59Z</time></trkpt><trkpt lat="42.7644228" lon="13.1629443"><ele>1251.0</ele><time>2026-04-18T09:49:23.415Z</time></trkpt><trkpt lat="42.7645604" lon="13.1628916"><ele>1251.0</ele><time>2026-04-18T09:49:24.445Z</time></trkpt><trkpt lat="42.76469" lon="13.1628497"><ele>1251.0</ele><time>2026-04-18T09:49:25.425Z</time></trkpt><trkpt lat="42.7648385" lon="13.162836"><ele>1251.0</ele><time>2026-04-18T09:49:26.503Z</time></trkpt><trkpt lat="42.7649757" lon="13.1628602"><ele>1251.0</ele><time>2026-04-18T09:49:27.435Z</time></trkpt><trkpt lat="42.7651244" lon="13.1629034"><ele>1251.0</ele><time>2026-04-18T09:49:28.426Z</time></trkpt><trkpt lat="42.7652626" lon="13.1629962"><ele>1251.0</ele><time>2026-04-18T09:49:29.43Z</time></trkpt><trkpt lat="42.7654057" lon="13.163066"><ele>1255.5</ele><time>2026-04-18T09:49:30.447Z</time></trkpt><trkpt lat="42.7655578" lon="13.1631262"><ele>1260.0</ele><time>2026-04-18T09:49:31.504Z</time></trkpt><trkpt lat="42.7656913" lon="13.1631723"><ele>1264.5</ele><time>2026-04-18T09:49:32.44Z</time></trkpt><trkpt lat="42.7658364" lon="13.163211"><ele>1269.0</ele><time>2026-04-18T09:49:33.437Z</time></trkpt><trkpt lat="42.7659728" lon="13.1632409"><ele>1266.75</ele><time>2026-04-18T09:49:34.413Z</time></trkpt><trkpt lat="42.7661144" lon="13.163256"><ele>1264.5</ele><time>2026-04-18T09:49:35.411Z</time></trkpt><trkpt lat="42.766255" lon="13.1632668"><ele>1262.25</ele><time>2026-04-18T09:49:36.412Z</time></trkpt><trkpt lat="42.7663936" lon="13.1632794"><ele>1260.0</ele><time>2026-04-18T09:49:37.408Z</time></trkpt><trkpt lat="42.7665294" lon="13.1632965"><ele>1260.0</ele><time>2026-04-18T09:49:38.413Z</time></trkpt><trkpt lat="42.7666642" lon="13.1633106"><ele>1260.0</ele><time>2026-04-18T09:49:39.447Z</time></trkpt><trkpt lat="42.7667873" lon="13.1633208"><ele>1260.0</ele><time>2026-04-18T09:49:40.418Z</time></trkpt><trkpt lat="42.7669153" lon="13.1633337"><ele>1260.0</ele><time>2026-04-18T09:49:41.432Z</time></trkpt><trkpt lat="42.7670348" lon="13.163344"><ele>1261.2</ele><time>2026-04-18T09:49:42.39Z</time></trkpt><trkpt lat="42.7671531" lon="13.1633498"><ele>1262.4</ele><time>2026-04-18T09:49:43.392Z</time></trkpt><trkpt lat="42.7672666" lon="13.1633478"><ele>1263.6</ele><time>2026-04-18T09:49:44.426Z</time></trkpt><trkpt lat="42.7673708" lon="13.1633263"><ele>1264.8</ele><time>2026-04-18T09:49:45.424Z</time></trkpt><trkpt lat="42.7674642" lon="13.1632778"><ele>1266.0</ele><time>2026-04-18T09:49:46.399Z</time></trkpt><trkpt lat="42.7675462" lon="13.1632005"><ele>1265.0</ele><time>2026-04-18T09:49:47.441Z</time></trkpt><trkpt lat="42.7675924" lon="13.1631014"><ele>1264.0</ele><time>2026-04-18T09:49:48.426Z</time></trkpt><trkpt lat="42.7676005" lon="13.1629839"><ele>1263.0</ele><time>2026-04-18T09:49:49.409Z</time></trkpt><trkpt lat="42.7675812" lon="13.1628576"><ele>1262.0</ele><time>2026-04-18T09:49:50.447Z</time></trkpt><trkpt lat="42.7675471" lon="13.1627376"><ele>1261.0</ele><time>2026-04-18T09:49:51.424Z</time></trkpt><trkpt lat="42.7675083" lon="13.1626136"><ele>1261.0</ele><time>2026-04-18T09:49:52.423Z</time></trkpt><trkpt lat="42.7674774" lon="13.1624815"><ele>1261.0</ele><time>2026-04-18T09:49:53.432Z</time></trkpt><trkpt lat="42.7674508" lon="13.162341"><ele>1261.0</ele><time>2026-04-18T09:49:54.439Z</time></trkpt><trkpt lat="42.7674227" lon="13.1621734"><ele>1261.0</ele><time>2026-04-18T09:49:55.544Z</time></trkpt><trkpt lat="42.7673639" lon="13.1618527"><ele>1262.6666666666665</ele><time>2026-04-18T09:49:57.482Z</time></trkpt><trkpt lat="42.7673392" lon="13.1616971"><ele>1264.3333333333333</ele><time>2026-04-18T09:49:58.431Z</time></trkpt><trkpt lat="42.7673072" lon="13.1615228"><ele>1266.0</ele><time>2026-04-18T09:49:59.524Z</time></trkpt><trkpt lat="42.7672453" lon="13.1612216"><ele>1266.5</ele><time>2026-04-18T09:50:01.45Z</time></trkpt><trkpt lat="42.7672105" lon="13.1610685"><ele>1267.0</ele><time>2026-04-18T09:50:02.441Z</time></trkpt><trkpt lat="42.7671682" lon="13.1609164"><ele>1267.5</ele><time>2026-04-18T09:50:03.464Z</time></trkpt><trkpt lat="42.7671273" lon="13.1607767"><ele>1268.0</ele><time>2026-04-18T09:50:04.423Z</time></trkpt><trkpt lat="42.7670886" lon="13.1606261"><ele>1268.0</ele><time>2026-04-18T09:50:05.43Z</time></trkpt><trkpt lat="42.7670624" lon="13.1604744"><ele>1268.0</ele><time>2026-04-18T09:50:06.434Z</time></trkpt><trkpt lat="42.7670463" lon="13.1603236"><ele>1268.0</ele><time>2026-04-18T09:50:07.439Z</time></trkpt><trkpt lat="42.7670309" lon="13.1601633"><ele>1268.0</ele><time>2026-04-18T09:50:08.494Z</time></trkpt><trkpt lat="42.7670246" lon="13.1600116"><ele>1265.25</ele><time>2026-04-18T09:50:09.467Z</time></trkpt><trkpt lat="42.7670239" lon="13.1598515"><ele>1262.5</ele><time>2026-04-18T09:50:10.472Z</time></trkpt><trkpt lat="42.7670318" lon="13.1597025"><ele>1259.75</ele><time>2026-04-18T09:50:11.446Z</time></trkpt><trkpt lat="42.76705" lon="13.1595432"><ele>1257.0</ele><time>2026-04-18T09:50:12.506Z</time></trkpt><trkpt lat="42.7670688" lon="13.1593943"><ele>1257.0</ele><time>2026-04-18T09:50:13.46Z</time></trkpt><trkpt lat="42.7670956" lon="13.1592332"><ele>1257.0</ele><time>2026-04-18T09:50:14.44Z</time></trkpt><trkpt lat="42.7671213" lon="13.1590618"><ele>1257.0</ele><time>2026-04-18T09:50:15.453Z</time></trkpt><trkpt lat="42.7671475" lon="13.1588833"><ele>1257.0</ele><time>2026-04-18T09:50:16.442Z</time></trkpt><trkpt lat="42.7671788" lon="13.1586956"><ele>1254.25</ele><time>2026-04-18T09:50:17.424Z</time></trkpt><trkpt lat="42.7672124" lon="13.158494"><ele>1251.5</ele><time>2026-04-18T09:50:18.463Z</time></trkpt><trkpt lat="42.7672471" lon="13.1583044"><ele>1248.75</ele><time>2026-04-18T09:50:19.439Z</time></trkpt><trkpt lat="42.7672811" lon="13.1581116"><ele>1246.0</ele><time>2026-04-18T09:50:20.443Z</time></trkpt><trkpt lat="42.767315" lon="13.1579225"><ele>1242.0</ele><time>2026-04-18T09:50:21.441Z</time></trkpt><trkpt lat="42.7673531" lon="13.1577393"><ele>1238.0</ele><time>2026-04-18T09:50:22.425Z</time></trkpt><trkpt lat="42.7674072" lon="13.1575404"><ele>1234.0</ele><time>2026-04-18T09:50:23.537Z</time></trkpt><trkpt lat="42.7674598" lon="13.1573834"><ele>1230.0</ele><time>2026-04-18T09:50:24.446Z</time></trkpt><trkpt lat="42.7675246" lon="13.1572022"><ele>1227.5</ele><time>2026-04-18T09:50:25.482Z</time></trkpt><trkpt lat="42.7675946" lon="13.1570307"><ele>1225.0</ele><time>2026-04-18T09:50:26.472Z</time></trkpt><trkpt lat="42.767671" lon="13.1568642"><ele>1222.5</ele><time>2026-04-18T09:50:27.454Z</time></trkpt><trkpt lat="42.7677547" lon="13.1566934"><ele>1220.0</ele><time>2026-04-18T09:50:28.453Z</time></trkpt><trkpt lat="42.7678376" lon="13.1565258"><ele>1220.0</ele><time>2026-04-18T09:50:29.448Z</time></trkpt><trkpt lat="42.7679217" lon="13.1563608"><ele>1220.0</ele><time>2026-04-18T09:50:30.454Z</time></trkpt><trkpt lat="42.7680034" lon="13.1562035"><ele>1220.0</ele><time>2026-04-18T09:50:31.44Z</time></trkpt><trkpt lat="42.768092" lon="13.1560507"><ele>1220.0</ele><time>2026-04-18T09:50:32.447Z</time></trkpt><trkpt lat="42.7681982" lon="13.1559027"><ele>1220.0</ele><time>2026-04-18T09:50:33.507Z</time></trkpt><trkpt lat="42.7683075" lon="13.1557861"><ele>1220.0</ele><time>2026-04-18T09:50:34.448Z</time></trkpt><trkpt lat="42.7684337" lon="13.1556752"><ele>1220.0</ele><time>2026-04-18T09:50:35.438Z</time></trkpt><trkpt lat="42.7685657" lon="13.1555697"><ele>1220.0</ele><time>2026-04-18T09:50:36.418Z</time></trkpt><trkpt lat="42.7687012" lon="13.1554422"><ele>1221.6666666666667</ele><time>2026-04-18T09:50:37.429Z</time></trkpt><trkpt lat="42.7688229" lon="13.1552957"><ele>1223.3333333333333</ele><time>2026-04-18T09:50:38.418Z</time></trkpt><trkpt lat="42.768937" lon="13.1551303"><ele>1225.0</ele><time>2026-04-18T09:50:39.45Z</time></trkpt><trkpt lat="42.7690508" lon="13.1549495"><ele>1228.0</ele><time>2026-04-18T09:50:40.564Z</time></trkpt><trkpt lat="42.7692161" lon="13.1546358"><ele>1231.0</ele><time>2026-04-18T09:50:42.424Z</time></trkpt><trkpt lat="42.7693098" lon="13.1544762"><ele>1234.0</ele><time>2026-04-18T09:50:43.433Z</time></trkpt><trkpt lat="42.7694185" lon="13.1543198"><ele>1234.0</ele><time>2026-04-18T09:50:44.482Z</time></trkpt><trkpt lat="42.7695213" lon="13.1541805"><ele>1234.0</ele><time>2026-04-18T09:50:45.439Z</time></trkpt><trkpt lat="42.7696174" lon="13.1540285"><ele>1234.0</ele><time>2026-04-18T09:50:46.404Z</time></trkpt><trkpt lat="42.769709" lon="13.1538448"><ele>1227.6666666666665</ele><time>2026-04-18T09:50:47.448Z</time></trkpt><trkpt lat="42.7697823" lon="13.1536576"><ele>1221.3333333333333</ele><time>2026-04-18T09:50:48.435Z</time></trkpt><trkpt lat="42.7698488" lon="13.1534689"><ele>1215.0</ele><time>2026-04-18T09:50:49.427Z</time></trkpt><trkpt lat="42.7699095" lon="13.1532763"><ele>1209.5</ele><time>2026-04-18T09:50:50.444Z</time></trkpt><trkpt lat="42.769962" lon="13.1530948"><ele>1204.0</ele><time>2026-04-18T09:50:51.412Z</time></trkpt><trkpt lat="42.7700139" lon="13.1529004"><ele>1198.5</ele><time>2026-04-18T09:50:52.441Z</time></trkpt><trkpt lat="42.7700632" lon="13.1527075"><ele>1193.0</ele><time>2026-04-18T09:50:53.451Z</time></trkpt><trkpt lat="42.7701147" lon="13.1525229"><ele>1194.75</ele><time>2026-04-18T09:50:54.443Z</time></trkpt><trkpt lat="42.7701676" lon="13.1523365"><ele>1196.5</ele><time>2026-04-18T09:50:55.456Z</time></trkpt><trkpt lat="42.7702191" lon="13.1521583"><ele>1198.25</ele><time>2026-04-18T09:50:56.449Z</time></trkpt><trkpt lat="42.7702745" lon="13.1519948"><ele>1200.0</ele><time>2026-04-18T09:50:57.436Z</time></trkpt><trkpt lat="42.7703384" lon="13.1518395"><ele>1200.0</ele><time>2026-04-18T09:50:58.466Z</time></trkpt><trkpt lat="42.7704148" lon="13.1517123"><ele>1200.0</ele><time>2026-04-18T09:50:59.412Z</time></trkpt><trkpt lat="42.7705204" lon="13.1516156"><ele>1200.0</ele><time>2026-04-18T09:51:00.464Z</time></trkpt><trkpt lat="42.770639" lon="13.1515491"><ele>1200.0</ele><time>2026-04-18T09:51:01.464Z</time></trkpt><trkpt lat="42.7707663" lon="13.1515009"><ele>1190.5</ele><time>2026-04-18T09:51:02.429Z</time></trkpt><trkpt lat="42.7709146" lon="13.1514587"><ele>1181.0</ele><time>2026-04-18T09:51:03.518Z</time></trkpt><trkpt lat="42.7710405" lon="13.1514465"><ele>1171.5</ele><time>2026-04-18T09:51:04.445Z</time></trkpt><trkpt lat="42.7711803" lon="13.1514567"><ele>1162.0</ele><time>2026-04-18T09:51:05.455Z</time></trkpt><trkpt lat="42.7713306" lon="13.151492"><ele>1161.3333333333333</ele><time>2026-04-18T09:51:06.431Z</time></trkpt><trkpt lat="42.7714908" lon="13.1515291"><ele>1160.6666666666667</ele><time>2026-04-18T09:51:07.433Z</time></trkpt><trkpt lat="42.7716441" lon="13.1515516"><ele>1160.0</ele><time>2026-04-18T09:51:08.427Z</time></trkpt><trkpt lat="42.7718003" lon="13.15157"><ele>1168.0</ele><time>2026-04-18T09:51:09.446Z</time></trkpt><trkpt lat="42.7719472" lon="13.151583"><ele>1176.0</ele><time>2026-04-18T09:51:10.42Z</time></trkpt><trkpt lat="42.7720976" lon="13.1515922"><ele>1184.0</ele><time>2026-04-18T09:51:11.431Z</time></trkpt><trkpt lat="42.7722415" lon="13.1515914"><ele>1192.0</ele><time>2026-04-18T09:51:12.419Z</time></trkpt><trkpt lat="42.7723854" lon="13.1515738"><ele>1182.75</ele><time>2026-04-18T09:51:13.428Z</time></trkpt><trkpt lat="42.7725205" lon="13.1515366"><ele>1173.5</ele><time>2026-04-18T09:51:14.424Z</time></trkpt><trkpt lat="42.7726499" lon="13.1514979"><ele>1164.25</ele><time>2026-04-18T09:51:15.413Z</time></trkpt><trkpt lat="42.772781" lon="13.1514773"><ele>1155.0</ele><time>2026-04-18T09:51:16.406Z</time></trkpt><trkpt lat="42.7729128" lon="13.1514945"><ele>1163.5</ele><time>2026-04-18T09:51:17.424Z</time></trkpt><trkpt lat="42.7730383" lon="13.151541"><ele>1172.0</ele><time>2026-04-18T09:51:18.425Z</time></trkpt><trkpt lat="42.773168" lon="13.1515965"><ele>1180.5</ele><time>2026-04-18T09:51:19.426Z</time></trkpt><trkpt lat="42.7732976" lon="13.151632"><ele>1189.0</ele><time>2026-04-18T09:51:20.446Z</time></trkpt><trkpt lat="42.7734388" lon="13.1516208"><ele>1178.6666666666665</ele><time>2026-04-18T09:51:21.54Z</time></trkpt><trkpt lat="42.7736615" lon="13.1514611"><ele>1168.3333333333333</ele><time>2026-04-18T09:51:23.477Z</time></trkpt><trkpt lat="42.7737804" lon="13.1513576"><ele>1158.0</ele><time>2026-04-18T09:51:24.514Z</time></trkpt><trkpt lat="42.773899" lon="13.1512858"><ele>1158.0</ele><time>2026-04-18T09:51:25.44Z</time></trkpt><trkpt lat="42.7740353" lon="13.151214"><ele>1158.0</ele><time>2026-04-18T09:51:26.425Z</time></trkpt><trkpt lat="42.7741679" lon="13.1511456"><ele>1158.0</ele><time>2026-04-18T09:51:27.43Z</time></trkpt><trkpt lat="42.774297" lon="13.1510788"><ele>1158.0</ele><time>2026-04-18T09:51:28.431Z</time></trkpt><trkpt lat="42.7744241" lon="13.1510165"><ele>1160.0</ele><time>2026-04-18T09:51:29.42Z</time></trkpt><trkpt lat="42.7745586" lon="13.1509679"><ele>1162.0</ele><time>2026-04-18T09:51:30.432Z</time></trkpt><trkpt lat="42.774693" lon="13.1509474"><ele>1164.0</ele><time>2026-04-18T09:51:31.408Z</time></trkpt><trkpt lat="42.7748399" lon="13.1509522"><ele>1166.0</ele><time>2026-04-18T09:51:32.434Z</time></trkpt><trkpt lat="42.7749831" lon="13.1509704"><ele>1166.0</ele><time>2026-04-18T09:51:33.442Z</time></trkpt><trkpt lat="42.7751173" lon="13.1509823"><ele>1166.0</ele><time>2026-04-18T09:51:34.433Z</time></trkpt><trkpt lat="42.7752432" lon="13.1509882"><ele>1166.0</ele><time>2026-04-18T09:51:35.446Z</time></trkpt><trkpt lat="42.775354" lon="13.1510014"><ele>1166.0</ele><time>2026-04-18T09:51:36.407Z</time></trkpt><trkpt lat="42.7754684" lon="13.1510517"><ele>1160.75</ele><time>2026-04-18T09:51:37.44Z</time></trkpt><trkpt lat="42.77559" lon="13.1511335"><ele>1155.5</ele><time>2026-04-18T09:51:38.438Z</time></trkpt><trkpt lat="42.7757204" lon="13.1512389"><ele>1150.25</ele><time>2026-04-18T09:51:39.436Z</time></trkpt><trkpt lat="42.7758492" lon="13.1513123"><ele>1145.0</ele><time>2026-04-18T09:51:40.412Z</time></trkpt><trkpt lat="42.7759809" lon="13.1513773"><ele>1145.25</ele><time>2026-04-18T09:51:41.428Z</time></trkpt><trkpt lat="42.7761033" lon="13.1514475"><ele>1145.5</ele><time>2026-04-18T09:51:42.408Z</time></trkpt><trkpt lat="42.7762234" lon="13.1515151"><ele>1145.75</ele><time>2026-04-18T09:51:43.404Z</time></trkpt><trkpt lat="42.7763563" lon="13.1515884"><ele>1146.0</ele><time>2026-04-18T09:51:44.542Z</time></trkpt><trkpt lat="42.7764632" lon="13.1516581"><ele>1146.0</ele><time>2026-04-18T09:51:45.484Z</time></trkpt><trkpt lat="42.7765723" lon="13.1517436"><ele>1146.0</ele><time>2026-04-18T09:51:46.469Z</time></trkpt><trkpt lat="42.7766762" lon="13.1518445"><ele>1146.0</ele><time>2026-04-18T09:51:47.445Z</time></trkpt><trkpt lat="42.7767456" lon="13.1519762"><ele>1146.0</ele><time>2026-04-18T09:51:48.452Z</time></trkpt><trkpt lat="42.7767969" lon="13.1521238"><ele>1147.6</ele><time>2026-04-18T09:51:49.451Z</time></trkpt><trkpt lat="42.7768681" lon="13.1522372"><ele>1149.1999999999998</ele><time>2026-04-18T09:51:50.454Z</time></trkpt><trkpt lat="42.7769512" lon="13.1523202"><ele>1150.8000000000002</ele><time>2026-04-18T09:51:51.437Z</time></trkpt><trkpt lat="42.7770487" lon="13.1524015"><ele>1152.4</ele><time>2026-04-18T09:51:52.432Z</time></trkpt><trkpt lat="42.7771433" lon="13.1524428"><ele>1154.0</ele><time>2026-04-18T09:51:53.449Z</time></trkpt><trkpt lat="42.7772332" lon="13.1524231"><ele>1154.0</ele><time>2026-04-18T09:51:54.449Z</time></trkpt><trkpt lat="42.7773258" lon="13.1522997"><ele>1154.0</ele><time>2026-04-18T09:51:55.454Z</time></trkpt><trkpt lat="42.7774119" lon="13.152144"><ele>1154.0</ele><time>2026-04-18T09:51:56.477Z</time></trkpt><trkpt lat="42.7774871" lon="13.1519471"><ele>1154.0</ele><time>2026-04-18T09:51:57.473Z</time></trkpt><trkpt lat="42.7775759" lon="13.1517894"><ele>1154.0</ele><time>2026-04-18T09:51:58.462Z</time></trkpt><trkpt lat="42.7776722" lon="13.1516197"><ele>1154.0</ele><time>2026-04-18T09:51:59.472Z</time></trkpt><trkpt lat="42.7777724" lon="13.1514498"><ele>1154.0</ele><time>2026-04-18T09:52:00.479Z</time></trkpt><trkpt lat="42.7778744" lon="13.1512866"><ele>1157.0</ele><time>2026-04-18T09:52:01.461Z</time></trkpt><trkpt lat="42.7779855" lon="13.1511258"><ele>1160.0</ele><time>2026-04-18T09:52:02.498Z</time></trkpt><trkpt lat="42.7780882" lon="13.150981"><ele>1163.0</ele><time>2026-04-18T09:52:03.452Z</time></trkpt><trkpt lat="42.7781924" lon="13.1508348"><ele>1162.0</ele><time>2026-04-18T09:52:04.456Z</time></trkpt><trkpt lat="42.778297" lon="13.1506849"><ele>1161.0</ele><time>2026-04-18T09:52:05.464Z</time></trkpt><trkpt lat="42.7784086" lon="13.1505297"><ele>1160.0</ele><time>2026-04-18T09:52:06.477Z</time></trkpt><trkpt lat="42.7785296" lon="13.1503794"><ele>1160.0</ele><time>2026-04-18T09:52:07.52Z</time></trkpt><trkpt lat="42.7786493" lon="13.1502549"><ele>1160.0</ele><time>2026-04-18T09:52:08.466Z</time></trkpt><trkpt lat="42.7787958" lon="13.1501054"><ele>1160.0</ele><time>2026-04-18T09:52:09.618Z</time></trkpt><trkpt lat="42.7790281" lon="13.1498617"><ele>1150.5</ele><time>2026-04-18T09:52:11.475Z</time></trkpt><trkpt lat="42.7791657" lon="13.1497275"><ele>1141.0</ele><time>2026-04-18T09:52:12.599Z</time></trkpt><trkpt lat="42.7794237" lon="13.1495508"><ele>1141.0</ele><time>2026-04-18T09:52:14.495Z</time></trkpt><trkpt lat="42.7795765" lon="13.1494694"><ele>1141.0</ele><time>2026-04-18T09:52:15.503Z</time></trkpt><trkpt lat="42.7797208" lon="13.1493898"><ele>1141.0</ele><time>2026-04-18T09:52:16.462Z</time></trkpt><trkpt lat="42.7798743" lon="13.1492911"><ele>1141.0</ele><time>2026-04-18T09:52:17.515Z</time></trkpt><trkpt lat="42.7800176" lon="13.1491828"><ele>1141.0</ele><time>2026-04-18T09:52:18.481Z</time></trkpt><trkpt lat="42.7801641" lon="13.1490705"><ele>1141.0</ele><time>2026-04-18T09:52:19.465Z</time></trkpt><trkpt lat="42.7803175" lon="13.1489729"><ele>1136.3333333333333</ele><time>2026-04-18T09:52:20.485Z</time></trkpt><trkpt lat="42.7804732" lon="13.1488987"><ele>1131.6666666666667</ele><time>2026-04-18T09:52:21.505Z</time></trkpt><trkpt lat="42.7806297" lon="13.1488267"><ele>1127.0</ele><time>2026-04-18T09:52:22.504Z</time></trkpt><trkpt lat="42.7807733" lon="13.1487252"><ele>1127.0</ele><time>2026-04-18T09:52:23.471Z</time></trkpt><trkpt lat="42.7809184" lon="13.1485662"><ele>1127.0</ele><time>2026-04-18T09:52:24.565Z</time></trkpt><trkpt lat="42.7810287" lon="13.1484209"><ele>1127.0</ele><time>2026-04-18T09:52:25.473Z</time></trkpt><trkpt lat="42.7811633" lon="13.1482664"><ele>1120.3333333333335</ele><time>2026-04-18T09:52:26.504Z</time></trkpt><trkpt lat="42.7813091" lon="13.1481374"><ele>1113.6666666666667</ele><time>2026-04-18T09:52:27.515Z</time></trkpt><trkpt lat="42.7814524" lon="13.1480217"><ele>1107.0</ele><time>2026-04-18T09:52:28.508Z</time></trkpt><trkpt lat="42.7816048" lon="13.147906"><ele>1107.0</ele><time>2026-04-18T09:52:29.522Z</time></trkpt><trkpt lat="42.7817605" lon="13.1477923"><ele>1107.0</ele><time>2026-04-18T09:52:30.512Z</time></trkpt><trkpt lat="42.7819247" lon="13.1476843"><ele>1107.0</ele><time>2026-04-18T09:52:31.536Z</time></trkpt><trkpt lat="42.7820806" lon="13.1475826"><ele>1101.0</ele><time>2026-04-18T09:52:32.527Z</time></trkpt><trkpt lat="42.7822332" lon="13.1474818"><ele>1095.0</ele><time>2026-04-18T09:52:33.502Z</time></trkpt><trkpt lat="42.7823889" lon="13.1473876"><ele>1089.0</ele><time>2026-04-18T09:52:34.51Z</time></trkpt><trkpt lat="42.7825387" lon="13.1472951"><ele>1093.6666666666667</ele><time>2026-04-18T09:52:35.508Z</time></trkpt><trkpt lat="42.7826875" lon="13.1472056"><ele>1098.3333333333335</ele><time>2026-04-18T09:52:36.483Z</time></trkpt><trkpt lat="42.7828693" lon="13.1471027"><ele>1103.0</ele><time>2026-04-18T09:52:37.644Z</time></trkpt><trkpt lat="42.7831563" lon="13.146963"><ele>1103.0</ele><time>2026-04-18T09:52:39.505Z</time></trkpt><trkpt lat="42.7833108" lon="13.1468998"><ele>1103.0</ele><time>2026-04-18T09:52:40.499Z</time></trkpt><trkpt lat="42.7834704" lon="13.1468405"><ele>1103.0</ele><time>2026-04-18T09:52:41.5Z</time></trkpt><trkpt lat="42.7836393" lon="13.1468004"><ele>1105.3333333333335</ele><time>2026-04-18T09:52:42.507Z</time></trkpt><trkpt lat="42.7838018" lon="13.1467824"><ele>1107.6666666666667</ele><time>2026-04-18T09:52:43.49Z</time></trkpt><trkpt lat="42.7839775" lon="13.1467996"><ele>1110.0</ele><time>2026-04-18T09:52:44.509Z</time></trkpt><trkpt lat="42.7841446" lon="13.1468079"><ele>1110.0</ele><time>2026-04-18T09:52:45.505Z</time></trkpt><trkpt lat="42.7843026" lon="13.1467586"><ele>1110.0</ele><time>2026-04-18T09:52:46.516Z</time></trkpt><trkpt lat="42.7844608" lon="13.1466355"><ele>1110.0</ele><time>2026-04-18T09:52:47.61Z</time></trkpt><trkpt lat="42.7846997" lon="13.1463278"><ele>1106.3333333333333</ele><time>2026-04-18T09:52:49.516Z</time></trkpt><trkpt lat="42.784811" lon="13.1461691"><ele>1102.6666666666665</ele><time>2026-04-18T09:52:50.503Z</time></trkpt><trkpt lat="42.7849193" lon="13.1459983"><ele>1099.0</ele><time>2026-04-18T09:52:51.518Z</time></trkpt><trkpt lat="42.7850198" lon="13.145828"><ele>1097.3333333333333</ele><time>2026-04-18T09:52:52.51Z</time></trkpt><trkpt lat="42.7851329" lon="13.1456715"><ele>1095.6666666666667</ele><time>2026-04-18T09:52:53.519Z</time></trkpt><trkpt lat="42.7852636" lon="13.1455412"><ele>1094.0</ele><time>2026-04-18T09:52:54.525Z</time></trkpt><trkpt lat="42.7854045" lon="13.1454445"><ele>1094.0</ele><time>2026-04-18T09:52:55.544Z</time></trkpt><trkpt lat="42.7855435" lon="13.145393"><ele>1094.0</ele><time>2026-04-18T09:52:56.527Z</time></trkpt><trkpt lat="42.7856808" lon="13.1453727"><ele>1094.0</ele><time>2026-04-18T09:52:57.51Z</time></trkpt><trkpt lat="42.7858058" lon="13.1453566"><ele>1094.0</ele><time>2026-04-18T09:52:58.504Z</time></trkpt><trkpt lat="42.7859228" lon="13.1453114"><ele>1100.75</ele><time>2026-04-18T09:52:59.509Z</time></trkpt><trkpt lat="42.786012" lon="13.1451861"><ele>1107.5</ele><time>2026-04-18T09:53:00.548Z</time></trkpt><trkpt lat="42.7860473" lon="13.1450077"><ele>1114.25</ele><time>2026-04-18T09:53:01.527Z</time></trkpt><trkpt lat="42.7860719" lon="13.1448186"><ele>1121.0</ele><time>2026-04-18T09:53:02.466Z</time></trkpt><trkpt lat="42.7861032" lon="13.1446025"><ele>1121.0</ele><time>2026-04-18T09:53:03.434Z</time></trkpt><trkpt lat="42.786138" lon="13.1443754"><ele>1121.0</ele><time>2026-04-18T09:53:04.432Z</time></trkpt><trkpt lat="42.7861829" lon="13.1441472"><ele>1121.0</ele><time>2026-04-18T09:53:05.429Z</time></trkpt><trkpt lat="42.7862338" lon="13.1439398"><ele>1116.0</ele><time>2026-04-18T09:53:06.412Z</time></trkpt><trkpt lat="42.7863046" lon="13.1437069"><ele>1111.0</ele><time>2026-04-18T09:53:07.569Z</time></trkpt><trkpt lat="42.786383" lon="13.1433142"><ele>1106.6666666666665</ele><time>2026-04-18T09:53:09.482Z</time></trkpt><trkpt lat="42.7863784" lon="13.1430917"><ele>1102.3333333333333</ele><time>2026-04-18T09:53:10.43Z</time></trkpt><trkpt lat="42.7863893" lon="13.1428449"><ele>1098.0</ele><time>2026-04-18T09:53:11.475Z</time></trkpt><trkpt lat="42.7864077" lon="13.1426338"><ele>1098.0</ele><time>2026-04-18T09:53:12.417Z</time></trkpt><trkpt lat="42.7864226" lon="13.1424119"><ele>1098.0</ele><time>2026-04-18T09:53:13.438Z</time></trkpt><trkpt lat="42.7864455" lon="13.1422016"><ele>1098.0</ele><time>2026-04-18T09:53:14.438Z</time></trkpt><trkpt lat="42.786477" lon="13.1419985"><ele>1094.0</ele><time>2026-04-18T09:53:15.437Z</time></trkpt><trkpt lat="42.7865151" lon="13.1417984"><ele>1090.0</ele><time>2026-04-18T09:53:16.442Z</time></trkpt><trkpt lat="42.7865614" lon="13.141595"><ele>1086.0</ele><time>2026-04-18T09:53:17.448Z</time></trkpt><trkpt lat="42.7866236" lon="13.1413998"><ele>1078.5</ele><time>2026-04-18T09:53:18.435Z</time></trkpt><trkpt lat="42.7867048" lon="13.1411743"><ele>1071.0</ele><time>2026-04-18T09:53:19.566Z</time></trkpt><trkpt lat="42.786868" lon="13.1408062"><ele>1077.3333333333333</ele><time>2026-04-18T09:53:21.423Z</time></trkpt><trkpt lat="42.7869607" lon="13.1405982"><ele>1083.6666666666665</ele><time>2026-04-18T09:53:22.43Z</time></trkpt><trkpt lat="42.7870529" lon="13.1403953"><ele>1090.0</ele><time>2026-04-18T09:53:23.414Z</time></trkpt><trkpt lat="42.7871516" lon="13.140176"><ele>1090.0</ele><time>2026-04-18T09:53:24.463Z</time></trkpt><trkpt lat="42.7872471" lon="13.1399732"><ele>1090.0</ele><time>2026-04-18T09:53:25.449Z</time></trkpt><trkpt lat="42.7873479" lon="13.1397704"><ele>1090.0</ele><time>2026-04-18T09:53:26.474Z</time></trkpt><trkpt lat="42.7874518" lon="13.1395804"><ele>1090.6666666666665</ele><time>2026-04-18T09:53:27.468Z</time></trkpt><trkpt lat="42.7875621" lon="13.1394077"><ele>1091.3333333333333</ele><time>2026-04-18T09:53:28.452Z</time></trkpt><trkpt lat="42.7876791" lon="13.1392422"><ele>1092.0</ele><time>2026-04-18T09:53:29.449Z</time></trkpt><trkpt lat="42.7877997" lon="13.1390882"><ele>1071.0</ele><time>2026-04-18T09:53:30.435Z</time></trkpt><trkpt lat="42.7879378" lon="13.1389227"><ele>1050.0</ele><time>2026-04-18T09:53:31.545Z</time></trkpt><trkpt lat="42.7881944" lon="13.1386607"><ele>1050.0</ele><time>2026-04-18T09:53:33.448Z</time></trkpt><trkpt lat="42.7883388" lon="13.1385364"><ele>1050.0</ele><time>2026-04-18T09:53:34.436Z</time></trkpt><trkpt lat="42.788482" lon="13.1384251"><ele>1050.0</ele><time>2026-04-18T09:53:35.426Z</time></trkpt><trkpt lat="42.7886229" lon="13.1383183"><ele>1043.6666666666667</ele><time>2026-04-18T09:53:36.42Z</time></trkpt><trkpt lat="42.7887615" lon="13.1382142"><ele>1037.3333333333335</ele><time>2026-04-18T09:53:37.445Z</time></trkpt><trkpt lat="42.7888939" lon="13.1381153"><ele>1031.0</ele><time>2026-04-18T09:53:38.434Z</time></trkpt><trkpt lat="42.7890188" lon="13.1380264"><ele>1031.0</ele><time>2026-04-18T09:53:39.425Z</time></trkpt><trkpt lat="42.7891463" lon="13.1379455"><ele>1031.0</ele><time>2026-04-18T09:53:40.436Z</time></trkpt><trkpt lat="42.7892929" lon="13.1378791"><ele>1031.0</ele><time>2026-04-18T09:53:41.559Z</time></trkpt><trkpt lat="42.7895723" lon="13.1378669"><ele>1031.0</ele><time>2026-04-18T09:53:43.579Z</time></trkpt><trkpt lat="42.7898899" lon="13.1379439"><ele>1031.0</ele><time>2026-04-18T09:53:45.439Z</time></trkpt><trkpt lat="42.7900338" lon="13.1379678"><ele>1035.3333333333335</ele><time>2026-04-18T09:53:46.404Z</time></trkpt><trkpt lat="42.7902118" lon="13.1379452"><ele>1039.6666666666667</ele><time>2026-04-18T09:53:47.405Z</time></trkpt><trkpt lat="42.7903574" lon="13.1378924"><ele>1044.0</ele><time>2026-04-18T09:53:48.442Z</time></trkpt><trkpt lat="42.7904961" lon="13.1378829"><ele>1044.0</ele><time>2026-04-18T09:53:49.421Z</time></trkpt><trkpt lat="42.7906299" lon="13.1378927"><ele>1044.0</ele><time>2026-04-18T09:53:50.457Z</time></trkpt><trkpt lat="42.790747" lon="13.1378559"><ele>1044.0</ele><time>2026-04-18T09:53:51.428Z</time></trkpt><trkpt lat="42.7908574" lon="13.1377602"><ele>1044.0</ele><time>2026-04-18T09:53:52.439Z</time></trkpt><trkpt lat="42.790944" lon="13.1376116"><ele>1045.0</ele><time>2026-04-18T09:53:53.421Z</time></trkpt><trkpt lat="42.7910684" lon="13.1374096"><ele>1046.0</ele><time>2026-04-18T09:53:54.548Z</time></trkpt><trkpt lat="42.7912646" lon="13.1370698"><ele>1046.0</ele><time>2026-04-18T09:53:56.492Z</time></trkpt><trkpt lat="42.7913574" lon="13.1369123"><ele>1046.0</ele><time>2026-04-18T09:53:57.409Z</time></trkpt><trkpt lat="42.7914535" lon="13.1367404"><ele>1046.0</ele><time>2026-04-18T09:53:58.4Z</time></trkpt><trkpt lat="42.7915444" lon="13.1365542"><ele>1043.0</ele><time>2026-04-18T09:53:59.435Z</time></trkpt><trkpt lat="42.7916444" lon="13.1364024"><ele>1040.0</ele><time>2026-04-18T09:54:00.42Z</time></trkpt><trkpt lat="42.791762" lon="13.1362678"><ele>1037.0</ele><time>2026-04-18T09:54:01.417Z</time></trkpt><trkpt lat="42.7919015" lon="13.1361578"><ele>1037.0</ele><time>2026-04-18T09:54:02.42Z</time></trkpt><trkpt lat="42.7920624" lon="13.1360651"><ele>1037.0</ele><time>2026-04-18T09:54:03.42Z</time></trkpt><trkpt lat="42.7922279" lon="13.1359833"><ele>1037.0</ele><time>2026-04-18T09:54:04.416Z</time></trkpt><trkpt lat="42.7923953" lon="13.1358909"><ele>1037.0</ele><time>2026-04-18T09:54:05.45Z</time></trkpt><trkpt lat="42.7925493" lon="13.1357676"><ele>1037.0</ele><time>2026-04-18T09:54:06.432Z</time></trkpt><trkpt lat="42.7926853" lon="13.1355846"><ele>1037.0</ele><time>2026-04-18T09:54:07.424Z</time></trkpt><trkpt lat="42.7928236" lon="13.1353504"><ele>1036.6666666666667</ele><time>2026-04-18T09:54:08.432Z</time></trkpt><trkpt lat="42.7929677" lon="13.1351664"><ele>1036.3333333333333</ele><time>2026-04-18T09:54:09.426Z</time></trkpt><trkpt lat="42.7931308" lon="13.1349989"><ele>1036.0</ele><time>2026-04-18T09:54:10.45Z</time></trkpt><trkpt lat="42.7932854" lon="13.1348546"><ele>1033.0</ele><time>2026-04-18T09:54:11.417Z</time></trkpt><trkpt lat="42.7934446" lon="13.1347126"><ele>1030.0</ele><time>2026-04-18T09:54:12.437Z</time></trkpt><trkpt lat="42.7936002" lon="13.1345754"><ele>1027.0</ele><time>2026-04-18T09:54:13.448Z</time></trkpt><trkpt lat="42.7937401" lon="13.134429"><ele>1027.0</ele><time>2026-04-18T09:54:14.421Z</time></trkpt><trkpt lat="42.7938696" lon="13.1342642"><ele>1027.0</ele><time>2026-04-18T09:54:15.444Z</time></trkpt><trkpt lat="42.7939901" lon="13.1341117"><ele>1027.0</ele><time>2026-04-18T09:54:16.421Z</time></trkpt><trkpt lat="42.7941214" lon="13.1339642"><ele>1022.6666666666666</ele><time>2026-04-18T09:54:17.447Z</time></trkpt><trkpt lat="42.7942578" lon="13.1338519"><ele>1018.3333333333333</ele><time>2026-04-18T09:54:18.416Z</time></trkpt><trkpt lat="42.7944041" lon="13.1337566"><ele>1014.0</ele><time>2026-04-18T09:54:19.424Z</time></trkpt><trkpt lat="42.7945464" lon="13.1336579"><ele>1014.0</ele><time>2026-04-18T09:54:20.431Z</time></trkpt><trkpt lat="42.7946759" lon="13.1335551"><ele>1014.0</ele><time>2026-04-18T09:54:21.425Z</time></trkpt><trkpt lat="42.7948063" lon="13.1334517"><ele>1014.0</ele><time>2026-04-18T09:54:22.433Z</time></trkpt><trkpt lat="42.7949441" lon="13.1333325"><ele>1014.0</ele><time>2026-04-18T09:54:23.532Z</time></trkpt><trkpt lat="42.795056" lon="13.1332412"><ele>1014.0</ele><time>2026-04-18T09:54:24.441Z</time></trkpt><trkpt lat="42.7951886" lon="13.1331407"><ele>1014.0</ele><time>2026-04-18T09:54:25.566Z</time></trkpt><trkpt lat="42.7953803" lon="13.133001"><ele>1012.2</ele><time>2026-04-18T09:54:27.4Z</time></trkpt><trkpt lat="42.7954766" lon="13.1329535"><ele>1010.4000000000001</ele><time>2026-04-18T09:54:28.408Z</time></trkpt><trkpt lat="42.7955655" lon="13.1329296"><ele>1008.6</ele><time>2026-04-18T09:54:29.423Z</time></trkpt><trkpt lat="42.7956413" lon="13.1329016"><ele>1006.8</ele><time>2026-04-18T09:54:30.417Z</time></trkpt><trkpt lat="42.7956992" lon="13.1328243"><ele>1005.0</ele><time>2026-04-18T09:54:31.553Z</time></trkpt><trkpt lat="42.7956951" lon="13.1326374"><ele>1005.0</ele><time>2026-04-18T09:54:33.448Z</time></trkpt><trkpt lat="42.7956423" lon="13.132567"><ele>1005.0</ele><time>2026-04-18T09:54:34.451Z</time></trkpt><trkpt lat="42.7955745" lon="13.1325506"><ele>1005.0</ele><time>2026-04-18T09:54:35.44Z</time></trkpt><trkpt lat="42.7954972" lon="13.1325743"><ele>1005.0</ele><time>2026-04-18T09:54:36.461Z</time></trkpt><trkpt lat="42.7954172" lon="13.1326234"><ele>1005.0</ele><time>2026-04-18T09:54:37.435Z</time></trkpt><trkpt lat="42.7953312" lon="13.132694"><ele>1005.0</ele><time>2026-04-18T09:54:38.432Z</time></trkpt><trkpt lat="42.7952369" lon="13.1327769"><ele>999.75</ele><time>2026-04-18T09:54:39.453Z</time></trkpt><trkpt lat="42.7951321" lon="13.132865"><ele>994.5</ele><time>2026-04-18T09:54:40.472Z</time></trkpt><trkpt lat="42.7950192" lon="13.1329535"><ele>989.25</ele><time>2026-04-18T09:54:41.425Z</time></trkpt><trkpt lat="42.7948894" lon="13.1330473"><ele>984.0</ele><time>2026-04-18T09:54:42.47Z</time></trkpt><trkpt lat="42.7947674" lon="13.133124"><ele>984.0</ele><time>2026-04-18T09:54:43.437Z</time></trkpt><trkpt lat="42.7946303" lon="13.1331969"><ele>984.0</ele><time>2026-04-18T09:54:44.479Z</time></trkpt><trkpt lat="42.7944704" lon="13.1332779"><ele>984.0</ele><time>2026-04-18T09:54:45.578Z</time></trkpt><trkpt lat="42.7941786" lon="13.1334308"><ele>987.3333333333333</ele><time>2026-04-18T09:54:47.445Z</time></trkpt><trkpt lat="42.7940101" lon="13.1335316"><ele>990.6666666666666</ele><time>2026-04-18T09:54:48.476Z</time></trkpt><trkpt lat="42.7938558" lon="13.1336403"><ele>994.0</ele><time>2026-04-18T09:54:49.446Z</time></trkpt><trkpt lat="42.7937056" lon="13.1337644"><ele>994.0</ele><time>2026-04-18T09:54:50.499Z</time></trkpt><trkpt lat="42.7935775" lon="13.1338749"><ele>994.0</ele><time>2026-04-18T09:54:51.45Z</time></trkpt><trkpt lat="42.793439" lon="13.1339822"><ele>994.0</ele><time>2026-04-18T09:54:52.447Z</time></trkpt><trkpt lat="42.7932982" lon="13.1340745"><ele>995.3333333333333</ele><time>2026-04-18T09:54:53.443Z</time></trkpt><trkpt lat="42.7931551" lon="13.1341607"><ele>996.6666666666667</ele><time>2026-04-18T09:54:54.434Z</time></trkpt><trkpt lat="42.7930075" lon="13.1342504"><ele>998.0</ele><time>2026-04-18T09:54:55.434Z</time></trkpt><trkpt lat="42.7928621" lon="13.134341"><ele>998.0</ele><time>2026-04-18T09:54:56.452Z</time></trkpt><trkpt lat="42.7927114" lon="13.1344441"><ele>998.0</ele><time>2026-04-18T09:54:57.574Z</time></trkpt><trkpt lat="42.7924607" lon="13.1346196"><ele>998.6666666666667</ele><time>2026-04-18T09:54:59.548Z</time></trkpt><trkpt lat="42.7922704" lon="13.1348471"><ele>999.3333333333333</ele><time>2026-04-18T09:55:01.467Z</time></trkpt><trkpt lat="42.7921853" lon="13.1349606"><ele>1000.0</ele><time>2026-04-18T09:55:02.432Z</time></trkpt><trkpt lat="42.7920779" lon="13.1350519"><ele>1000.0</ele><time>2026-04-18T09:55:03.502Z</time></trkpt><trkpt lat="42.7919587" lon="13.1350828"><ele>1000.0</ele><time>2026-04-18T09:55:04.459Z</time></trkpt><trkpt lat="42.7918221" lon="13.1351014"><ele>1000.0</ele><time>2026-04-18T09:55:05.433Z</time></trkpt><trkpt lat="42.7916832" lon="13.1351262"><ele>1000.0</ele><time>2026-04-18T09:55:06.426Z</time></trkpt><trkpt lat="42.791549" lon="13.1351601"><ele>993.75</ele><time>2026-04-18T09:55:07.431Z</time></trkpt><trkpt lat="42.7914101" lon="13.1352042"><ele>987.5</ele><time>2026-04-18T09:55:08.498Z</time></trkpt><trkpt lat="42.7912892" lon="13.1352537"><ele>981.25</ele><time>2026-04-18T09:55:09.456Z</time></trkpt><trkpt lat="42.7911735" lon="13.1353128"><ele>975.0</ele><time>2026-04-18T09:55:10.438Z</time></trkpt><trkpt lat="42.7910656" lon="13.1353923"><ele>975.75</ele><time>2026-04-18T09:55:11.434Z</time></trkpt><trkpt lat="42.7909687" lon="13.1354889"><ele>976.5</ele><time>2026-04-18T09:55:12.434Z</time></trkpt><trkpt lat="42.7908805" lon="13.135598"><ele>977.25</ele><time>2026-04-18T09:55:13.478Z</time></trkpt><trkpt lat="42.7908098" lon="13.1357024"><ele>978.0</ele><time>2026-04-18T09:55:14.436Z</time></trkpt><trkpt lat="42.7907291" lon="13.1358168"><ele>978.0</ele><time>2026-04-18T09:55:15.496Z</time></trkpt><trkpt lat="42.7906657" lon="13.1359129"><ele>978.0</ele><time>2026-04-18T09:55:16.43Z</time></trkpt><trkpt lat="42.7906002" lon="13.1360131"><ele>978.0</ele><time>2026-04-18T09:55:17.449Z</time></trkpt><trkpt lat="42.7905383" lon="13.136106"><ele>978.0</ele><time>2026-04-18T09:55:18.421Z</time></trkpt><trkpt lat="42.7904678" lon="13.1362056"><ele>978.0</ele><time>2026-04-18T09:55:19.444Z</time></trkpt><trkpt lat="42.7903809" lon="13.1362792"><ele>978.0</ele><time>2026-04-18T09:55:20.443Z</time></trkpt><trkpt lat="42.7902788" lon="13.1363132"><ele>978.0</ele><time>2026-04-18T09:55:21.439Z</time></trkpt><trkpt lat="42.7901615" lon="13.1363163"><ele>978.0</ele><time>2026-04-18T09:55:22.551Z</time></trkpt><trkpt lat="42.789974" lon="13.1362701"><ele>978.0</ele><time>2026-04-18T09:55:24.445Z</time></trkpt><trkpt lat="42.7898768" lon="13.1362368"><ele>973.4</ele><time>2026-04-18T09:55:25.434Z</time></trkpt><trkpt lat="42.7897797" lon="13.1362066"><ele>968.8</ele><time>2026-04-18T09:55:26.414Z</time></trkpt><trkpt lat="42.7896784" lon="13.1361808"><ele>964.2</ele><time>2026-04-18T09:55:27.436Z</time></trkpt><trkpt lat="42.7895807" lon="13.1361604"><ele>959.6</ele><time>2026-04-18T09:55:28.414Z</time></trkpt><trkpt lat="42.7894715" lon="13.1361513"><ele>955.0</ele><time>2026-04-18T09:55:29.448Z</time></trkpt><trkpt lat="42.7893476" lon="13.1361584"><ele>954.0</ele><time>2026-04-18T09:55:30.413Z</time></trkpt><trkpt lat="42.7891904" lon="13.1361861"><ele>953.0</ele><time>2026-04-18T09:55:31.413Z</time></trkpt><trkpt lat="42.7890398" lon="13.1362212"><ele>952.0</ele><time>2026-04-18T09:55:32.42Z</time></trkpt><trkpt lat="42.788906" lon="13.1362587"><ele>951.0</ele><time>2026-04-18T09:55:33.42Z</time></trkpt><trkpt lat="42.7887455" lon="13.1363123"><ele>951.0</ele><time>2026-04-18T09:55:34.482Z</time></trkpt><trkpt lat="42.7885762" lon="13.1363654"><ele>951.0</ele><time>2026-04-18T09:55:35.43Z</time></trkpt><trkpt lat="42.7883695" lon="13.136405"><ele>951.0</ele><time>2026-04-18T09:55:36.449Z</time></trkpt><trkpt lat="42.7881553" lon="13.1364579"><ele>952.3333333333333</ele><time>2026-04-18T09:55:37.426Z</time></trkpt><trkpt lat="42.787946" lon="13.1365286"><ele>953.6666666666666</ele><time>2026-04-18T09:55:38.466Z</time></trkpt><trkpt lat="42.7877669" lon="13.1365973"><ele>955.0</ele><time>2026-04-18T09:55:39.421Z</time></trkpt><trkpt lat="42.7875886" lon="13.1366763"><ele>955.0</ele><time>2026-04-18T09:55:40.427Z</time></trkpt><trkpt lat="42.787417" lon="13.1367687"><ele>955.0</ele><time>2026-04-18T09:55:41.445Z</time></trkpt><trkpt lat="42.7872586" lon="13.136861"><ele>955.0</ele><time>2026-04-18T09:55:42.445Z</time></trkpt><trkpt lat="42.7870958" lon="13.136959"><ele>955.0</ele><time>2026-04-18T09:55:43.483Z</time></trkpt><trkpt lat="42.7869554" lon="13.1370494"><ele>955.0</ele><time>2026-04-18T09:55:44.42Z</time></trkpt><trkpt lat="42.7868078" lon="13.1371495"><ele>955.0</ele><time>2026-04-18T09:55:45.444Z</time></trkpt><trkpt lat="42.7866694" lon="13.1372517"><ele>957.6666666666666</ele><time>2026-04-18T09:55:46.438Z</time></trkpt><trkpt lat="42.7865378" lon="13.1373533"><ele>960.3333333333333</ele><time>2026-04-18T09:55:47.438Z</time></trkpt><trkpt lat="42.786395" lon="13.1374724"><ele>963.0</ele><time>2026-04-18T09:55:48.477Z</time></trkpt><trkpt lat="42.7862594" lon="13.1375922"><ele>963.0</ele><time>2026-04-18T09:55:49.441Z</time></trkpt><trkpt lat="42.786119" lon="13.1377181"><ele>963.0</ele><time>2026-04-18T09:55:50.436Z</time></trkpt><trkpt lat="42.7859787" lon="13.1378463"><ele>963.0</ele><time>2026-04-18T09:55:51.418Z</time></trkpt><trkpt lat="42.785836" lon="13.1379777"><ele>961.6666666666667</ele><time>2026-04-18T09:55:52.414Z</time></trkpt><trkpt lat="42.7856924" lon="13.1381206"><ele>960.3333333333334</ele><time>2026-04-18T09:55:53.43Z</time></trkpt><trkpt lat="42.7855503" lon="13.1382648"><ele>959.0</ele><time>2026-04-18T09:55:54.444Z</time></trkpt><trkpt lat="42.7854146" lon="13.1384091"><ele>959.0</ele><time>2026-04-18T09:55:55.446Z</time></trkpt><trkpt lat="42.7852745" lon="13.13856"><ele>959.0</ele><time>2026-04-18T09:55:56.512Z</time></trkpt><trkpt lat="42.785158" lon="13.138693"><ele>959.0</ele><time>2026-04-18T09:55:57.44Z</time></trkpt><trkpt lat="42.7850327" lon="13.1388405"><ele>954.5</ele><time>2026-04-18T09:55:58.448Z</time></trkpt><trkpt lat="42.7848863" lon="13.1390209"><ele>950.0</ele><time>2026-04-18T09:55:59.576Z</time></trkpt><trkpt lat="42.7846519" lon="13.1393518"><ele>950.0</ele><time>2026-04-18T09:56:01.428Z</time></trkpt><trkpt lat="42.7845145" lon="13.1395466"><ele>950.0</ele><time>2026-04-18T09:56:02.459Z</time></trkpt><trkpt lat="42.7843949" lon="13.1397303"><ele>950.0</ele><time>2026-04-18T09:56:03.434Z</time></trkpt><trkpt lat="42.7842743" lon="13.1399251"><ele>945.0</ele><time>2026-04-18T09:56:04.489Z</time></trkpt><trkpt lat="42.7841701" lon="13.1401026"><ele>940.0</ele><time>2026-04-18T09:56:05.475Z</time></trkpt><trkpt lat="42.7840837" lon="13.1402801"><ele>935.0</ele><time>2026-04-18T09:56:06.432Z</time></trkpt><trkpt lat="42.7840097" lon="13.1404686"><ele>935.0</ele><time>2026-04-18T09:56:07.442Z</time></trkpt><trkpt lat="42.7839477" lon="13.1406467"><ele>935.0</ele><time>2026-04-18T09:56:08.454Z</time></trkpt><trkpt lat="42.7838797" lon="13.1407984"><ele>935.0</ele><time>2026-04-18T09:56:09.446Z</time></trkpt><trkpt lat="42.7837878" lon="13.1409202"><ele>935.0</ele><time>2026-04-18T09:56:10.442Z</time></trkpt><trkpt lat="42.7836675" lon="13.1410015"><ele>930.3333333333334</ele><time>2026-04-18T09:56:11.424Z</time></trkpt><trkpt lat="42.783524" lon="13.1410606"><ele>925.6666666666667</ele><time>2026-04-18T09:56:12.419Z</time></trkpt><trkpt lat="42.7833625" lon="13.1411536"><ele>921.0</ele><time>2026-04-18T09:56:13.461Z</time></trkpt><trkpt lat="42.7831819" lon="13.1412917"><ele>921.0</ele><time>2026-04-18T09:56:14.526Z</time></trkpt><trkpt lat="42.7830405" lon="13.1414177"><ele>921.0</ele><time>2026-04-18T09:56:15.44Z</time></trkpt><trkpt lat="42.7828796" lon="13.1415605"><ele>921.0</ele><time>2026-04-18T09:56:16.508Z</time></trkpt><trkpt lat="42.7827402" lon="13.1416841"><ele>920.3333333333333</ele><time>2026-04-18T09:56:17.448Z</time></trkpt><trkpt lat="42.7825943" lon="13.1418262"><ele>919.6666666666666</ele><time>2026-04-18T09:56:18.48Z</time></trkpt><trkpt lat="42.7824662" lon="13.1419584"><ele>919.0</ele><time>2026-04-18T09:56:19.434Z</time></trkpt><trkpt lat="42.782334" lon="13.1420994"><ele>919.0</ele><time>2026-04-18T09:56:20.457Z</time></trkpt><trkpt lat="42.7822149" lon="13.1422244"><ele>919.0</ele><time>2026-04-18T09:56:21.456Z</time></trkpt><trkpt lat="42.7820934" lon="13.1423149"><ele>919.0</ele><time>2026-04-18T09:56:22.433Z</time></trkpt><trkpt lat="42.7819735" lon="13.1423605"><ele>919.0</ele><time>2026-04-18T09:56:23.452Z</time></trkpt><trkpt lat="42.781822" lon="13.1423695"><ele>921.6666666666666</ele><time>2026-04-18T09:56:24.451Z</time></trkpt><trkpt lat="42.7816415" lon="13.1423474"><ele>924.3333333333333</ele><time>2026-04-18T09:56:25.445Z</time></trkpt><trkpt lat="42.7814538" lon="13.1423559"><ele>927.0</ele><time>2026-04-18T09:56:26.46Z</time></trkpt><trkpt lat="42.7812691" lon="13.142382"><ele>927.0</ele><time>2026-04-18T09:56:27.432Z</time></trkpt><trkpt lat="42.7810792" lon="13.1424379"><ele>927.0</ele><time>2026-04-18T09:56:28.447Z</time></trkpt><trkpt lat="42.7809001" lon="13.1424952"><ele>927.0</ele><time>2026-04-18T09:56:29.441Z</time></trkpt><trkpt lat="42.7807216" lon="13.142552"><ele>922.3333333333333</ele><time>2026-04-18T09:56:30.447Z</time></trkpt><trkpt lat="42.7805486" lon="13.142603"><ele>917.6666666666666</ele><time>2026-04-18T09:56:31.444Z</time></trkpt><trkpt lat="42.780378" lon="13.1426417"><ele>913.0</ele><time>2026-04-18T09:56:32.431Z</time></trkpt><trkpt lat="42.780169" lon="13.1426702"><ele>909.0</ele><time>2026-04-18T09:56:33.652Z</time></trkpt><trkpt lat="42.7798539" lon="13.1426625"><ele>905.0</ele><time>2026-04-18T09:56:35.459Z</time></trkpt><trkpt lat="42.7796822" lon="13.1426385"><ele>905.0</ele><time>2026-04-18T09:56:36.424Z</time></trkpt><trkpt lat="42.7794934" lon="13.1426092"><ele>905.0</ele><time>2026-04-18T09:56:37.55Z</time></trkpt><trkpt lat="42.7793415" lon="13.1425969"><ele>905.0</ele><time>2026-04-18T09:56:38.491Z</time></trkpt><trkpt lat="42.779181" lon="13.1426071"><ele>903.0</ele><time>2026-04-18T09:56:39.445Z</time></trkpt><trkpt lat="42.7790112" lon="13.1426438"><ele>901.0</ele><time>2026-04-18T09:56:40.443Z</time></trkpt><trkpt lat="42.7788439" lon="13.1427046"><ele>899.0</ele><time>2026-04-18T09:56:41.438Z</time></trkpt><trkpt lat="42.7786423" lon="13.14281"><ele>889.5</ele><time>2026-04-18T09:56:42.667Z</time></trkpt><trkpt lat="42.778345" lon="13.1430386"><ele>880.0</ele><time>2026-04-18T09:56:44.503Z</time></trkpt><trkpt lat="42.7781932" lon="13.1431613"><ele>888.0</ele><time>2026-04-18T09:56:45.462Z</time></trkpt><trkpt lat="42.778043" lon="13.1432872"><ele>896.0</ele><time>2026-04-18T09:56:46.458Z</time></trkpt><trkpt lat="42.7778887" lon="13.1434137"><ele>904.0</ele><time>2026-04-18T09:56:47.453Z</time></trkpt><trkpt lat="42.7777275" lon="13.1435436"><ele>896.0</ele><time>2026-04-18T09:56:48.494Z</time></trkpt><trkpt lat="42.7775803" lon="13.143669"><ele>888.0</ele><time>2026-04-18T09:56:49.457Z</time></trkpt><trkpt lat="42.7774242" lon="13.1437881"><ele>880.0</ele><time>2026-04-18T09:56:50.445Z</time></trkpt><trkpt lat="42.7772691" lon="13.1438901"><ele>880.0</ele><time>2026-04-18T09:56:51.438Z</time></trkpt><trkpt lat="42.7771012" lon="13.1439836"><ele>880.0</ele><time>2026-04-18T09:56:52.516Z</time></trkpt><trkpt lat="42.7769608" lon="13.1440664"><ele>880.0</ele><time>2026-04-18T09:56:53.471Z</time></trkpt><trkpt lat="42.7768222" lon="13.1441499"><ele>882.0</ele><time>2026-04-18T09:56:54.457Z</time></trkpt><trkpt lat="42.7766977" lon="13.1442166"><ele>884.0</ele><time>2026-04-18T09:56:55.448Z</time></trkpt><trkpt lat="42.7765708" lon="13.1442381"><ele>886.0</ele><time>2026-04-18T09:56:56.44Z</time></trkpt><trkpt lat="42.7764225" lon="13.1442095"><ele>888.0</ele><time>2026-04-18T09:56:57.543Z</time></trkpt><trkpt lat="42.7762911" lon="13.144174"><ele>888.0</ele><time>2026-04-18T09:56:58.449Z</time></trkpt><trkpt lat="42.7761424" lon="13.1441248"><ele>888.0</ele><time>2026-04-18T09:56:59.462Z</time></trkpt><trkpt lat="42.7760027" lon="13.1440831"><ele>888.0</ele><time>2026-04-18T09:57:00.443Z</time></trkpt><trkpt lat="42.7758636" lon="13.1440388"><ele>888.0</ele><time>2026-04-18T09:57:01.443Z</time></trkpt><trkpt lat="42.7757247" lon="13.1439962"><ele>882.5</ele><time>2026-04-18T09:57:02.447Z</time></trkpt><trkpt lat="42.7755905" lon="13.1439599"><ele>877.0</ele><time>2026-04-18T09:57:03.42Z</time></trkpt><trkpt lat="42.7754537" lon="13.1439464"><ele>871.5</ele><time>2026-04-18T09:57:04.426Z</time></trkpt><trkpt lat="42.7753172" lon="13.1439676"><ele>866.0</ele><time>2026-04-18T09:57:05.452Z</time></trkpt><trkpt lat="42.7751962" lon="13.1440236"><ele>869.0</ele><time>2026-04-18T09:57:06.422Z</time></trkpt><trkpt lat="42.7750685" lon="13.1440994"><ele>872.0</ele><time>2026-04-18T09:57:07.472Z</time></trkpt><trkpt lat="42.7749466" lon="13.144171"><ele>875.0</ele><time>2026-04-18T09:57:08.43Z</time></trkpt><trkpt lat="42.7747963" lon="13.1442548"><ele>878.0</ele><time>2026-04-18T09:57:09.535Z</time></trkpt><trkpt lat="42.7746708" lon="13.1443235"><ele>878.0</ele><time>2026-04-18T09:57:10.434Z</time></trkpt><trkpt lat="42.7745291" lon="13.1443897"><ele>878.0</ele><time>2026-04-18T09:57:11.45Z</time></trkpt><trkpt lat="42.7743854" lon="13.144441"><ele>878.0</ele><time>2026-04-18T09:57:12.478Z</time></trkpt><trkpt lat="42.7742445" lon="13.1444797"><ele>878.0</ele><time>2026-04-18T09:57:13.455Z</time></trkpt><trkpt lat="42.7740942" lon="13.144507"><ele>875.5</ele><time>2026-04-18T09:57:14.515Z</time></trkpt><trkpt lat="42.7739619" lon="13.1445163"><ele>873.0</ele><time>2026-04-18T09:57:15.438Z</time></trkpt><trkpt lat="42.773823" lon="13.1444923"><ele>870.5</ele><time>2026-04-18T09:57:16.443Z</time></trkpt><trkpt lat="42.773684" lon="13.1444508"><ele>868.0</ele><time>2026-04-18T09:57:17.438Z</time></trkpt><trkpt lat="42.7735342" lon="13.1444013"><ele>866.6666666666666</ele><time>2026-04-18T09:57:18.469Z</time></trkpt><trkpt lat="42.7733842" lon="13.1443613"><ele>865.3333333333333</ele><time>2026-04-18T09:57:19.478Z</time></trkpt><trkpt lat="42.7732386" lon="13.1443349"><ele>864.0</ele><time>2026-04-18T09:57:20.426Z</time></trkpt><trkpt lat="42.7730735" lon="13.1443128"><ele>864.0</ele><time>2026-04-18T09:57:21.489Z</time></trkpt><trkpt lat="42.7729282" lon="13.1442953"><ele>864.0</ele><time>2026-04-18T09:57:22.45Z</time></trkpt><trkpt lat="42.7727805" lon="13.1442805"><ele>864.0</ele><time>2026-04-18T09:57:23.479Z</time></trkpt><trkpt lat="42.7726287" lon="13.1442633"><ele>864.0</ele><time>2026-04-18T09:57:24.572Z</time></trkpt><trkpt lat="42.7725052" lon="13.14425"><ele>864.0</ele><time>2026-04-18T09:57:25.474Z</time></trkpt><trkpt lat="42.7723732" lon="13.1442414"><ele>864.0</ele><time>2026-04-18T09:57:26.48Z</time></trkpt><trkpt lat="42.7722498" lon="13.1442347"><ele>864.0</ele><time>2026-04-18T09:57:27.458Z</time></trkpt><trkpt lat="42.772124" lon="13.1442258"><ele>864.0</ele><time>2026-04-18T09:57:28.468Z</time></trkpt><trkpt lat="42.772007" lon="13.1442151"><ele>864.0</ele><time>2026-04-18T09:57:29.454Z</time></trkpt><trkpt lat="42.7718883" lon="13.144197"><ele>864.0</ele><time>2026-04-18T09:57:30.469Z</time></trkpt><trkpt lat="42.771778" lon="13.1441519"><ele>864.0</ele><time>2026-04-18T09:57:31.443Z</time></trkpt><trkpt lat="42.7716804" lon="13.1440798"><ele>864.0</ele><time>2026-04-18T09:57:32.444Z</time></trkpt><trkpt lat="42.7715908" lon="13.1439867"><ele>859.0</ele><time>2026-04-18T09:57:33.447Z</time></trkpt><trkpt lat="42.771514" lon="13.1438837"><ele>854.0</ele><time>2026-04-18T09:57:34.435Z</time></trkpt><trkpt lat="42.7714402" lon="13.1437498"><ele>849.0</ele><time>2026-04-18T09:57:35.522Z</time></trkpt><trkpt lat="42.7713867" lon="13.1436171"><ele>844.0</ele><time>2026-04-18T09:57:36.459Z</time></trkpt><trkpt lat="42.7713383" lon="13.14347"><ele>844.0</ele><time>2026-04-18T09:57:37.454Z</time></trkpt><trkpt lat="42.7712987" lon="13.1433199"><ele>844.0</ele><time>2026-04-18T09:57:38.454Z</time></trkpt><trkpt lat="42.7712638" lon="13.1431689"><ele>844.0</ele><time>2026-04-18T09:57:39.442Z</time></trkpt><trkpt lat="42.7712399" lon="13.1430085"><ele>844.0</ele><time>2026-04-18T09:57:40.493Z</time></trkpt><trkpt lat="42.7712314" lon="13.1428608"><ele>842.75</ele><time>2026-04-18T09:57:41.463Z</time></trkpt><trkpt lat="42.7712329" lon="13.1426951"><ele>841.5</ele><time>2026-04-18T09:57:42.498Z</time></trkpt><trkpt lat="42.7712409" lon="13.1425143"><ele>840.25</ele><time>2026-04-18T09:57:43.457Z</time></trkpt><trkpt lat="42.7712652" lon="13.1422641"><ele>839.0</ele><time>2026-04-18T09:57:44.453Z</time></trkpt><trkpt lat="42.7712809" lon="13.1419687"><ele>835.0</ele><time>2026-04-18T09:57:45.442Z</time></trkpt><trkpt lat="42.7712702" lon="13.1416486"><ele>831.0</ele><time>2026-04-18T09:57:46.439Z</time></trkpt><trkpt lat="42.7712252" lon="13.1413262"><ele>833.5</ele><time>2026-04-18T09:57:47.461Z</time></trkpt><trkpt lat="42.7711451" lon="13.1410152"><ele>836.0</ele><time>2026-04-18T09:57:48.448Z</time></trkpt><trkpt lat="42.7710205" lon="13.1406771"><ele>836.0</ele><time>2026-04-18T09:57:49.531Z</time></trkpt><trkpt lat="42.770866" lon="13.1403581"><ele>836.0</ele><time>2026-04-18T09:57:50.541Z</time></trkpt><trkpt lat="42.7707015" lon="13.1400679"><ele>825.0</ele><time>2026-04-18T09:57:51.455Z</time></trkpt><trkpt lat="42.7705394" lon="13.1397767"><ele>814.0</ele><time>2026-04-18T09:57:52.435Z</time></trkpt><trkpt lat="42.7703957" lon="13.139477"><ele>814.0</ele><time>2026-04-18T09:57:53.443Z</time></trkpt><trkpt lat="42.7702751" lon="13.1391996"><ele>814.0</ele><time>2026-04-18T09:57:54.426Z</time></trkpt><trkpt lat="42.7701325" lon="13.138927"><ele>814.6666666666666</ele><time>2026-04-18T09:57:55.487Z</time></trkpt><trkpt lat="42.7699783" lon="13.1387033"><ele>815.3333333333333</ele><time>2026-04-18T09:57:56.474Z</time></trkpt><trkpt lat="42.7698186" lon="13.1385182"><ele>816.0</ele><time>2026-04-18T09:57:57.453Z</time></trkpt><trkpt lat="42.7696471" lon="13.1383588"><ele>816.0</ele><time>2026-04-18T09:57:58.431Z</time></trkpt><trkpt lat="42.769464" lon="13.1382423"><ele>816.0</ele><time>2026-04-18T09:57:59.418Z</time></trkpt><trkpt lat="42.7692677" lon="13.1381644"><ele>816.0</ele><time>2026-04-18T09:58:00.434Z</time></trkpt><trkpt lat="42.7690845" lon="13.1381023"><ele>814.0</ele><time>2026-04-18T09:58:01.422Z</time></trkpt><trkpt lat="42.7689083" lon="13.1380181"><ele>812.0</ele><time>2026-04-18T09:58:02.433Z</time></trkpt><trkpt lat="42.7687276" lon="13.1378875"><ele>810.0</ele><time>2026-04-18T09:58:03.501Z</time></trkpt><trkpt lat="42.7685785" lon="13.1377598"><ele>813.6666666666667</ele><time>2026-04-18T09:58:04.435Z</time></trkpt><trkpt lat="42.7684063" lon="13.1376186"><ele>817.3333333333334</ele><time>2026-04-18T09:58:05.567Z</time></trkpt><trkpt lat="42.7682573" lon="13.1375026"><ele>821.0</ele><time>2026-04-18T09:58:06.552Z</time></trkpt><trkpt lat="42.767976" lon="13.1372822"><ele>818.5</ele><time>2026-04-18T09:58:08.514Z</time></trkpt><trkpt lat="42.7678562" lon="13.1371794"><ele>816.0</ele><time>2026-04-18T09:58:09.45Z</time></trkpt><trkpt lat="42.7677261" lon="13.1370642"><ele>813.5</ele><time>2026-04-18T09:58:10.475Z</time></trkpt><trkpt lat="42.7676131" lon="13.1369332"><ele>811.0</ele><time>2026-04-18T09:58:11.469Z</time></trkpt><trkpt lat="42.7675201" lon="13.1367731"><ele>811.0</ele><time>2026-04-18T09:58:12.472Z</time></trkpt><trkpt lat="42.7674561" lon="13.1365992"><ele>811.0</ele><time>2026-04-18T09:58:13.466Z</time></trkpt><trkpt lat="42.7674133" lon="13.1364006"><ele>811.0</ele><time>2026-04-18T09:58:14.454Z</time></trkpt><trkpt lat="42.7673863" lon="13.136196"><ele>811.0</ele><time>2026-04-18T09:58:15.46Z</time></trkpt><trkpt lat="42.7673744" lon="13.1359901"><ele>810.5</ele><time>2026-04-18T09:58:16.452Z</time></trkpt><trkpt lat="42.7673701" lon="13.1357763"><ele>810.0</ele><time>2026-04-18T09:58:17.501Z</time></trkpt><trkpt lat="42.7673407" lon="13.1355969"><ele>809.5</ele><time>2026-04-18T09:58:18.463Z</time></trkpt><trkpt lat="42.7672745" lon="13.135435"><ele>809.0</ele><time>2026-04-18T09:58:19.444Z</time></trkpt><trkpt lat="42.7671646" lon="13.1352984"><ele>811.6666666666667</ele><time>2026-04-18T09:58:20.458Z</time></trkpt><trkpt lat="42.7670264" lon="13.1351733"><ele>814.3333333333333</ele><time>2026-04-18T09:58:21.46Z</time></trkpt><trkpt lat="42.7668771" lon="13.1350327"><ele>817.0</ele><time>2026-04-18T09:58:22.497Z</time></trkpt><trkpt lat="42.7667235" lon="13.134871"><ele>823.0</ele><time>2026-04-18T09:58:23.525Z</time></trkpt><trkpt lat="42.7665545" lon="13.1347182"><ele>829.0</ele><time>2026-04-18T09:58:24.472Z</time></trkpt><trkpt lat="42.7663396" lon="13.1345665"><ele>835.0</ele><time>2026-04-18T09:58:25.473Z</time></trkpt><trkpt lat="42.7661442" lon="13.1344337"><ele>836.6666666666666</ele><time>2026-04-18T09:58:26.465Z</time></trkpt><trkpt lat="42.7659663" lon="13.1342975"><ele>838.3333333333333</ele><time>2026-04-18T09:58:27.463Z</time></trkpt><trkpt lat="42.7658066" lon="13.1341565"><ele>840.0</ele><time>2026-04-18T09:58:28.451Z</time></trkpt><trkpt lat="42.7656571" lon="13.1340093"><ele>840.0</ele><time>2026-04-18T09:58:29.458Z</time></trkpt><trkpt lat="42.7655157" lon="13.1338606"><ele>840.0</ele><time>2026-04-18T09:58:30.459Z</time></trkpt><trkpt lat="42.7653737" lon="13.133713"><ele>840.0</ele><time>2026-04-18T09:58:31.457Z</time></trkpt><trkpt lat="42.7652342" lon="13.1335675"><ele>838.6666666666667</ele><time>2026-04-18T09:58:32.459Z</time></trkpt><trkpt lat="42.7650978" lon="13.1334144"><ele>837.3333333333334</ele><time>2026-04-18T09:58:33.473Z</time></trkpt><trkpt lat="42.7649596" lon="13.1332579"><ele>836.0</ele><time>2026-04-18T09:58:34.505Z</time></trkpt><trkpt lat="42.7648349" lon="13.1331131"><ele>836.0</ele><time>2026-04-18T09:58:35.463Z</time></trkpt><trkpt lat="42.7647053" lon="13.1329534"><ele>836.0</ele><time>2026-04-18T09:58:36.482Z</time></trkpt><trkpt lat="42.7645827" lon="13.1327995"><ele>836.0</ele><time>2026-04-18T09:58:37.474Z</time></trkpt><trkpt lat="42.7644558" lon="13.1326421"><ele>833.3333333333334</ele><time>2026-04-18T09:58:38.517Z</time></trkpt><trkpt lat="42.7643411" lon="13.1324984"><ele>830.6666666666667</ele><time>2026-04-18T09:58:39.482Z</time></trkpt><trkpt lat="42.7642023" lon="13.1323285"><ele>828.0</ele><time>2026-04-18T09:58:40.66Z</time></trkpt><trkpt lat="42.7639806" lon="13.1320462"><ele>828.0</ele><time>2026-04-18T09:58:42.486Z</time></trkpt><trkpt lat="42.7638619" lon="13.1318896"><ele>828.0</ele><time>2026-04-18T09:58:43.469Z</time></trkpt><trkpt lat="42.7637375" lon="13.1317227"><ele>828.0</ele><time>2026-04-18T09:58:44.499Z</time></trkpt><trkpt lat="42.7636092" lon="13.1315533"><ele>823.6666666666667</ele><time>2026-04-18T09:58:45.528Z</time></trkpt><trkpt lat="42.7634877" lon="13.1313905"><ele>819.3333333333334</ele><time>2026-04-18T09:58:46.496Z</time></trkpt><trkpt lat="42.7633458" lon="13.1311975"><ele>815.0</ele><time>2026-04-18T09:58:47.603Z</time></trkpt><trkpt lat="42.7630922" lon="13.1308577"><ele>819.0</ele><time>2026-04-18T09:58:49.476Z</time></trkpt><trkpt lat="42.7629567" lon="13.1306665"><ele>823.0</ele><time>2026-04-18T09:58:50.537Z</time></trkpt><trkpt lat="42.762842" lon="13.1305031"><ele>827.0</ele><time>2026-04-18T09:58:51.471Z</time></trkpt><trkpt lat="42.7627188" lon="13.1303261"><ele>821.0</ele><time>2026-04-18T09:58:52.506Z</time></trkpt><trkpt lat="42.7626047" lon="13.1301602"><ele>815.0</ele><time>2026-04-18T09:58:53.486Z</time></trkpt><trkpt lat="42.7624942" lon="13.1299855"><ele>809.0</ele><time>2026-04-18T09:58:54.465Z</time></trkpt><trkpt lat="42.7623871" lon="13.1297931"><ele>809.0</ele><time>2026-04-18T09:58:55.465Z</time></trkpt><trkpt lat="42.7622856" lon="13.1295889"><ele>809.0</ele><time>2026-04-18T09:58:56.475Z</time></trkpt><trkpt lat="42.7621918" lon="13.1293646"><ele>809.0</ele><time>2026-04-18T09:58:57.549Z</time></trkpt><trkpt lat="42.7621159" lon="13.129162"><ele>810.3333333333334</ele><time>2026-04-18T09:58:58.48Z</time></trkpt><trkpt lat="42.7620409" lon="13.1289345"><ele>811.6666666666667</ele><time>2026-04-18T09:58:59.479Z</time></trkpt><trkpt lat="42.7619704" lon="13.1287083"><ele>813.0</ele><time>2026-04-18T09:59:00.468Z</time></trkpt><trkpt lat="42.7619029" lon="13.1284801"><ele>805.0</ele><time>2026-04-18T09:59:01.482Z</time></trkpt><trkpt lat="42.7618407" lon="13.1282635"><ele>797.0</ele><time>2026-04-18T09:59:02.453Z</time></trkpt><trkpt lat="42.7617921" lon="13.1280296"><ele>789.0</ele><time>2026-04-18T09:59:03.504Z</time></trkpt><trkpt lat="42.7617658" lon="13.1278149"><ele>788.6666666666667</ele><time>2026-04-18T09:59:04.478Z</time></trkpt><trkpt lat="42.7617666" lon="13.1275603"><ele>788.3333333333334</ele><time>2026-04-18T09:59:05.601Z</time></trkpt><trkpt lat="42.7617896" lon="13.1273573"><ele>788.0</ele><time>2026-04-18T09:59:06.52Z</time></trkpt><trkpt lat="42.7618341" lon="13.1271353"><ele>788.0</ele><time>2026-04-18T09:59:07.499Z</time></trkpt><trkpt lat="42.7618983" lon="13.1269222"><ele>788.0</ele><time>2026-04-18T09:59:08.509Z</time></trkpt><trkpt lat="42.7619579" lon="13.1267366"><ele>788.0</ele><time>2026-04-18T09:59:09.47Z</time></trkpt><trkpt lat="42.7620284" lon="13.126549"><ele>788.0</ele><time>2026-04-18T09:59:10.508Z</time></trkpt><trkpt lat="42.7621135" lon="13.1263893"><ele>788.0</ele><time>2026-04-18T09:59:11.446Z</time></trkpt><trkpt lat="42.7622522" lon="13.126242"><ele>788.0</ele><time>2026-04-18T09:59:12.512Z</time></trkpt><trkpt lat="42.7624013" lon="13.1261241"><ele>788.0</ele><time>2026-04-18T09:59:13.477Z</time></trkpt><trkpt lat="42.7625791" lon="13.125994"><ele>788.0</ele><time>2026-04-18T09:59:14.456Z</time></trkpt><trkpt lat="42.762833" lon="13.1258408"><ele>783.5</ele><time>2026-04-18T09:59:15.613Z</time></trkpt><trkpt lat="42.7630789" lon="13.1256956"><ele>779.0</ele><time>2026-04-18T09:59:16.58Z</time></trkpt><trkpt lat="42.7636188" lon="13.1253864"><ele>779.0</ele><time>2026-04-18T09:59:18.488Z</time></trkpt><trkpt lat="42.7638798" lon="13.1252293"><ele>779.0</ele><time>2026-04-18T09:59:19.446Z</time></trkpt><trkpt lat="42.7641332" lon="13.1250537"><ele>772.5</ele><time>2026-04-18T09:59:20.449Z</time></trkpt><trkpt lat="42.7643604" lon="13.1248863"><ele>766.0</ele><time>2026-04-18T09:59:21.446Z</time></trkpt><trkpt lat="42.7645719" lon="13.1247334"><ele>766.0</ele><time>2026-04-18T09:59:22.455Z</time></trkpt><trkpt lat="42.7647707" lon="13.1246115"><ele>766.0</ele><time>2026-04-18T09:59:23.442Z</time></trkpt><trkpt lat="42.7649749" lon="13.1245148"><ele>766.0</ele><time>2026-04-18T09:59:24.448Z</time></trkpt><trkpt lat="42.7651883" lon="13.1244494"><ele>768.0</ele><time>2026-04-18T09:59:25.478Z</time></trkpt><trkpt lat="42.765379" lon="13.1244051"><ele>770.0</ele><time>2026-04-18T09:59:26.472Z</time></trkpt><trkpt lat="42.7655709" lon="13.1243395"><ele>772.0</ele><time>2026-04-18T09:59:27.568Z</time></trkpt><trkpt lat="42.7658702" lon="13.1240552"><ele>768.3333333333333</ele><time>2026-04-18T09:59:29.447Z</time></trkpt><trkpt lat="42.7660385" lon="13.1239032"><ele>764.6666666666666</ele><time>2026-04-18T09:59:30.424Z</time></trkpt><trkpt lat="42.7662303" lon="13.1237787"><ele>761.0</ele><time>2026-04-18T09:59:31.446Z</time></trkpt><trkpt lat="42.7664251" lon="13.1236709"><ele>761.0</ele><time>2026-04-18T09:59:32.448Z</time></trkpt><trkpt lat="42.7666048" lon="13.1235835"><ele>761.0</ele><time>2026-04-18T09:59:33.419Z</time></trkpt><trkpt lat="42.7668031" lon="13.1234863"><ele>761.0</ele><time>2026-04-18T09:59:34.436Z</time></trkpt><trkpt lat="42.7669888" lon="13.1233679"><ele>763.0</ele><time>2026-04-18T09:59:35.452Z</time></trkpt><trkpt lat="42.7671516" lon="13.1232447"><ele>765.0</ele><time>2026-04-18T09:59:36.442Z</time></trkpt><trkpt lat="42.7673077" lon="13.1231117"><ele>767.0</ele><time>2026-04-18T09:59:37.443Z</time></trkpt><trkpt lat="42.7674854" lon="13.1229612"><ele>766.0</ele><time>2026-04-18T09:59:38.633Z</time></trkpt><trkpt lat="42.7677462" lon="13.1227474"><ele>765.0</ele><time>2026-04-18T09:59:40.437Z</time></trkpt><trkpt lat="42.7678828" lon="13.1226216"><ele>765.0</ele><time>2026-04-18T09:59:41.452Z</time></trkpt><trkpt lat="42.7679989" lon="13.1224898"><ele>765.0</ele><time>2026-04-18T09:59:42.449Z</time></trkpt><trkpt lat="42.7681249" lon="13.1222934"><ele>765.0</ele><time>2026-04-18T09:59:43.484Z</time></trkpt><trkpt lat="42.7682275" lon="13.1220557"><ele>763.0</ele><time>2026-04-18T09:59:44.543Z</time></trkpt><trkpt lat="42.7683262" lon="13.1218787"><ele>761.0</ele><time>2026-04-18T09:59:45.466Z</time></trkpt><trkpt lat="42.7684565" lon="13.1217106"><ele>759.0</ele><time>2026-04-18T09:59:46.476Z</time></trkpt><trkpt lat="42.7686013" lon="13.1215705"><ele>752.0</ele><time>2026-04-18T09:59:47.486Z</time></trkpt><trkpt lat="42.7687491" lon="13.1214456"><ele>745.0</ele><time>2026-04-18T09:59:48.451Z</time></trkpt><trkpt lat="42.7689133" lon="13.1213334"><ele>738.0</ele><time>2026-04-18T09:59:49.462Z</time></trkpt><trkpt lat="42.7690811" lon="13.1212413"><ele>738.0</ele><time>2026-04-18T09:59:50.449Z</time></trkpt><trkpt lat="42.7692539" lon="13.1211428"><ele>738.0</ele><time>2026-04-18T09:59:51.441Z</time></trkpt><trkpt lat="42.769431" lon="13.1210298"><ele>738.0</ele><time>2026-04-18T09:59:52.45Z</time></trkpt><trkpt lat="42.769597" lon="13.1208781"><ele>735.0</ele><time>2026-04-18T09:59:53.452Z</time></trkpt><trkpt lat="42.769749" lon="13.1207134"><ele>732.0</ele><time>2026-04-18T09:59:54.444Z</time></trkpt><trkpt lat="42.7698992" lon="13.1205712"><ele>729.0</ele><time>2026-04-18T09:59:55.44Z</time></trkpt><trkpt lat="42.7700503" lon="13.1204326"><ele>729.0</ele><time>2026-04-18T09:59:56.472Z</time></trkpt><trkpt lat="42.7701908" lon="13.1203049"><ele>729.0</ele><time>2026-04-18T09:59:57.458Z</time></trkpt><trkpt lat="42.7703312" lon="13.1201881"><ele>729.0</ele><time>2026-04-18T09:59:58.442Z</time></trkpt><trkpt lat="42.7704692" lon="13.1200791"><ele>725.5</ele><time>2026-04-18T09:59:59.443Z</time></trkpt><trkpt lat="42.7706271" lon="13.1199694"><ele>722.0</ele><time>2026-04-18T10:00:00.552Z</time></trkpt><trkpt lat="42.7709059" lon="13.1198125"><ele>725.6666666666666</ele><time>2026-04-18T10:00:02.545Z</time></trkpt><trkpt lat="42.7711592" lon="13.1197171"><ele>729.3333333333334</ele><time>2026-04-18T10:00:04.448Z</time></trkpt><trkpt lat="42.7712857" lon="13.1196555"><ele>733.0</ele><time>2026-04-18T10:00:05.468Z</time></trkpt><trkpt lat="42.7713944" lon="13.1195657"><ele>733.0</ele><time>2026-04-18T10:00:06.442Z</time></trkpt><trkpt lat="42.7714965" lon="13.1194359"><ele>733.0</ele><time>2026-04-18T10:00:07.481Z</time></trkpt><trkpt lat="42.7715869" lon="13.119284"><ele>733.0</ele><time>2026-04-18T10:00:08.527Z</time></trkpt><trkpt lat="42.7716462" lon="13.1191238"><ele>733.0</ele><time>2026-04-18T10:00:09.47Z</time></trkpt><trkpt lat="42.7716485" lon="13.1189138"><ele>733.0</ele><time>2026-04-18T10:00:10.495Z</time></trkpt><trkpt lat="42.7715908" lon="13.1187056"><ele>733.0</ele><time>2026-04-18T10:00:11.474Z</time></trkpt><trkpt lat="42.7714891" lon="13.1184808"><ele>733.0</ele><time>2026-04-18T10:00:12.49Z</time></trkpt><trkpt lat="42.7714221" lon="13.1182927"><ele>730.6666666666667</ele><time>2026-04-18T10:00:13.46Z</time></trkpt><trkpt lat="42.7714011" lon="13.1180837"><ele>728.3333333333334</ele><time>2026-04-18T10:00:14.517Z</time></trkpt><trkpt lat="42.771413" lon="13.117863"><ele>726.0</ele><time>2026-04-18T10:00:15.562Z</time></trkpt><trkpt lat="42.7715144" lon="13.1174927"><ele>721.3333333333334</ele><time>2026-04-18T10:00:17.479Z</time></trkpt><trkpt lat="42.771611" lon="13.1173346"><ele>716.6666666666667</ele><time>2026-04-18T10:00:18.455Z</time></trkpt><trkpt lat="42.7717257" lon="13.117194"><ele>712.0</ele><time>2026-04-18T10:00:19.452Z</time></trkpt><trkpt lat="42.7718211" lon="13.117034"><ele>716.6666666666667</ele><time>2026-04-18T10:00:20.445Z</time></trkpt><trkpt lat="42.7718894" lon="13.1168397"><ele>721.3333333333334</ele><time>2026-04-18T10:00:21.441Z</time></trkpt><trkpt lat="42.7719398" lon="13.1166087"><ele>726.0</ele><time>2026-04-18T10:00:22.513Z</time></trkpt><trkpt lat="42.7719491" lon="13.1164016"><ele>726.0</ele><time>2026-04-18T10:00:23.445Z</time></trkpt><trkpt lat="42.7719143" lon="13.1161796"><ele>726.0</ele><time>2026-04-18T10:00:24.474Z</time></trkpt><trkpt lat="42.7718389" lon="13.1159858"><ele>726.0</ele><time>2026-04-18T10:00:25.436Z</time></trkpt><trkpt lat="42.7717408" lon="13.1158019"><ele>723.6666666666666</ele><time>2026-04-18T10:00:26.452Z</time></trkpt><trkpt lat="42.7716403" lon="13.1156392"><ele>721.3333333333333</ele><time>2026-04-18T10:00:27.443Z</time></trkpt><trkpt lat="42.7715272" lon="13.1154845"><ele>719.0</ele><time>2026-04-18T10:00:28.48Z</time></trkpt><trkpt lat="42.7714152" lon="13.1153501"><ele>719.0</ele><time>2026-04-18T10:00:29.462Z</time></trkpt><trkpt lat="42.7712977" lon="13.1151888"><ele>719.0</ele><time>2026-04-18T10:00:30.553Z</time></trkpt><trkpt lat="42.771151" lon="13.1148189"><ele>719.6666666666666</ele><time>2026-04-18T10:00:32.459Z</time></trkpt><trkpt lat="42.7711076" lon="13.114589"><ele>720.3333333333334</ele><time>2026-04-18T10:00:33.48Z</time></trkpt><trkpt lat="42.7710755" lon="13.1143731"><ele>721.0</ele><time>2026-04-18T10:00:34.449Z</time></trkpt><trkpt lat="42.7710517" lon="13.1141413"><ele>721.6666666666667</ele><time>2026-04-18T10:00:35.488Z</time></trkpt><trkpt lat="42.7710316" lon="13.1139236"><ele>722.3333333333334</ele><time>2026-04-18T10:00:36.482Z</time></trkpt><trkpt lat="42.7709998" lon="13.1137041"><ele>723.0</ele><time>2026-04-18T10:00:37.554Z</time></trkpt><trkpt lat="42.770963" lon="13.1135304"><ele>721.0</ele><time>2026-04-18T10:00:38.502Z</time></trkpt><trkpt lat="42.7709077" lon="13.1133707"><ele>719.0</ele><time>2026-04-18T10:00:39.463Z</time></trkpt><trkpt lat="42.7708126" lon="13.1132473"><ele>717.0</ele><time>2026-04-18T10:00:40.458Z</time></trkpt><trkpt lat="42.7706873" lon="13.1131734"><ele>715.0</ele><time>2026-04-18T10:00:41.492Z</time></trkpt><trkpt lat="42.7705404" lon="13.1131344"><ele>715.0</ele><time>2026-04-18T10:00:42.468Z</time></trkpt><trkpt lat="42.7703965" lon="13.1130909"><ele>715.0</ele><time>2026-04-18T10:00:43.472Z</time></trkpt><trkpt lat="42.7702713" lon="13.1130181"><ele>715.0</ele><time>2026-04-18T10:00:44.476Z</time></trkpt><trkpt lat="42.770154" lon="13.112899"><ele>715.0</ele><time>2026-04-18T10:00:45.534Z</time></trkpt><trkpt lat="42.7700765" lon="13.1127363"><ele>710.0</ele><time>2026-04-18T10:00:46.474Z</time></trkpt><trkpt lat="42.7700047" lon="13.1125276"><ele>705.0</ele><time>2026-04-18T10:00:47.481Z</time></trkpt><trkpt lat="42.7699253" lon="13.1122959"><ele>700.0</ele><time>2026-04-18T10:00:48.472Z</time></trkpt><trkpt lat="42.7698297" lon="13.1120162"><ele>700.0</ele><time>2026-04-18T10:00:49.481Z</time></trkpt><trkpt lat="42.7697292" lon="13.111713"><ele>700.0</ele><time>2026-04-18T10:00:50.488Z</time></trkpt><trkpt lat="42.7696525" lon="13.111444"><ele>699.6666666666667</ele><time>2026-04-18T10:00:51.442Z</time></trkpt><trkpt lat="42.7695823" lon="13.1111551"><ele>699.3333333333334</ele><time>2026-04-18T10:00:52.475Z</time></trkpt><trkpt lat="42.7695308" lon="13.1108914"><ele>699.0</ele><time>2026-04-18T10:00:53.452Z</time></trkpt><trkpt lat="42.7694866" lon="13.1106321"><ele>699.0</ele><time>2026-04-18T10:00:54.449Z</time></trkpt><trkpt lat="42.769449" lon="13.1103819"><ele>699.0</ele><time>2026-04-18T10:00:55.457Z</time></trkpt><trkpt lat="42.7694093" lon="13.110134"><ele>699.0</ele><time>2026-04-18T10:00:56.478Z</time></trkpt><trkpt lat="42.7693656" lon="13.1098934"><ele>691.3333333333334</ele><time>2026-04-18T10:00:57.507Z</time></trkpt><trkpt lat="42.7693238" lon="13.1096747"><ele>683.6666666666667</ele><time>2026-04-18T10:00:58.466Z</time></trkpt><trkpt lat="42.7692877" lon="13.1094496"><ele>676.0</ele><time>2026-04-18T10:00:59.469Z</time></trkpt><trkpt lat="42.7692573" lon="13.1092196"><ele>675.3333333333334</ele><time>2026-04-18T10:01:00.512Z</time></trkpt><trkpt lat="42.7692433" lon="13.1089956"><ele>674.6666666666666</ele><time>2026-04-18T10:01:01.474Z</time></trkpt><trkpt lat="42.7692355" lon="13.1087575"><ele>674.0</ele><time>2026-04-18T10:01:02.459Z</time></trkpt><trkpt lat="42.7692347" lon="13.1084897"><ele>674.0</ele><time>2026-04-18T10:01:03.529Z</time></trkpt><trkpt lat="42.7692374" lon="13.1082548"><ele>674.0</ele><time>2026-04-18T10:01:04.444Z</time></trkpt><trkpt lat="42.7692379" lon="13.1079869"><ele>674.0</ele><time>2026-04-18T10:01:05.444Z</time></trkpt><trkpt lat="42.7692332" lon="13.1077132"><ele>673.0</ele><time>2026-04-18T10:01:06.447Z</time></trkpt><trkpt lat="42.7692344" lon="13.1074145"><ele>672.0</ele><time>2026-04-18T10:01:07.559Z</time></trkpt><trkpt lat="42.7692451" lon="13.106906"><ele>670.6666666666666</ele><time>2026-04-18T10:01:09.487Z</time></trkpt><trkpt lat="42.7692577" lon="13.1066564"><ele>669.3333333333333</ele><time>2026-04-18T10:01:10.45Z</time></trkpt><trkpt lat="42.769273" lon="13.1064008"><ele>668.0</ele><time>2026-04-18T10:01:11.447Z</time></trkpt><trkpt lat="42.7692903" lon="13.1061453"><ele>666.3333333333333</ele><time>2026-04-18T10:01:12.475Z</time></trkpt><trkpt lat="42.7693073" lon="13.1059075"><ele>664.6666666666666</ele><time>2026-04-18T10:01:13.484Z</time></trkpt><trkpt lat="42.7693221" lon="13.1056915"><ele>663.0</ele><time>2026-04-18T10:01:14.473Z</time></trkpt><trkpt lat="42.7693405" lon="13.1054781"><ele>663.0</ele><time>2026-04-18T10:01:15.482Z</time></trkpt><trkpt lat="42.7693766" lon="13.1052744"><ele>663.0</ele><time>2026-04-18T10:01:16.506Z</time></trkpt><trkpt lat="42.7694369" lon="13.105097"><ele>663.0</ele><time>2026-04-18T10:01:17.461Z</time></trkpt><trkpt lat="42.7695472" lon="13.1048836"><ele>663.0</ele><time>2026-04-18T10:01:18.673Z</time></trkpt><trkpt lat="42.769719" lon="13.1045682"><ele>663.0</ele><time>2026-04-18T10:01:20.51Z</time></trkpt><trkpt lat="42.7697965" lon="13.1044022"><ele>663.0</ele><time>2026-04-18T10:01:21.475Z</time></trkpt><trkpt lat="42.7698762" lon="13.104224"><ele>660.0</ele><time>2026-04-18T10:01:22.493Z</time></trkpt><trkpt lat="42.7699473" lon="13.1040611"><ele>657.0</ele><time>2026-04-18T10:01:23.44Z</time></trkpt><trkpt lat="42.770019" lon="13.1038947"><ele>654.0</ele><time>2026-04-18T10:01:24.471Z</time></trkpt><trkpt lat="42.770086" lon="13.1037491"><ele>651.0</ele><time>2026-04-18T10:01:25.465Z</time></trkpt><trkpt lat="42.7701467" lon="13.1036186"><ele>651.0</ele><time>2026-04-18T10:01:26.447Z</time></trkpt><trkpt lat="42.7702157" lon="13.1034837"><ele>651.0</ele><time>2026-04-18T10:01:27.541Z</time></trkpt><trkpt lat="42.7702683" lon="13.1033819"><ele>651.0</ele><time>2026-04-18T10:01:28.447Z</time></trkpt><trkpt lat="42.770316" lon="13.103288"><ele>651.0</ele><time>2026-04-18T10:01:29.467Z</time></trkpt><trkpt lat="42.7703562" lon="13.1032082"><ele>651.0</ele><time>2026-04-18T10:01:30.475Z</time></trkpt><trkpt lat="42.7704264" lon="13.1030928"><ele>650.1666666666666</ele><time>2026-04-18T10:01:32.564Z</time></trkpt><trkpt lat="42.7704985" lon="13.1030394"><ele>649.3333333333334</ele><time>2026-04-18T10:01:35.486Z</time></trkpt><trkpt lat="42.7705574" lon="13.1030013"><ele>648.5</ele><time>2026-04-18T10:01:41.461Z</time></trkpt><trkpt lat="42.770683" lon="13.1029257"><ele>647.6666666666667</ele><time>2026-04-18T10:01:43.552Z</time></trkpt><trkpt lat="42.7707479" lon="13.1028978"><ele>646.8333333333334</ele><time>2026-04-18T10:01:44.454Z</time></trkpt><trkpt lat="42.770835" lon="13.1028685"><ele>646.0</ele><time>2026-04-18T10:01:45.455Z</time></trkpt><trkpt lat="42.7709236" lon="13.102841"><ele>646.0</ele><time>2026-04-18T10:01:46.443Z</time></trkpt><trkpt lat="42.7710133" lon="13.1028084"><ele>646.0</ele><time>2026-04-18T10:01:47.463Z</time></trkpt><trkpt lat="42.7711057" lon="13.1027712"><ele>646.0</ele><time>2026-04-18T10:01:48.457Z</time></trkpt><trkpt lat="42.771202" lon="13.1027326"><ele>646.0</ele><time>2026-04-18T10:01:49.469Z</time></trkpt><trkpt lat="42.7713009" lon="13.1026961"><ele>646.0</ele><time>2026-04-18T10:01:50.451Z</time></trkpt><trkpt lat="42.7714009" lon="13.1026597"><ele>646.0</ele><time>2026-04-18T10:01:51.456Z</time></trkpt><trkpt lat="42.7715022" lon="13.102622"><ele>646.0</ele><time>2026-04-18T10:01:52.465Z</time></trkpt><trkpt lat="42.7716033" lon="13.1025821"><ele>646.0</ele><time>2026-04-18T10:01:53.473Z</time></trkpt><trkpt lat="42.7717041" lon="13.1025427"><ele>646.0</ele><time>2026-04-18T10:01:54.492Z</time></trkpt><trkpt lat="42.771798" lon="13.1025045"><ele>646.0</ele><time>2026-04-18T10:01:55.453Z</time></trkpt><trkpt lat="42.7718986" lon="13.1024677"><ele>645.1999999999999</ele><time>2026-04-18T10:01:56.492Z</time></trkpt><trkpt lat="42.7719939" lon="13.1024357"><ele>644.4</ele><time>2026-04-18T10:01:57.459Z</time></trkpt><trkpt lat="42.7720985" lon="13.1024015"><ele>643.6</ele><time>2026-04-18T10:01:58.465Z</time></trkpt><trkpt lat="42.7722017" lon="13.1023613"><ele>642.8</ele><time>2026-04-18T10:01:59.454Z</time></trkpt><trkpt lat="42.7723089" lon="13.1023267"><ele>642.0</ele><time>2026-04-18T10:02:00.484Z</time></trkpt><trkpt lat="42.7724075" lon="13.1022917"><ele>641.8</ele><time>2026-04-18T10:02:01.487Z</time></trkpt><trkpt lat="42.7725053" lon="13.1022538"><ele>641.6</ele><time>2026-04-18T10:02:02.486Z</time></trkpt><trkpt lat="42.7725993" lon="13.1022181"><ele>641.4</ele><time>2026-04-18T10:02:03.48Z</time></trkpt><trkpt lat="42.7726889" lon="13.1021807"><ele>641.1999999999999</ele><time>2026-04-18T10:02:04.466Z</time></trkpt><trkpt lat="42.7727789" lon="13.1021407"><ele>641.0</ele><time>2026-04-18T10:02:05.472Z</time></trkpt><trkpt lat="42.7728655" lon="13.1021076"><ele>640.5999999999999</ele><time>2026-04-18T10:02:06.468Z</time></trkpt><trkpt lat="42.7729531" lon="13.1020755"><ele>640.1999999999999</ele><time>2026-04-18T10:02:07.46Z</time></trkpt><trkpt lat="42.7730431" lon="13.1020409"><ele>639.8</ele><time>2026-04-18T10:02:08.478Z</time></trkpt><trkpt lat="42.7731259" lon="13.1020068"><ele>639.4</ele><time>2026-04-18T10:02:09.439Z</time></trkpt><trkpt lat="42.7732187" lon="13.101971"><ele>639.0</ele><time>2026-04-18T10:02:10.475Z</time></trkpt><trkpt lat="42.773304" lon="13.1019376"><ele>639.0</ele><time>2026-04-18T10:02:11.444Z</time></trkpt><trkpt lat="42.7733899" lon="13.1019004"><ele>639.0</ele><time>2026-04-18T10:02:12.462Z</time></trkpt><trkpt lat="42.7734761" lon="13.1018611"><ele>639.0</ele><time>2026-04-18T10:02:13.515Z</time></trkpt><trkpt lat="42.7735519" lon="13.1018257"><ele>639.0</ele><time>2026-04-18T10:02:14.468Z</time></trkpt><trkpt lat="42.7736318" lon="13.1017926"><ele>639.0</ele><time>2026-04-18T10:02:15.485Z</time></trkpt><trkpt lat="42.7737067" lon="13.1017652"><ele>639.0</ele><time>2026-04-18T10:02:16.46Z</time></trkpt><trkpt lat="42.7737814" lon="13.1017369"><ele>638.3333333333334</ele><time>2026-04-18T10:02:17.464Z</time></trkpt><trkpt lat="42.7738568" lon="13.1017107"><ele>637.6666666666666</ele><time>2026-04-18T10:02:18.442Z</time></trkpt><trkpt lat="42.7739485" lon="13.1016763"><ele>637.0</ele><time>2026-04-18T10:02:19.562Z</time></trkpt><trkpt lat="42.774028" lon="13.1016427"><ele>636.3333333333333</ele><time>2026-04-18T10:02:20.477Z</time></trkpt><trkpt lat="42.7741158" lon="13.1016087"><ele>635.6666666666666</ele><time>2026-04-18T10:02:21.44Z</time></trkpt><trkpt lat="42.7742126" lon="13.101573"><ele>635.0</ele><time>2026-04-18T10:02:22.441Z</time></trkpt><trkpt lat="42.774316" lon="13.1015365"><ele>634.0</ele><time>2026-04-18T10:02:23.455Z</time></trkpt><trkpt lat="42.7744248" lon="13.1014962"><ele>633.0</ele><time>2026-04-18T10:02:24.464Z</time></trkpt><trkpt lat="42.7745505" lon="13.1014476"><ele>632.0</ele><time>2026-04-18T10:02:25.548Z</time></trkpt><trkpt lat="42.774675" lon="13.1013936"><ele>631.0</ele><time>2026-04-18T10:02:26.49Z</time></trkpt><trkpt lat="42.774838" lon="13.1013335"><ele>631.0</ele><time>2026-04-18T10:02:27.501Z</time></trkpt><trkpt lat="42.7750003" lon="13.1012776"><ele>631.0</ele><time>2026-04-18T10:02:28.489Z</time></trkpt><trkpt lat="42.7751611" lon="13.1012232"><ele>631.0</ele><time>2026-04-18T10:02:29.493Z</time></trkpt><trkpt lat="42.7753106" lon="13.1011629"><ele>630.25</ele><time>2026-04-18T10:02:30.482Z</time></trkpt><trkpt lat="42.7754546" lon="13.1011101"><ele>629.5</ele><time>2026-04-18T10:02:31.467Z</time></trkpt><trkpt lat="42.7755954" lon="13.1010578"><ele>628.75</ele><time>2026-04-18T10:02:32.451Z</time></trkpt><trkpt lat="42.7757381" lon="13.1009983"><ele>628.0</ele><time>2026-04-18T10:02:33.484Z</time></trkpt><trkpt lat="42.775869" lon="13.100945"><ele>628.0</ele><time>2026-04-18T10:02:34.469Z</time></trkpt><trkpt lat="42.7760041" lon="13.1008974"><ele>628.0</ele><time>2026-04-18T10:02:35.499Z</time></trkpt><trkpt lat="42.7761298" lon="13.1008488"><ele>628.0</ele><time>2026-04-18T10:02:36.49Z</time></trkpt><trkpt lat="42.7762684" lon="13.1007923"><ele>628.0</ele><time>2026-04-18T10:02:37.467Z</time></trkpt><trkpt lat="42.7764249" lon="13.100734"><ele>626.0</ele><time>2026-04-18T10:02:38.469Z</time></trkpt><trkpt lat="42.7766072" lon="13.1006679"><ele>624.0</ele><time>2026-04-18T10:02:39.436Z</time></trkpt><trkpt lat="42.7768332" lon="13.1005826"><ele>622.0</ele><time>2026-04-18T10:02:40.488Z</time></trkpt><trkpt lat="42.7770346" lon="13.1005064"><ele>621.3333333333334</ele><time>2026-04-18T10:02:41.476Z</time></trkpt><trkpt lat="42.7772326" lon="13.1004312"><ele>620.6666666666666</ele><time>2026-04-18T10:02:42.501Z</time></trkpt><trkpt lat="42.7774187" lon="13.1003633"><ele>620.0</ele><time>2026-04-18T10:02:43.502Z</time></trkpt><trkpt lat="42.7775867" lon="13.1003011"><ele>618.6666666666666</ele><time>2026-04-18T10:02:44.452Z</time></trkpt><trkpt lat="42.7777779" lon="13.1002331"><ele>617.3333333333334</ele><time>2026-04-18T10:02:45.554Z</time></trkpt><trkpt lat="42.777929" lon="13.1001709"><ele>616.0</ele><time>2026-04-18T10:02:46.464Z</time></trkpt><trkpt lat="42.7780906" lon="13.1001042"><ele>616.0</ele><time>2026-04-18T10:02:47.473Z</time></trkpt><trkpt lat="42.7782428" lon="13.1000458"><ele>616.0</ele><time>2026-04-18T10:02:48.502Z</time></trkpt><trkpt lat="42.7783918" lon="13.0999856"><ele>616.0</ele><time>2026-04-18T10:02:49.626Z</time></trkpt><trkpt lat="42.7786014" lon="13.099894"><ele>615.4285714285714</ele><time>2026-04-18T10:02:51.549Z</time></trkpt><trkpt lat="42.7786778" lon="13.0998572"><ele>614.8571428571429</ele><time>2026-04-18T10:02:52.454Z</time></trkpt><trkpt lat="42.7787518" lon="13.0998274"><ele>614.2857142857142</ele><time>2026-04-18T10:02:53.51Z</time></trkpt><trkpt lat="42.7788152" lon="13.0998025"><ele>613.7142857142858</ele><time>2026-04-18T10:02:54.488Z</time></trkpt><trkpt lat="42.7788783" lon="13.0997768"><ele>613.1428571428571</ele><time>2026-04-18T10:02:55.495Z</time></trkpt><trkpt lat="42.7789397" lon="13.0997524"><ele>612.5714285714286</ele><time>2026-04-18T10:02:56.498Z</time></trkpt><trkpt lat="42.7790037" lon="13.0997308"><ele>612.0</ele><time>2026-04-18T10:02:57.493Z</time></trkpt><trkpt lat="42.7790653" lon="13.0997055"><ele>612.0</ele><time>2026-04-18T10:02:58.468Z</time></trkpt><trkpt lat="42.7791797" lon="13.0996513"><ele>612.0</ele><time>2026-04-18T10:03:00.517Z</time></trkpt><trkpt lat="42.779292" lon="13.0996019"><ele>612.0</ele><time>2026-04-18T10:03:02.538Z</time></trkpt><trkpt lat="42.7793837" lon="13.099565"><ele>612.0</ele><time>2026-04-18T10:03:04.487Z</time></trkpt><trkpt lat="42.7794356" lon="13.0995124"><ele>612.0</ele><time>2026-04-18T10:03:06.481Z</time></trkpt><trkpt lat="42.7794129" lon="13.0994032"><ele>610.0</ele><time>2026-04-18T10:03:09.483Z</time></trkpt><trkpt lat="42.7793629" lon="13.0993262"><ele>610.0</ele><time>2026-04-18T10:03:13.478Z</time></trkpt><trkpt lat="42.7792992" lon="13.099372"><ele>612.0</ele><time>2026-04-18T10:03:16.525Z</time></trkpt><trkpt lat="42.7792667" lon="13.0994593"><ele>612.0</ele><time>2026-04-18T10:03:20.502Z</time></trkpt></trkseg></trk></gpx>